<?xml version='1.0' encoding='UTF-8'?><gpx version="1.1" creator="JPX - https://github.com/jenetics/jpx" xmlns="http://www.topografix.com/GPX/1/1"><trk><trkseg><trkpt lat="-20.764662608969868" lon="116.87546550226118"><ele>11.0</ele><time>2026-04-23T01:40:37Z</time></trkpt><trkpt lat="-20.764630493798105" lon="116.87555048251477"><ele>11.0</ele><time>2026-04-23T01:40:39Z</time></trkpt><trkpt lat="-20.764619435402484" lon="116.8756215822028"><ele>11.0</ele><time>2026-04-23T01:40:41Z</time></trkpt><trkpt lat="-20.76465785668989" lon="116.87569779714637"><ele>11.0</ele><time>2026-04-23T01:40:43Z</time></trkpt><trkpt lat="-20.764767777046416" lon="116.87574574167634"><ele>11.0</ele><time>2026-04-23T01:40:45Z</time></trkpt><trkpt lat="-20.764839350042745" lon="116.87577830810574"><ele>11.0</ele><time>2026-04-23T01:40:46Z</time></trkpt><trkpt lat="-20.764900877835508" lon="116.87580709435713"><ele>11.0</ele><time>2026-04-23T01:40:47Z</time></trkpt><trkpt lat="-20.764972175983395" lon="116.87583511226987"><ele>11.0</ele><time>2026-04-23T01:40:48Z</time></trkpt><trkpt lat="-20.76505103704533" lon="116.8758626708169"><ele>11.0</ele><time>2026-04-23T01:40:49Z</time></trkpt><trkpt lat="-20.765130977814973" lon="116.87589461276954"><ele>11.0</ele><time>2026-04-23T01:40:50Z</time></trkpt><trkpt lat="-20.765217701203817" lon="116.87592854357555"><ele>11.0</ele><time>2026-04-23T01:40:51Z</time></trkpt><trkpt lat="-20.7653033359354" lon="116.87595677346621"><ele>11.0</ele><time>2026-04-23T01:40:52Z</time></trkpt><trkpt lat="-20.765397001763052" lon="116.87598676947528"><ele>11.5</ele><time>2026-04-23T01:40:53Z</time></trkpt><trkpt lat="-20.765489125479956" lon="116.87601766222534"><ele>12.0</ele><time>2026-04-23T01:40:54Z</time></trkpt><trkpt lat="-20.7655825842343" lon="116.87604825321581"><ele>12.5</ele><time>2026-04-23T01:40:55Z</time></trkpt><trkpt lat="-20.765668572323893" lon="116.8760765168289"><ele>13.0</ele><time>2026-04-23T01:40:56Z</time></trkpt><trkpt lat="-20.76574612295199" lon="116.8761078941084"><ele>13.500000000000002</ele><time>2026-04-23T01:40:57Z</time></trkpt><trkpt lat="-20.765813170138582" lon="116.87614358630887"><ele>14.0</ele><time>2026-04-23T01:40:58Z</time></trkpt><trkpt lat="-20.76586882528626" lon="116.87617874426904"><ele>14.000000000000002</ele><time>2026-04-23T01:40:59Z</time></trkpt><trkpt lat="-20.765952859568397" lon="116.87620181083453"><ele>14.0</ele><time>2026-04-23T01:41:01Z</time></trkpt><trkpt lat="-20.76602077683804" lon="116.87623572377805"><ele>14.0</ele><time>2026-04-23T01:41:03Z</time></trkpt><trkpt lat="-20.766096276382203" lon="116.87616207086701"><ele>14.0</ele><time>2026-04-23T01:41:05Z</time></trkpt><trkpt lat="-20.76613158529075" lon="116.8760954882151"><ele>14.000000000000002</ele><time>2026-04-23T01:41:06Z</time></trkpt><trkpt lat="-20.766158164923507" lon="116.87601989156252"><ele>14.0</ele><time>2026-04-23T01:41:07Z</time></trkpt><trkpt lat="-20.76618003838808" lon="116.87594426287089"><ele>13.5</ele><time>2026-04-23T01:41:08Z</time></trkpt><trkpt lat="-20.76621172698575" lon="116.87585166744674"><ele>13.0</ele><time>2026-04-23T01:41:09Z</time></trkpt><trkpt lat="-20.76625020263588" lon="116.87573453622925"><ele>12.5</ele><time>2026-04-23T01:41:10Z</time></trkpt><trkpt lat="-20.76629205818446" lon="116.87560612115907"><ele>12.0</ele><time>2026-04-23T01:41:11Z</time></trkpt><trkpt lat="-20.76633401626413" lon="116.87547943987842"><ele>12.0</ele><time>2026-04-23T01:41:12Z</time></trkpt><trkpt lat="-20.766374440729756" lon="116.8753481242141"><ele>12.0</ele><time>2026-04-23T01:41:13.001Z</time></trkpt><trkpt lat="-20.76640936055819" lon="116.87521409417249"><ele>12.0</ele><time>2026-04-23T01:41:14.001Z</time></trkpt><trkpt lat="-20.76644225838603" lon="116.87507400532213"><ele>12.0</ele><time>2026-04-23T01:41:15.001Z</time></trkpt><trkpt lat="-20.7664818221369" lon="116.87493481698496"><ele>12.0</ele><time>2026-04-23T01:41:16.001Z</time></trkpt><trkpt lat="-20.76651967779885" lon="116.87479845390915"><ele>12.0</ele><time>2026-04-23T01:41:17.001Z</time></trkpt><trkpt lat="-20.766560500970627" lon="116.87465531221252"><ele>12.0</ele><time>2026-04-23T01:41:18.001Z</time></trkpt><trkpt lat="-20.76659920531475" lon="116.87451455839496"><ele>12.0</ele><time>2026-04-23T01:41:19.001Z</time></trkpt><trkpt lat="-20.766643494379636" lon="116.87437234618665"><ele>12.25</ele><time>2026-04-23T01:41:20.001Z</time></trkpt><trkpt lat="-20.766687021352137" lon="116.87423250400268"><ele>12.5</ele><time>2026-04-23T01:41:21.001Z</time></trkpt><trkpt lat="-20.76672990842204" lon="116.87409140125763"><ele>12.75</ele><time>2026-04-23T01:41:22.001Z</time></trkpt><trkpt lat="-20.76677198792785" lon="116.8739499271149"><ele>13.0</ele><time>2026-04-23T01:41:23.001Z</time></trkpt><trkpt lat="-20.766816099704066" lon="116.87380399280654"><ele>13.0</ele><time>2026-04-23T01:41:24.001Z</time></trkpt><trkpt lat="-20.76686514161582" lon="116.8736546685741"><ele>13.0</ele><time>2026-04-23T01:41:25.001Z</time></trkpt><trkpt lat="-20.766915843133734" lon="116.87350599950867"><ele>13.0</ele><time>2026-04-23T01:41:26.001Z</time></trkpt><trkpt lat="-20.766965042917157" lon="116.87335227050407"><ele>13.0</ele><time>2026-04-23T01:41:27.001Z</time></trkpt><trkpt lat="-20.767011382531972" lon="116.87319773559177"><ele>13.333333333333332</ele><time>2026-04-23T01:41:28.001Z</time></trkpt><trkpt lat="-20.767058287436335" lon="116.87303927388972"><ele>13.666666666666668</ele><time>2026-04-23T01:41:29.001Z</time></trkpt><trkpt lat="-20.767107087261845" lon="116.87287995059827"><ele>14.0</ele><time>2026-04-23T01:41:30.001Z</time></trkpt><trkpt lat="-20.767159980716254" lon="116.87271716241565"><ele>13.666666666666668</ele><time>2026-04-23T01:41:31.001Z</time></trkpt><trkpt lat="-20.76721318217795" lon="116.87255322854347"><ele>13.333333333333332</ele><time>2026-04-23T01:41:32.001Z</time></trkpt><trkpt lat="-20.767264281067842" lon="116.87239099488991"><ele>13.0</ele><time>2026-04-23T01:41:33.001Z</time></trkpt><trkpt lat="-20.767311037787444" lon="116.87223617022947"><ele>13.0</ele><time>2026-04-23T01:41:34.001Z</time></trkpt><trkpt lat="-20.767355435749497" lon="116.87208413921071"><ele>13.0</ele><time>2026-04-23T01:41:35.001Z</time></trkpt><trkpt lat="-20.767399042878626" lon="116.87193196385975"><ele>13.0</ele><time>2026-04-23T01:41:36.001Z</time></trkpt><trkpt lat="-20.767444170775626" lon="116.87178280596437"><ele>13.0</ele><time>2026-04-23T01:41:36.998Z</time></trkpt><trkpt lat="-20.76749318140582" lon="116.87163724570225"><ele>12.75</ele><time>2026-04-23T01:41:37.998Z</time></trkpt><trkpt lat="-20.767544031215223" lon="116.87149218120035"><ele>12.5</ele><time>2026-04-23T01:41:38.998Z</time></trkpt><trkpt lat="-20.767588114871877" lon="116.87135944376102"><ele>12.25</ele><time>2026-04-23T01:41:39.998Z</time></trkpt><trkpt lat="-20.76762596805335" lon="116.87123441413203"><ele>12.0</ele><time>2026-04-23T01:41:40.998Z</time></trkpt><trkpt lat="-20.767659957436525" lon="116.87111986806755"><ele>12.2</ele><time>2026-04-23T01:41:41.998Z</time></trkpt><trkpt lat="-20.76769404631569" lon="116.87102717341122"><ele>12.399999999999999</ele><time>2026-04-23T01:41:42.998Z</time></trkpt><trkpt lat="-20.767735365087027" lon="116.87096285852327"><ele>12.600000000000001</ele><time>2026-04-23T01:41:43.998Z</time></trkpt><trkpt lat="-20.767764698353872" lon="116.87086879419583"><ele>12.8</ele><time>2026-04-23T01:41:45.998Z</time></trkpt><trkpt lat="-20.767941476847238" lon="116.87090934221433"><ele>13.0</ele><time>2026-04-23T01:41:46.998Z</time></trkpt><trkpt lat="-20.768033020847188" lon="116.87093489613753"><ele>13.0</ele><time>2026-04-23T01:41:47.998Z</time></trkpt><trkpt lat="-20.76813466886861" lon="116.87096950014573"><ele>13.0</ele><time>2026-04-23T01:41:48.998Z</time></trkpt><trkpt lat="-20.768248360410208" lon="116.87100410751891"><ele>13.0</ele><time>2026-04-23T01:41:49.998Z</time></trkpt><trkpt lat="-20.768368631420504" lon="116.87103348130216"><ele>13.0</ele><time>2026-04-23T01:41:50.998Z</time></trkpt><trkpt lat="-20.76849247600749" lon="116.87107189981451"><ele>13.0</ele><time>2026-04-23T01:41:51.998Z</time></trkpt><trkpt lat="-20.768621557429174" lon="116.8711139574304"><ele>13.0</ele><time>2026-04-23T01:41:52.998Z</time></trkpt><trkpt lat="-20.768752587012457" lon="116.8711509707888"><ele>13.0</ele><time>2026-04-23T01:41:53.998Z</time></trkpt><trkpt lat="-20.768888339093284" lon="116.8711960437602"><ele>13.0</ele><time>2026-04-23T01:41:54.998Z</time></trkpt><trkpt lat="-20.76902538586673" lon="116.87124306637368"><ele>13.0</ele><time>2026-04-23T01:41:55.999Z</time></trkpt><trkpt lat="-20.76916719408289" lon="116.87128587050033"><ele>13.0</ele><time>2026-04-23T01:41:56.999Z</time></trkpt><trkpt lat="-20.76930567902431" lon="116.87133159443387"><ele>13.0</ele><time>2026-04-23T01:41:57.999Z</time></trkpt><trkpt lat="-20.769444511818598" lon="116.87137976458658"><ele>13.0</ele><time>2026-04-23T01:41:58.999Z</time></trkpt><trkpt lat="-20.769578703795663" lon="116.87142684584212"><ele>12.5</ele><time>2026-04-23T01:41:59.999Z</time></trkpt><trkpt lat="-20.76971090728003" lon="116.8714704092815"><ele>12.0</ele><time>2026-04-23T01:42:00.999Z</time></trkpt><trkpt lat="-20.769849747885683" lon="116.87151411764583"><ele>11.5</ele><time>2026-04-23T01:42:01.999Z</time></trkpt><trkpt lat="-20.769989987602877" lon="116.87155943362069"><ele>11.0</ele><time>2026-04-23T01:42:02.999Z</time></trkpt><trkpt lat="-20.77013103045231" lon="116.8716069805894"><ele>11.0</ele><time>2026-04-23T01:42:03.999Z</time></trkpt><trkpt lat="-20.770265358634845" lon="116.87166057982779"><ele>11.0</ele><time>2026-04-23T01:42:04.999Z</time></trkpt><trkpt lat="-20.77039397846594" lon="116.87172221073263"><ele>11.0</ele><time>2026-04-23T01:42:05.999Z</time></trkpt><trkpt lat="-20.770513037029236" lon="116.87178848264007"><ele>11.0</ele><time>2026-04-23T01:42:06.999Z</time></trkpt><trkpt lat="-20.770621356541035" lon="116.8718685635354"><ele>11.0</ele><time>2026-04-23T01:42:07.999Z</time></trkpt><trkpt lat="-20.770714618767414" lon="116.87197099715026"><ele>11.0</ele><time>2026-04-23T01:42:08.999Z</time></trkpt><trkpt lat="-20.770806762754216" lon="116.87208324551656"><ele>11.0</ele><time>2026-04-23T01:42:09.999Z</time></trkpt><trkpt lat="-20.77090738257698" lon="116.87219716545911"><ele>11.0</ele><time>2026-04-23T01:42:10.999Z</time></trkpt><trkpt lat="-20.771008831153637" lon="116.87231176969696"><ele>11.666666666666666</ele><time>2026-04-23T01:42:11.999Z</time></trkpt><trkpt lat="-20.771112862044422" lon="116.87243069830159"><ele>12.333333333333332</ele><time>2026-04-23T01:42:12.999Z</time></trkpt><trkpt lat="-20.77122227566319" lon="116.87255091165554"><ele>13.0</ele><time>2026-04-23T01:42:13.999Z</time></trkpt><trkpt lat="-20.771338321537435" lon="116.87266728537944"><ele>11.666666666666666</ele><time>2026-04-23T01:42:14.999Z</time></trkpt><trkpt lat="-20.7714528535408" lon="116.87278361734808"><ele>10.333333333333332</ele><time>2026-04-23T01:42:15.999Z</time></trkpt><trkpt lat="-20.77156354810495" lon="116.87290067884392"><ele>9.0</ele><time>2026-04-23T01:42:16.999Z</time></trkpt><trkpt lat="-20.771671902302455" lon="116.87301645904726"><ele>9.0</ele><time>2026-04-23T01:42:17.999Z</time></trkpt><trkpt lat="-20.77178065366195" lon="116.87313175309767"><ele>9.0</ele><time>2026-04-23T01:42:18.999Z</time></trkpt><trkpt lat="-20.771893942301748" lon="116.87325231752439"><ele>9.0</ele><time>2026-04-23T01:42:19.999Z</time></trkpt><trkpt lat="-20.77200498206137" lon="116.87337486963614"><ele>9.666666666666666</ele><time>2026-04-23T01:42:20.999Z</time></trkpt><trkpt lat="-20.772120219632967" lon="116.87349556445923"><ele>10.333333333333332</ele><time>2026-04-23T01:42:21.999Z</time></trkpt><trkpt lat="-20.772234027487784" lon="116.8736039178299"><ele>11.0</ele><time>2026-04-23T01:42:22.999Z</time></trkpt><trkpt lat="-20.772343596175936" lon="116.87370251714945"><ele>11.0</ele><time>2026-04-23T01:42:23.999Z</time></trkpt><trkpt lat="-20.772443135305203" lon="116.87377805337435"><ele>11.0</ele><time>2026-04-23T01:42:24.999Z</time></trkpt><trkpt lat="-20.77254190462658" lon="116.87382002381564"><ele>11.0</ele><time>2026-04-23T01:42:25.999Z</time></trkpt><trkpt lat="-20.772643621466802" lon="116.8738209427417"><ele>11.0</ele><time>2026-04-23T01:42:27Z</time></trkpt><trkpt lat="-20.772755183111453" lon="116.87378653024855"><ele>11.0</ele><time>2026-04-23T01:42:28Z</time></trkpt><trkpt lat="-20.772869956505712" lon="116.87371457969958"><ele>11.333333333333332</ele><time>2026-04-23T01:42:29Z</time></trkpt><trkpt lat="-20.77298702468955" lon="116.87361724510296"><ele>11.666666666666666</ele><time>2026-04-23T01:42:30Z</time></trkpt><trkpt lat="-20.77310995583479" lon="116.87350815330727"><ele>12.0</ele><time>2026-04-23T01:42:31Z</time></trkpt><trkpt lat="-20.773240912714662" lon="116.87339597008715"><ele>12.666666666666668</ele><time>2026-04-23T01:42:32Z</time></trkpt><trkpt lat="-20.77338033202319" lon="116.87327585053531"><ele>13.333333333333334</ele><time>2026-04-23T01:42:33Z</time></trkpt><trkpt lat="-20.773524038152715" lon="116.873151827374"><ele>14.0</ele><time>2026-04-23T01:42:34Z</time></trkpt><trkpt lat="-20.773676385485285" lon="116.87302724957753"><ele>12.666666666666668</ele><time>2026-04-23T01:42:35Z</time></trkpt><trkpt lat="-20.773819657994938" lon="116.87291244914864"><ele>11.333333333333334</ele><time>2026-04-23T01:42:36Z</time></trkpt><trkpt lat="-20.773961217216318" lon="116.87280199343427"><ele>10.0</ele><time>2026-04-23T01:42:37Z</time></trkpt><trkpt lat="-20.774100927734185" lon="116.87268541378621"><ele>10.666666666666668</ele><time>2026-04-23T01:42:38Z</time></trkpt><trkpt lat="-20.774246826681242" lon="116.8725652461676"><ele>11.333333333333334</ele><time>2026-04-23T01:42:39Z</time></trkpt><trkpt lat="-20.774395033919383" lon="116.87244507241165"><ele>12.0</ele><time>2026-04-23T01:42:40Z</time></trkpt><trkpt lat="-20.77454282481251" lon="116.87232284770782"><ele>12.0</ele><time>2026-04-23T01:42:41Z</time></trkpt><trkpt lat="-20.774692831425977" lon="116.87219472745097"><ele>12.0</ele><time>2026-04-23T01:42:42Z</time></trkpt><trkpt lat="-20.774846518658716" lon="116.87206588879332"><ele>12.0</ele><time>2026-04-23T01:42:43Z</time></trkpt><trkpt lat="-20.774995040188593" lon="116.87194332297862"><ele>12.0</ele><time>2026-04-23T01:42:44Z</time></trkpt><trkpt lat="-20.775128674317486" lon="116.87182452935521"><ele>12.0</ele><time>2026-04-23T01:42:45Z</time></trkpt><trkpt lat="-20.77523665470757" lon="116.87169753327315"><ele>12.0</ele><time>2026-04-23T01:42:46Z</time></trkpt><trkpt lat="-20.775319677773318" lon="116.87155187313844"><ele>11.333333333333334</ele><time>2026-04-23T01:42:47Z</time></trkpt><trkpt lat="-20.77537369691907" lon="116.87138858540457"><ele>10.666666666666668</ele><time>2026-04-23T01:42:48Z</time></trkpt><trkpt lat="-20.77541181716707" lon="116.87121048877786"><ele>10.0</ele><time>2026-04-23T01:42:49Z</time></trkpt><trkpt lat="-20.77544111441274" lon="116.87102803254507"><ele>10.0</ele><time>2026-04-23T01:42:50Z</time></trkpt><trkpt lat="-20.775473426302995" lon="116.87083946067328"><ele>10.0</ele><time>2026-04-23T01:42:51Z</time></trkpt><trkpt lat="-20.775510391748277" lon="116.87064998184569"><ele>10.0</ele><time>2026-04-23T01:42:52Z</time></trkpt><trkpt lat="-20.775547636498416" lon="116.87045581292855"><ele>10.0</ele><time>2026-04-23T01:42:53Z</time></trkpt><trkpt lat="-20.775601250284904" lon="116.87026798119088"><ele>10.0</ele><time>2026-04-23T01:42:54Z</time></trkpt><trkpt lat="-20.775606435460475" lon="116.87007386086086"><ele>10.0</ele><time>2026-04-23T01:42:55Z</time></trkpt><trkpt lat="-20.77564792536119" lon="116.86989546294319"><ele>10.0</ele><time>2026-04-23T01:42:56Z</time></trkpt><trkpt lat="-20.775688506460845" lon="116.86971758486901"><ele>10.0</ele><time>2026-04-23T01:42:57Z</time></trkpt><trkpt lat="-20.775723621696557" lon="116.86953754283688"><ele>10.0</ele><time>2026-04-23T01:42:58Z</time></trkpt><trkpt lat="-20.77575574355416" lon="116.86935295849207"><ele>10.333333333333334</ele><time>2026-04-23T01:42:59Z</time></trkpt><trkpt lat="-20.77577704343352" lon="116.86915756877725"><ele>10.666666666666666</ele><time>2026-04-23T01:43:00Z</time></trkpt><trkpt lat="-20.775770736898682" lon="116.86894825269863"><ele>11.0</ele><time>2026-04-23T01:43:01Z</time></trkpt><trkpt lat="-20.775755915852386" lon="116.8687268716346"><ele>11.0</ele><time>2026-04-23T01:43:02Z</time></trkpt><trkpt lat="-20.775693932707842" lon="116.86852201898118"><ele>11.0</ele><time>2026-04-23T01:43:03Z</time></trkpt><trkpt lat="-20.77564508151375" lon="116.86831513282674"><ele>11.0</ele><time>2026-04-23T01:43:04Z</time></trkpt><trkpt lat="-20.77559908861441" lon="116.86811207581867"><ele>11.333333333333332</ele><time>2026-04-23T01:43:05Z</time></trkpt><trkpt lat="-20.77556531060972" lon="116.86790797588664"><ele>11.666666666666666</ele><time>2026-04-23T01:43:06Z</time></trkpt><trkpt lat="-20.775572564626753" lon="116.86770385724607"><ele>12.0</ele><time>2026-04-23T01:43:07Z</time></trkpt><trkpt lat="-20.775579419872194" lon="116.86749449328784"><ele>11.333333333333334</ele><time>2026-04-23T01:43:08Z</time></trkpt><trkpt lat="-20.775601563125097" lon="116.86727975106574"><ele>10.666666666666668</ele><time>2026-04-23T01:43:09Z</time></trkpt><trkpt lat="-20.775627297603855" lon="116.86706366675207"><ele>10.0</ele><time>2026-04-23T01:43:10Z</time></trkpt><trkpt lat="-20.77565175439033" lon="116.86685137065582"><ele>11.0</ele><time>2026-04-23T01:43:11Z</time></trkpt><trkpt lat="-20.775674457235397" lon="116.86664241377123"><ele>12.0</ele><time>2026-04-23T01:43:12Z</time></trkpt><trkpt lat="-20.77569238402246" lon="116.86643883939227"><ele>13.0</ele><time>2026-04-23T01:43:13Z</time></trkpt><trkpt lat="-20.77570929204179" lon="116.86623206360356"><ele>13.0</ele><time>2026-04-23T01:43:14Z</time></trkpt><trkpt lat="-20.77572665826807" lon="116.86602059635817"><ele>13.0</ele><time>2026-04-23T01:43:15Z</time></trkpt><trkpt lat="-20.77574409629323" lon="116.86580829940104"><ele>13.0</ele><time>2026-04-23T01:43:16Z</time></trkpt><trkpt lat="-20.775760960473065" lon="116.8656018652301"><ele>13.0</ele><time>2026-04-23T01:43:17Z</time></trkpt><trkpt lat="-20.775777570312467" lon="116.86540326954453"><ele>13.0</ele><time>2026-04-23T01:43:18Z</time></trkpt><trkpt lat="-20.775803427772367" lon="116.86520727365769"><ele>13.0</ele><time>2026-04-23T01:43:19Z</time></trkpt><trkpt lat="-20.775848280676513" lon="116.86501471351924"><ele>13.0</ele><time>2026-04-23T01:43:20Z</time></trkpt><trkpt lat="-20.77589976633966" lon="116.86481064915111"><ele>13.0</ele><time>2026-04-23T01:43:21Z</time></trkpt><trkpt lat="-20.77599182668839" lon="116.8646129288239"><ele>13.0</ele><time>2026-04-23T01:43:22Z</time></trkpt><trkpt lat="-20.77608908268481" lon="116.8644083885163"><ele>13.0</ele><time>2026-04-23T01:43:23Z</time></trkpt><trkpt lat="-20.77618189443835" lon="116.86419905008285"><ele>13.0</ele><time>2026-04-23T01:43:24Z</time></trkpt><trkpt lat="-20.776279318095604" lon="116.86398299015663"><ele>13.0</ele><time>2026-04-23T01:43:25Z</time></trkpt><trkpt lat="-20.776379671870732" lon="116.86376722335793"><ele>13.0</ele><time>2026-04-23T01:43:26Z</time></trkpt><trkpt lat="-20.776482656366248" lon="116.86354913721745"><ele>13.0</ele><time>2026-04-23T01:43:27Z</time></trkpt><trkpt lat="-20.77658687026101" lon="116.86332635335367"><ele>13.0</ele><time>2026-04-23T01:43:28Z</time></trkpt><trkpt lat="-20.776687768526166" lon="116.86309946128554"><ele>13.0</ele><time>2026-04-23T01:43:29Z</time></trkpt><trkpt lat="-20.776783572892104" lon="116.86288021621876"><ele>12.0</ele><time>2026-04-23T01:43:30Z</time></trkpt><trkpt lat="-20.776876031338695" lon="116.86267076304497"><ele>11.0</ele><time>2026-04-23T01:43:31Z</time></trkpt><trkpt lat="-20.77696131902276" lon="116.8624772047581"><ele>10.0</ele><time>2026-04-23T01:43:32Z</time></trkpt><trkpt lat="-20.77703987670384" lon="116.86229170767801"><ele>10.0</ele><time>2026-04-23T01:43:33Z</time></trkpt><trkpt lat="-20.777103758769442" lon="116.86211188923748"><ele>10.0</ele><time>2026-04-23T01:43:34Z</time></trkpt><trkpt lat="-20.777146848972848" lon="116.86193913666636"><ele>10.0</ele><time>2026-04-23T01:43:35Z</time></trkpt><trkpt lat="-20.777163322385974" lon="116.86176645073363"><ele>10.5</ele><time>2026-04-23T01:43:36Z</time></trkpt><trkpt lat="-20.777150473203253" lon="116.86160559726468"><ele>11.0</ele><time>2026-04-23T01:43:37Z</time></trkpt><trkpt lat="-20.77711043142275" lon="116.86147456674539"><ele>11.5</ele><time>2026-04-23T01:43:38Z</time></trkpt><trkpt lat="-20.777047597194418" lon="116.86137077346505"><ele>12.0</ele><time>2026-04-23T01:43:39Z</time></trkpt><trkpt lat="-20.77695833849162" lon="116.86127078980869"><ele>12.0</ele><time>2026-04-23T01:43:40Z</time></trkpt><trkpt lat="-20.776855866153976" lon="116.86118167334907"><ele>12.0</ele><time>2026-04-23T01:43:41Z</time></trkpt><trkpt lat="-20.77673745040926" lon="116.8610888861792"><ele>12.0</ele><time>2026-04-23T01:43:42Z</time></trkpt><trkpt lat="-20.77661045970207" lon="116.86099004850303"><ele>12.0</ele><time>2026-04-23T01:43:42.998Z</time></trkpt><trkpt lat="-20.776479667384827" lon="116.86088290185586"><ele>12.666666666666668</ele><time>2026-04-23T01:43:43.998Z</time></trkpt><trkpt lat="-20.77634244398961" lon="116.86076708653978"><ele>13.333333333333334</ele><time>2026-04-23T01:43:44.998Z</time></trkpt><trkpt lat="-20.776200962309357" lon="116.86064953319972"><ele>14.0</ele><time>2026-04-23T01:43:45.998Z</time></trkpt><trkpt lat="-20.776055038153807" lon="116.86052933536973"><ele>14.0</ele><time>2026-04-23T01:43:46.998Z</time></trkpt><trkpt lat="-20.77590442409551" lon="116.86040360705687"><ele>14.0</ele><time>2026-04-23T01:43:47.998Z</time></trkpt><trkpt lat="-20.77574902324817" lon="116.8602718864424"><ele>14.0</ele><time>2026-04-23T01:43:48.998Z</time></trkpt><trkpt lat="-20.77559137575207" lon="116.86013436980302"><ele>13.666666666666668</ele><time>2026-04-23T01:43:49.998Z</time></trkpt><trkpt lat="-20.775433539814973" lon="116.86000538702311"><ele>13.333333333333332</ele><time>2026-04-23T01:43:50.998Z</time></trkpt><trkpt lat="-20.775279285872806" lon="116.85989277392416"><ele>13.0</ele><time>2026-04-23T01:43:51.998Z</time></trkpt><trkpt lat="-20.775122924340177" lon="116.85979397786315"><ele>14.0</ele><time>2026-04-23T01:43:52.998Z</time></trkpt><trkpt lat="-20.77496898872463" lon="116.85971270014745"><ele>15.0</ele><time>2026-04-23T01:43:53.998Z</time></trkpt><trkpt lat="-20.77482272881502" lon="116.85964437106799"><ele>16.0</ele><time>2026-04-23T01:43:54.998Z</time></trkpt><trkpt lat="-20.774687205702946" lon="116.85958289641624"><ele>16.0</ele><time>2026-04-23T01:43:55.998Z</time></trkpt><trkpt lat="-20.774563362401178" lon="116.85952691107128"><ele>16.0</ele><time>2026-04-23T01:43:56.998Z</time></trkpt><trkpt lat="-20.77445666555796" lon="116.8594770246919"><ele>16.0</ele><time>2026-04-23T01:43:57.999Z</time></trkpt><trkpt lat="-20.774366452849872" lon="116.85943236862661"><ele>16.0</ele><time>2026-04-23T01:43:58.999Z</time></trkpt><trkpt lat="-20.77429103358313" lon="116.85939043800539"><ele>16.0</ele><time>2026-04-23T01:43:59.999Z</time></trkpt><trkpt lat="-20.774231326927662" lon="116.85935188408847"><ele>15.999999999999998</ele><time>2026-04-23T01:44:00.999Z</time></trkpt><trkpt lat="-20.774176933257277" lon="116.85930364150569"><ele>16.0</ele><time>2026-04-23T01:44:02.999Z</time></trkpt><trkpt lat="-20.774158222100485" lon="116.85923487886421"><ele>16.0</ele><time>2026-04-23T01:44:04.999Z</time></trkpt><trkpt lat="-20.77416206979309" lon="116.8591632493931"><ele>16.0</ele><time>2026-04-23T01:44:05.999Z</time></trkpt><trkpt lat="-20.774195294544867" lon="116.85906729410137"><ele>15.999999999999998</ele><time>2026-04-23T01:44:06.999Z</time></trkpt><trkpt lat="-20.774233734634805" lon="116.85897196803765"><ele>16.0</ele><time>2026-04-23T01:44:07.999Z</time></trkpt><trkpt lat="-20.774270066864567" lon="116.85889385455589"><ele>15.833333333333332</ele><time>2026-04-23T01:44:08.999Z</time></trkpt><trkpt lat="-20.774303471774775" lon="116.85882635689408"><ele>15.666666666666666</ele><time>2026-04-23T01:44:09.999Z</time></trkpt><trkpt lat="-20.774368936340345" lon="116.85872334528608"><ele>15.5</ele><time>2026-04-23T01:44:11.999Z</time></trkpt><trkpt lat="-20.774426037617985" lon="116.8586800836372"><ele>15.333333333333332</ele><time>2026-04-23T01:44:12.999Z</time></trkpt><trkpt lat="-20.77450388834421" lon="116.85865410058194"><ele>15.166666666666666</ele><time>2026-04-23T01:44:13.999Z</time></trkpt><trkpt lat="-20.774598498177586" lon="116.85865340035548"><ele>15.0</ele><time>2026-04-23T01:44:14.999Z</time></trkpt><trkpt lat="-20.77469889168349" lon="116.85867926757712"><ele>15.0</ele><time>2026-04-23T01:44:15.999Z</time></trkpt><trkpt lat="-20.77481087421888" lon="116.8587259852113"><ele>15.0</ele><time>2026-04-23T01:44:16.999Z</time></trkpt><trkpt lat="-20.774932486375246" lon="116.85877327549396"><ele>15.0</ele><time>2026-04-23T01:44:17.999Z</time></trkpt><trkpt lat="-20.775072656206888" lon="116.8588226558041"><ele>15.0</ele><time>2026-04-23T01:44:18.999Z</time></trkpt><trkpt lat="-20.77521699277549" lon="116.85887357304914"><ele>13.333333333333334</ele><time>2026-04-23T01:44:19.999Z</time></trkpt><trkpt lat="-20.775379185552286" lon="116.8589303763674"><ele>11.666666666666668</ele><time>2026-04-23T01:44:20.999Z</time></trkpt><trkpt lat="-20.775557608101344" lon="116.85898724309949"><ele>10.0</ele><time>2026-04-23T01:44:21.999Z</time></trkpt><trkpt lat="-20.775741442760566" lon="116.85904078080597"><ele>10.0</ele><time>2026-04-23T01:44:22.999Z</time></trkpt><trkpt lat="-20.77592892114411" lon="116.85909269872309"><ele>10.0</ele><time>2026-04-23T01:44:23.999Z</time></trkpt><trkpt lat="-20.77612619316758" lon="116.85914772479485"><ele>10.0</ele><time>2026-04-23T01:44:24.999Z</time></trkpt><trkpt lat="-20.77633069866211" lon="116.85920263028602"><ele>10.0</ele><time>2026-04-23T01:44:25.999Z</time></trkpt><trkpt lat="-20.776543384502368" lon="116.8592538370301"><ele>10.0</ele><time>2026-04-23T01:44:26.999Z</time></trkpt><trkpt lat="-20.776765154755253" lon="116.8593097630556"><ele>10.0</ele><time>2026-04-23T01:44:27.999Z</time></trkpt><trkpt lat="-20.776992905692254" lon="116.85936855666294"><ele>11.5</ele><time>2026-04-23T01:44:28.999Z</time></trkpt><trkpt lat="-20.77721405810852" lon="116.85943033418538"><ele>13.0</ele><time>2026-04-23T01:44:29.999Z</time></trkpt><trkpt lat="-20.777439431977175" lon="116.85949749597226"><ele>13.0</ele><time>2026-04-23T01:44:30.999Z</time></trkpt><trkpt lat="-20.777671122016653" lon="116.85956766169713"><ele>13.0</ele><time>2026-04-23T01:44:31.999Z</time></trkpt><trkpt lat="-20.777910005063955" lon="116.85963878433331"><ele>12.5</ele><time>2026-04-23T01:44:33Z</time></trkpt><trkpt lat="-20.778153357283898" lon="116.85970753442894"><ele>12.0</ele><time>2026-04-23T01:44:34Z</time></trkpt><trkpt lat="-20.77838733564834" lon="116.85977331106561"><ele>13.5</ele><time>2026-04-23T01:44:35Z</time></trkpt><trkpt lat="-20.778615987087722" lon="116.85983874243291"><ele>15.0</ele><time>2026-04-23T01:44:36Z</time></trkpt><trkpt lat="-20.778845177126556" lon="116.85990530392344"><ele>15.0</ele><time>2026-04-23T01:44:37Z</time></trkpt><trkpt lat="-20.77907321495514" lon="116.85996917633902"><ele>15.0</ele><time>2026-04-23T01:44:38Z</time></trkpt><trkpt lat="-20.779301202275978" lon="116.86003055898668"><ele>13.5</ele><time>2026-04-23T01:44:39Z</time></trkpt><trkpt lat="-20.779528138304048" lon="116.86009711692574"><ele>12.0</ele><time>2026-04-23T01:44:40Z</time></trkpt><trkpt lat="-20.779755341036502" lon="116.86016383159087"><ele>12.0</ele><time>2026-04-23T01:44:41Z</time></trkpt><trkpt lat="-20.77998822399571" lon="116.86023168751784"><ele>12.0</ele><time>2026-04-23T01:44:42Z</time></trkpt><trkpt lat="-20.780224923877665" lon="116.86030062337915"><ele>12.0</ele><time>2026-04-23T01:44:43Z</time></trkpt><trkpt lat="-20.780464326253615" lon="116.86037004022678"><ele>12.0</ele><time>2026-04-23T01:44:44Z</time></trkpt><trkpt lat="-20.780706952484305" lon="116.8604379193775"><ele>12.0</ele><time>2026-04-23T01:44:45Z</time></trkpt><trkpt lat="-20.780949386392095" lon="116.86050570781883"><ele>12.0</ele><time>2026-04-23T01:44:46Z</time></trkpt><trkpt lat="-20.78119446019955" lon="116.86057495919958"><ele>12.0</ele><time>2026-04-23T01:44:47Z</time></trkpt><trkpt lat="-20.781438813829336" lon="116.86064558938801"><ele>12.0</ele><time>2026-04-23T01:44:48Z</time></trkpt><trkpt lat="-20.781686328455027" lon="116.86071636484523"><ele>13.5</ele><time>2026-04-23T01:44:49Z</time></trkpt><trkpt lat="-20.78193353428359" lon="116.86078911610721"><ele>15.0</ele><time>2026-04-23T01:44:50Z</time></trkpt><trkpt lat="-20.782182839059086" lon="116.86086363307768"><ele>15.0</ele><time>2026-04-23T01:44:51Z</time></trkpt><trkpt lat="-20.782427415974773" lon="116.86093370421206"><ele>15.0</ele><time>2026-04-23T01:44:52Z</time></trkpt><trkpt lat="-20.782671990297317" lon="116.86100105382434"><ele>16.5</ele><time>2026-04-23T01:44:53Z</time></trkpt><trkpt lat="-20.78291568272646" lon="116.86106699875816"><ele>18.0</ele><time>2026-04-23T01:44:54Z</time></trkpt><trkpt lat="-20.783158163770757" lon="116.86113257592525"><ele>18.0</ele><time>2026-04-23T01:44:55Z</time></trkpt><trkpt lat="-20.783397326101507" lon="116.8611893755513"><ele>18.0</ele><time>2026-04-23T01:44:56Z</time></trkpt><trkpt lat="-20.7836227279227" lon="116.86123220861518"><ele>17.333333333333332</ele><time>2026-04-23T01:44:57Z</time></trkpt><trkpt lat="-20.783828306821448" lon="116.86126261063532"><ele>16.666666666666664</ele><time>2026-04-23T01:44:58Z</time></trkpt><trkpt lat="-20.784022753652245" lon="116.86128619073827"><ele>16.0</ele><time>2026-04-23T01:44:59Z</time></trkpt><trkpt lat="-20.784199224482215" lon="116.86130313267923"><ele>15.666666666666666</ele><time>2026-04-23T01:45:00Z</time></trkpt><trkpt lat="-20.78436628706805" lon="116.86132262482961"><ele>15.333333333333332</ele><time>2026-04-23T01:45:01Z</time></trkpt><trkpt lat="-20.784536799995294" lon="116.8613403211594"><ele>15.0</ele><time>2026-04-23T01:45:02Z</time></trkpt><trkpt lat="-20.78470731577632" lon="116.86135446073945"><ele>15.0</ele><time>2026-04-23T01:45:03Z</time></trkpt><trkpt lat="-20.78487784899695" lon="116.86136791773177"><ele>15.0</ele><time>2026-04-23T01:45:04Z</time></trkpt><trkpt lat="-20.785046026016662" lon="116.86137827100984"><ele>15.0</ele><time>2026-04-23T01:45:05Z</time></trkpt><trkpt lat="-20.785212141193043" lon="116.86138517175651"><ele>15.0</ele><time>2026-04-23T01:45:06Z</time></trkpt><trkpt lat="-20.785364260191095" lon="116.861391438933"><ele>15.0</ele><time>2026-04-23T01:45:07Z</time></trkpt><trkpt lat="-20.785498266141115" lon="116.86139553508065"><ele>15.0</ele><time>2026-04-23T01:45:08Z</time></trkpt><trkpt lat="-20.785622153581023" lon="116.86140141255423"><ele>15.0</ele><time>2026-04-23T01:45:09Z</time></trkpt><trkpt lat="-20.785735810817215" lon="116.86140665801805"><ele>15.0</ele><time>2026-04-23T01:45:10Z</time></trkpt><trkpt lat="-20.78583659009478" lon="116.8614142080729"><ele>15.0</ele><time>2026-04-23T01:45:11Z</time></trkpt><trkpt lat="-20.78592698609522" lon="116.86142262577373"><ele>15.0</ele><time>2026-04-23T01:45:12Z</time></trkpt><trkpt lat="-20.786017454001257" lon="116.86142866465387"><ele>15.0</ele><time>2026-04-23T01:45:13Z</time></trkpt><trkpt lat="-20.786100201827097" lon="116.86143345776988"><ele>15.0</ele><time>2026-04-23T01:45:14Z</time></trkpt><trkpt lat="-20.786171087950066" lon="116.86143959574984"><ele>15.0</ele><time>2026-04-23T01:45:15Z</time></trkpt><trkpt lat="-20.78624728174158" lon="116.86146023815304"><ele>15.0</ele><time>2026-04-23T01:45:17Z</time></trkpt><trkpt lat="-20.786250319290794" lon="116.86154009360408"><ele>15.0</ele><time>2026-04-23T01:45:20Z</time></trkpt><trkpt lat="-20.786188797764066" lon="116.86157672549395"><ele>15.0</ele><time>2026-04-23T01:45:22Z</time></trkpt><trkpt lat="-20.786068097979122" lon="116.86155882625783"><ele>15.0</ele><time>2026-04-23T01:45:24Z</time></trkpt><trkpt lat="-20.786006763078717" lon="116.86153831591967"><ele>15.0</ele><time>2026-04-23T01:45:25Z</time></trkpt><trkpt lat="-20.785943696439645" lon="116.86152079430762"><ele>15.0</ele><time>2026-04-23T01:45:26Z</time></trkpt><trkpt lat="-20.78584328170285" lon="116.86149750997181"><ele>15.0</ele><time>2026-04-23T01:45:28Z</time></trkpt><trkpt lat="-20.78577535933507" lon="116.8614851156683"><ele>15.0</ele><time>2026-04-23T01:45:31Z</time></trkpt><trkpt lat="-20.78572979951676" lon="116.86154175746192"><ele>15.0</ele><time>2026-04-23T01:45:59.999Z</time></trkpt><trkpt lat="-20.78573439864738" lon="116.86164022821566"><ele>15.0</ele><time>2026-04-23T01:46:01.999Z</time></trkpt><trkpt lat="-20.785734721336553" lon="116.86175436886195"><ele>15.0</ele><time>2026-04-23T01:46:03.999Z</time></trkpt><trkpt lat="-20.785722215906613" lon="116.86189166304372"><ele>14.833333333333334</ele><time>2026-04-23T01:46:05.999Z</time></trkpt><trkpt lat="-20.78571583849319" lon="116.861963800179"><ele>14.666666666666668</ele><time>2026-04-23T01:46:06.999Z</time></trkpt><trkpt lat="-20.785699276854455" lon="116.8620863837993"><ele>14.5</ele><time>2026-04-23T01:46:08.999Z</time></trkpt><trkpt lat="-20.785682841930814" lon="116.86215321593518"><ele>14.333333333333334</ele><time>2026-04-23T01:46:09.999Z</time></trkpt><trkpt lat="-20.785662328142333" lon="116.862221032996"><ele>14.166666666666668</ele><time>2026-04-23T01:46:10.999Z</time></trkpt><trkpt lat="-20.785636977503902" lon="116.86228897946077"><ele>14.0</ele><time>2026-04-23T01:46:11.999Z</time></trkpt><trkpt lat="-20.785609262395507" lon="116.86235767232722"><ele>14.0</ele><time>2026-04-23T01:46:12.999Z</time></trkpt><trkpt lat="-20.785579896071887" lon="116.8624351444585"><ele>13.999999999999998</ele><time>2026-04-23T01:46:13.999Z</time></trkpt><trkpt lat="-20.78554668016758" lon="116.86252458837052"><ele>13.999999999999998</ele><time>2026-04-23T01:46:14.999Z</time></trkpt><trkpt lat="-20.78551059706319" lon="116.86261800875813"><ele>14.0</ele><time>2026-04-23T01:46:15.999Z</time></trkpt><trkpt lat="-20.785479876096485" lon="116.86271549457206"><ele>14.0</ele><time>2026-04-23T01:46:16.999Z</time></trkpt><trkpt lat="-20.785455497286524" lon="116.86281829875539"><ele>14.0</ele><time>2026-04-23T01:46:17.999Z</time></trkpt><trkpt lat="-20.785431879437635" lon="116.86292327528412"><ele>13.999999999999998</ele><time>2026-04-23T01:46:18.999Z</time></trkpt><trkpt lat="-20.785411919450834" lon="116.86302529831798"><ele>13.999999999999998</ele><time>2026-04-23T01:46:20Z</time></trkpt><trkpt lat="-20.785393200970987" lon="116.8631201112496"><ele>14.0</ele><time>2026-04-23T01:46:21Z</time></trkpt><trkpt lat="-20.785375442939692" lon="116.86320673167565"><ele>14.0</ele><time>2026-04-23T01:46:22Z</time></trkpt><trkpt lat="-20.785360228441856" lon="116.8632919358036"><ele>14.0</ele><time>2026-04-23T01:46:23Z</time></trkpt><trkpt lat="-20.785343097513575" lon="116.86338653396767"><ele>13.999999999999998</ele><time>2026-04-23T01:46:24Z</time></trkpt><trkpt lat="-20.78531665746741" lon="116.86350103107408"><ele>13.999999999999998</ele><time>2026-04-23T01:46:25Z</time></trkpt><trkpt lat="-20.785290070774746" lon="116.8636207078502"><ele>14.0</ele><time>2026-04-23T01:46:26Z</time></trkpt><trkpt lat="-20.78526186023256" lon="116.86374630474812"><ele>14.0</ele><time>2026-04-23T01:46:27Z</time></trkpt><trkpt lat="-20.785231451126656" lon="116.86387721722646"><ele>14.25</ele><time>2026-04-23T01:46:28Z</time></trkpt><trkpt lat="-20.785202088100217" lon="116.86400287362397"><ele>14.5</ele><time>2026-04-23T01:46:29Z</time></trkpt><trkpt lat="-20.785167394115707" lon="116.86412272689819"><ele>14.75</ele><time>2026-04-23T01:46:30Z</time></trkpt><trkpt lat="-20.785127904978506" lon="116.86423505847553"><ele>15.0</ele><time>2026-04-23T01:46:31Z</time></trkpt><trkpt lat="-20.78507945164888" lon="116.86435330849625"><ele>15.0</ele><time>2026-04-23T01:46:32Z</time></trkpt><trkpt lat="-20.7850283750651" lon="116.86448160709183"><ele>15.0</ele><time>2026-04-23T01:46:33Z</time></trkpt><trkpt lat="-20.7849773576872" lon="116.86461232858379"><ele>15.0</ele><time>2026-04-23T01:46:34Z</time></trkpt><trkpt lat="-20.78492923955485" lon="116.86473952588695"><ele>15.0</ele><time>2026-04-23T01:46:35Z</time></trkpt><trkpt lat="-20.784877558515305" lon="116.86486812336888"><ele>15.0</ele><time>2026-04-23T01:46:36Z</time></trkpt><trkpt lat="-20.78482311864821" lon="116.86499602949564"><ele>15.0</ele><time>2026-04-23T01:46:37Z</time></trkpt><trkpt lat="-20.784764087990162" lon="116.86512700691313"><ele>15.0</ele><time>2026-04-23T01:46:38Z</time></trkpt><trkpt lat="-20.78470432887979" lon="116.86526759802807"><ele>15.0</ele><time>2026-04-23T01:46:39Z</time></trkpt><trkpt lat="-20.784645814711865" lon="116.86542050118645"><ele>14.333333333333332</ele><time>2026-04-23T01:46:40Z</time></trkpt><trkpt lat="-20.78458524268564" lon="116.86557797457277"><ele>13.666666666666666</ele><time>2026-04-23T01:46:41Z</time></trkpt><trkpt lat="-20.78452234439245" lon="116.86573678673065"><ele>13.0</ele><time>2026-04-23T01:46:42Z</time></trkpt><trkpt lat="-20.78445481445927" lon="116.8658906240464"><ele>12.666666666666666</ele><time>2026-04-23T01:46:43Z</time></trkpt><trkpt lat="-20.78438887344224" lon="116.8660395578232"><ele>12.333333333333332</ele><time>2026-04-23T01:46:44Z</time></trkpt><trkpt lat="-20.784323716523833" lon="116.86619277830604"><ele>12.0</ele><time>2026-04-23T01:46:45Z</time></trkpt><trkpt lat="-20.78425664404176" lon="116.86634990785353"><ele>11.666666666666666</ele><time>2026-04-23T01:46:46Z</time></trkpt><trkpt lat="-20.78419138552635" lon="116.86650661517768"><ele>11.333333333333332</ele><time>2026-04-23T01:46:47Z</time></trkpt><trkpt lat="-20.78412790522444" lon="116.86666344876738"><ele>11.0</ele><time>2026-04-23T01:46:48Z</time></trkpt><trkpt lat="-20.784064075192244" lon="116.86682430186819"><ele>10.666666666666666</ele><time>2026-04-23T01:46:49Z</time></trkpt><trkpt lat="-20.783996254992513" lon="116.86698802710528"><ele>10.333333333333334</ele><time>2026-04-23T01:46:50Z</time></trkpt><trkpt lat="-20.78392884900832" lon="116.86715130181759"><ele>10.0</ele><time>2026-04-23T01:46:51Z</time></trkpt><trkpt lat="-20.78385455290297" lon="116.86732007137311"><ele>10.0</ele><time>2026-04-23T01:46:52Z</time></trkpt><trkpt lat="-20.78377896771743" lon="116.86749525651865"><ele>10.0</ele><time>2026-04-23T01:46:53Z</time></trkpt><trkpt lat="-20.783707057711187" lon="116.86766431249045"><ele>10.0</ele><time>2026-04-23T01:46:54Z</time></trkpt><trkpt lat="-20.783634165218697" lon="116.86783627388833"><ele>9.666666666666668</ele><time>2026-04-23T01:46:55Z</time></trkpt><trkpt lat="-20.783565405128883" lon="116.86800585586121"><ele>9.333333333333334</ele><time>2026-04-23T01:46:56Z</time></trkpt><trkpt lat="-20.78349963524716" lon="116.8681747848215"><ele>9.0</ele><time>2026-04-23T01:46:57Z</time></trkpt><trkpt lat="-20.783433720771093" lon="116.86834992299714"><ele>9.333333333333334</ele><time>2026-04-23T01:46:58Z</time></trkpt><trkpt lat="-20.783369870261286" lon="116.86851354962464"><ele>9.666666666666668</ele><time>2026-04-23T01:46:59Z</time></trkpt><trkpt lat="-20.78330912418751" lon="116.86866617241375"><ele>10.0</ele><time>2026-04-23T01:47:00Z</time></trkpt><trkpt lat="-20.783256923893436" lon="116.8687955966334"><ele>10.0</ele><time>2026-04-23T01:47:01Z</time></trkpt><trkpt lat="-20.783207887538243" lon="116.86892312869078"><ele>10.0</ele><time>2026-04-23T01:47:02Z</time></trkpt><trkpt lat="-20.783154275327117" lon="116.8690575562782"><ele>10.0</ele><time>2026-04-23T01:47:03Z</time></trkpt><trkpt lat="-20.783092247986765" lon="116.8692014568248"><ele>10.0</ele><time>2026-04-23T01:47:04Z</time></trkpt><trkpt lat="-20.783031194206842" lon="116.86933689586066"><ele>10.5</ele><time>2026-04-23T01:47:05Z</time></trkpt><trkpt lat="-20.782973920650704" lon="116.86946990490372"><ele>11.0</ele><time>2026-04-23T01:47:06Z</time></trkpt><trkpt lat="-20.782915122112602" lon="116.86960352968234"><ele>11.5</ele><time>2026-04-23T01:47:07Z</time></trkpt><trkpt lat="-20.782853879357166" lon="116.86973935016957"><ele>12.0</ele><time>2026-04-23T01:47:08Z</time></trkpt><trkpt lat="-20.782789032591143" lon="116.86988240773184"><ele>12.0</ele><time>2026-04-23T01:47:09Z</time></trkpt><trkpt lat="-20.78273657449848" lon="116.87001616183883"><ele>12.0</ele><time>2026-04-23T01:47:10Z</time></trkpt><trkpt lat="-20.78268711106188" lon="116.87015031659362"><ele>12.0</ele><time>2026-04-23T01:47:11Z</time></trkpt><trkpt lat="-20.782632916736635" lon="116.87028206592153"><ele>12.0</ele><time>2026-04-23T01:47:12Z</time></trkpt><trkpt lat="-20.782581644247735" lon="116.87040464856362"><ele>11.5</ele><time>2026-04-23T01:47:13Z</time></trkpt><trkpt lat="-20.782531177579138" lon="116.8705318778515"><ele>11.0</ele><time>2026-04-23T01:47:14Z</time></trkpt><trkpt lat="-20.782490237032253" lon="116.87064904448364"><ele>10.5</ele><time>2026-04-23T01:47:15Z</time></trkpt><trkpt lat="-20.782454753852026" lon="116.87075903680676"><ele>10.0</ele><time>2026-04-23T01:47:16Z</time></trkpt><trkpt lat="-20.782414715180145" lon="116.87086789537153"><ele>9.75</ele><time>2026-04-23T01:47:17.001Z</time></trkpt><trkpt lat="-20.782367167036963" lon="116.87096831174152"><ele>9.5</ele><time>2026-04-23T01:47:18.001Z</time></trkpt><trkpt lat="-20.78231040162346" lon="116.8710815699724"><ele>9.25</ele><time>2026-04-23T01:47:19.001Z</time></trkpt><trkpt lat="-20.782250744565783" lon="116.8712029227125"><ele>9.0</ele><time>2026-04-23T01:47:20.001Z</time></trkpt><trkpt lat="-20.782196069732983" lon="116.87132408638213"><ele>9.0</ele><time>2026-04-23T01:47:21.001Z</time></trkpt><trkpt lat="-20.78214667930075" lon="116.87144734986198"><ele>9.0</ele><time>2026-04-23T01:47:22.001Z</time></trkpt><trkpt lat="-20.782093494053534" lon="116.87157721702758"><ele>9.0</ele><time>2026-04-23T01:47:23.001Z</time></trkpt><trkpt lat="-20.782042954626544" lon="116.87170928324663"><ele>9.0</ele><time>2026-04-23T01:47:24.001Z</time></trkpt><trkpt lat="-20.781989824378783" lon="116.87184194936263"><ele>9.75</ele><time>2026-04-23T01:47:25.001Z</time></trkpt><trkpt lat="-20.78193851580177" lon="116.8719741454554"><ele>10.5</ele><time>2026-04-23T01:47:26.001Z</time></trkpt><trkpt lat="-20.78188768356383" lon="116.87210313303129"><ele>11.25</ele><time>2026-04-23T01:47:27.001Z</time></trkpt><trkpt lat="-20.78183480853274" lon="116.87223246491347"><ele>12.0</ele><time>2026-04-23T01:47:28.001Z</time></trkpt><trkpt lat="-20.7817938408569" lon="116.87233450081773"><ele>12.0</ele><time>2026-04-23T01:47:29.001Z</time></trkpt><trkpt lat="-20.781749165915535" lon="116.87246676173261"><ele>12.0</ele><time>2026-04-23T01:47:30.001Z</time></trkpt><trkpt lat="-20.7816950861008" lon="116.87259330126273"><ele>12.0</ele><time>2026-04-23T01:47:31.001Z</time></trkpt><trkpt lat="-20.78164368827273" lon="116.8727210571738"><ele>12.0</ele><time>2026-04-23T01:47:32.001Z</time></trkpt><trkpt lat="-20.781587185056352" lon="116.87284844548118"><ele>12.25</ele><time>2026-04-23T01:47:33.001Z</time></trkpt><trkpt lat="-20.781531444639754" lon="116.87297630763673"><ele>12.5</ele><time>2026-04-23T01:47:34.001Z</time></trkpt><trkpt lat="-20.781477792780148" lon="116.87310539407851"><ele>12.75</ele><time>2026-04-23T01:47:35.001Z</time></trkpt><trkpt lat="-20.781423378018616" lon="116.87323786920828"><ele>13.0</ele><time>2026-04-23T01:47:36.001Z</time></trkpt><trkpt lat="-20.781368607121074" lon="116.87337336011623"><ele>12.0</ele><time>2026-04-23T01:47:37.001Z</time></trkpt><trkpt lat="-20.781307416182976" lon="116.87351373617167"><ele>11.0</ele><time>2026-04-23T01:47:38.001Z</time></trkpt><trkpt lat="-20.78124400107588" lon="116.87366216779192"><ele>10.0</ele><time>2026-04-23T01:47:39.001Z</time></trkpt><trkpt lat="-20.781179451463863" lon="116.87381539129687"><ele>10.0</ele><time>2026-04-23T01:47:40.001Z</time></trkpt><trkpt lat="-20.78111886476032" lon="116.87395933108026"><ele>10.0</ele><time>2026-04-23T01:47:41.001Z</time></trkpt><trkpt lat="-20.781062633438776" lon="116.87409736328773"><ele>10.0</ele><time>2026-04-23T01:47:42.001Z</time></trkpt><trkpt lat="-20.781016956037416" lon="116.87421019293103"><ele>10.0</ele><time>2026-04-23T01:47:43.001Z</time></trkpt><trkpt lat="-20.78098248131535" lon="116.87428539330544"><ele>10.333333333333334</ele><time>2026-04-23T01:47:44.001Z</time></trkpt><trkpt lat="-20.780939063508107" lon="116.87439085374443"><ele>10.666666666666668</ele><time>2026-04-23T01:47:46.001Z</time></trkpt><trkpt lat="-20.780918036125218" lon="116.87445564061983"><ele>11.0</ele><time>2026-04-23T01:47:47.001Z</time></trkpt><trkpt lat="-20.780887200881722" lon="116.87453335141267"><ele>11.333333333333334</ele><time>2026-04-23T01:47:48.001Z</time></trkpt><trkpt lat="-20.780860896727795" lon="116.87461650103333"><ele>11.666666666666666</ele><time>2026-04-23T01:47:49.001Z</time></trkpt><trkpt lat="-20.780827692648575" lon="116.87471112818282"><ele>12.0</ele><time>2026-04-23T01:47:50.001Z</time></trkpt><trkpt lat="-20.780791327956223" lon="116.87480215549509"><ele>12.0</ele><time>2026-04-23T01:47:51.001Z</time></trkpt><trkpt lat="-20.780750555715723" lon="116.87490424321759"><ele>12.0</ele><time>2026-04-23T01:47:52.001Z</time></trkpt><trkpt lat="-20.78070745942894" lon="116.87501512562663"><ele>12.0</ele><time>2026-04-23T01:47:53.001Z</time></trkpt><trkpt lat="-20.780662989810633" lon="116.87513738739244"><ele>12.0</ele><time>2026-04-23T01:47:54.001Z</time></trkpt><trkpt lat="-20.780622360712414" lon="116.87526748341764"><ele>12.25</ele><time>2026-04-23T01:47:55Z</time></trkpt><trkpt lat="-20.780590698538454" lon="116.8753931729418"><ele>12.5</ele><time>2026-04-23T01:47:56Z</time></trkpt><trkpt lat="-20.78056177277452" lon="116.87552013009902"><ele>12.75</ele><time>2026-04-23T01:47:57Z</time></trkpt><trkpt lat="-20.7805370817016" lon="116.8756512794102"><ele>13.0</ele><time>2026-04-23T01:47:58Z</time></trkpt><trkpt lat="-20.780514905015885" lon="116.87578421581824"><ele>13.0</ele><time>2026-04-23T01:47:59Z</time></trkpt><trkpt lat="-20.780492860826296" lon="116.87591162856093"><ele>13.0</ele><time>2026-04-23T01:48:00Z</time></trkpt><trkpt lat="-20.780472138270444" lon="116.87604120275637"><ele>13.0</ele><time>2026-04-23T01:48:01Z</time></trkpt><trkpt lat="-20.78045121502902" lon="116.8761817046121"><ele>13.0</ele><time>2026-04-23T01:48:02Z</time></trkpt><trkpt lat="-20.78042694858347" lon="116.8763300808038"><ele>12.75</ele><time>2026-04-23T01:48:03Z</time></trkpt><trkpt lat="-20.780402022413742" lon="116.87647528771838"><ele>12.5</ele><time>2026-04-23T01:48:04Z</time></trkpt><trkpt lat="-20.780377288510273" lon="116.87661352343937"><ele>12.25</ele><time>2026-04-23T01:48:05Z</time></trkpt><trkpt lat="-20.780351172475655" lon="116.87675216823781"><ele>12.0</ele><time>2026-04-23T01:48:06Z</time></trkpt><trkpt lat="-20.78032309182607" lon="116.87687280544792"><ele>11.5</ele><time>2026-04-23T01:48:07Z</time></trkpt><trkpt lat="-20.78030086393044" lon="116.87697676377395"><ele>11.0</ele><time>2026-04-23T01:48:08Z</time></trkpt><trkpt lat="-20.78029261427321" lon="116.87706947161091"><ele>10.5</ele><time>2026-04-23T01:48:09Z</time></trkpt><trkpt lat="-20.780300599301896" lon="116.87715811524444"><ele>10.0</ele><time>2026-04-23T01:48:10Z</time></trkpt><trkpt lat="-20.780320357345193" lon="116.87724133336454"><ele>9.5</ele><time>2026-04-23T01:48:11Z</time></trkpt><trkpt lat="-20.780343181988545" lon="116.87732013412605"><ele>9.0</ele><time>2026-04-23T01:48:12Z</time></trkpt><trkpt lat="-20.78037352106464" lon="116.87739742847903"><ele>9.0</ele><time>2026-04-23T01:48:13Z</time></trkpt><trkpt lat="-20.780411062664005" lon="116.87747380990577"><ele>9.0</ele><time>2026-04-23T01:48:14Z</time></trkpt><trkpt lat="-20.78046253246229" lon="116.87755079248106"><ele>9.0</ele><time>2026-04-23T01:48:15Z</time></trkpt><trkpt lat="-20.78052156987774" lon="116.8776377103606"><ele>9.0</ele><time>2026-04-23T01:48:16Z</time></trkpt><trkpt lat="-20.780580700818216" lon="116.87773764067487"><ele>9.0</ele><time>2026-04-23T01:48:17Z</time></trkpt><trkpt lat="-20.780647634954864" lon="116.87784756381873"><ele>9.25</ele><time>2026-04-23T01:48:18Z</time></trkpt><trkpt lat="-20.780719698431568" lon="116.8779647307964"><ele>9.5</ele><time>2026-04-23T01:48:19Z</time></trkpt><trkpt lat="-20.78079660286845" lon="116.87808829439777"><ele>9.75</ele><time>2026-04-23T01:48:20Z</time></trkpt><trkpt lat="-20.78087447885899" lon="116.87821468519134"><ele>10.0</ele><time>2026-04-23T01:48:21Z</time></trkpt><trkpt lat="-20.780959361177576" lon="116.8783534665385"><ele>10.25</ele><time>2026-04-23T01:48:22Z</time></trkpt><trkpt lat="-20.781040337045226" lon="116.87849324397676"><ele>10.5</ele><time>2026-04-23T01:48:23Z</time></trkpt><trkpt lat="-20.78112190656496" lon="116.87862585278772"><ele>10.75</ele><time>2026-04-23T01:48:24Z</time></trkpt><trkpt lat="-20.781193721558914" lon="116.87874485178965"><ele>11.0</ele><time>2026-04-23T01:48:25Z</time></trkpt><trkpt lat="-20.781263457346594" lon="116.87886062627531"><ele>11.0</ele><time>2026-04-23T01:48:26Z</time></trkpt><trkpt lat="-20.78134013507735" lon="116.8789746819815"><ele>11.0</ele><time>2026-04-23T01:48:27Z</time></trkpt><trkpt lat="-20.7814110383002" lon="116.8790830435852"><ele>11.0</ele><time>2026-04-23T01:48:28Z</time></trkpt><trkpt lat="-20.78147796879995" lon="116.87918268379433"><ele>11.0</ele><time>2026-04-23T01:48:29Z</time></trkpt><trkpt lat="-20.781535624908916" lon="116.87928522985398"><ele>10.8</ele><time>2026-04-23T01:48:30Z</time></trkpt><trkpt lat="-20.781587741921506" lon="116.87939116103226"><ele>10.600000000000001</ele><time>2026-04-23T01:48:31Z</time></trkpt><trkpt lat="-20.78163712685379" lon="116.87949346487605"><ele>10.4</ele><time>2026-04-23T01:48:32Z</time></trkpt><trkpt lat="-20.781691639433934" lon="116.87959108986712"><ele>10.2</ele><time>2026-04-23T01:48:33Z</time></trkpt><trkpt lat="-20.781750846730304" lon="116.87969102290275"><ele>10.0</ele><time>2026-04-23T01:48:34Z</time></trkpt><trkpt lat="-20.781798940761153" lon="116.87978745110021"><ele>10.0</ele><time>2026-04-23T01:48:35Z</time></trkpt><trkpt lat="-20.781847570694662" lon="116.8798707780794"><ele>10.0</ele><time>2026-04-23T01:48:36Z</time></trkpt><trkpt lat="-20.78189142999076" lon="116.87994958600304"><ele>10.0</ele><time>2026-04-23T01:48:37Z</time></trkpt><trkpt lat="-20.7819328802191" lon="116.88003804481272"><ele>10.0</ele><time>2026-04-23T01:48:38Z</time></trkpt><trkpt lat="-20.781974640724375" lon="116.88011708440929"><ele>10.0</ele><time>2026-04-23T01:48:39Z</time></trkpt><trkpt lat="-20.782024489341406" lon="116.88020871826143"><ele>10.2</ele><time>2026-04-23T01:48:40Z</time></trkpt><trkpt lat="-20.782078332654528" lon="116.88029356091677"><ele>10.4</ele><time>2026-04-23T01:48:41Z</time></trkpt><trkpt lat="-20.782129373751328" lon="116.88038668066314"><ele>10.600000000000001</ele><time>2026-04-23T01:48:42Z</time></trkpt><trkpt lat="-20.78218404099943" lon="116.88047751022597"><ele>10.8</ele><time>2026-04-23T01:48:43Z</time></trkpt><trkpt lat="-20.782254472650926" lon="116.88057714146684"><ele>11.0</ele><time>2026-04-23T01:48:44Z</time></trkpt><trkpt lat="-20.782320610187163" lon="116.88067838196656"><ele>11.0</ele><time>2026-04-23T01:48:45Z</time></trkpt><trkpt lat="-20.782379282369703" lon="116.88077898366952"><ele>11.0</ele><time>2026-04-23T01:48:46Z</time></trkpt><trkpt lat="-20.782434512419897" lon="116.88088480287692"><ele>11.0</ele><time>2026-04-23T01:48:47Z</time></trkpt><trkpt lat="-20.78249467459548" lon="116.88098837295388"><ele>11.0</ele><time>2026-04-23T01:48:48Z</time></trkpt><trkpt lat="-20.782564664087243" lon="116.88109108000074"><ele>11.200000000000001</ele><time>2026-04-23T01:48:49Z</time></trkpt><trkpt lat="-20.782633903069684" lon="116.88119345966567"><ele>11.4</ele><time>2026-04-23T01:48:50.001Z</time></trkpt><trkpt lat="-20.78269625367059" lon="116.88128540571249"><ele>11.6</ele><time>2026-04-23T01:48:51.001Z</time></trkpt><trkpt lat="-20.78274725458239" lon="116.88137548989789"><ele>11.8</ele><time>2026-04-23T01:48:52.001Z</time></trkpt><trkpt lat="-20.782788776120565" lon="116.88146918894017"><ele>12.0</ele><time>2026-04-23T01:48:53.001Z</time></trkpt><trkpt lat="-20.7828184210335" lon="116.88156810601875"><ele>12.0</ele><time>2026-04-23T01:48:54.001Z</time></trkpt><trkpt lat="-20.78283562069163" lon="116.88167833104923"><ele>12.0</ele><time>2026-04-23T01:48:55.001Z</time></trkpt><trkpt lat="-20.782833056652503" lon="116.88180034181885"><ele>12.0</ele><time>2026-04-23T01:48:56.001Z</time></trkpt><trkpt lat="-20.782810551168787" lon="116.8819313204553"><ele>12.0</ele><time>2026-04-23T01:48:57.001Z</time></trkpt><trkpt lat="-20.78277762086693" lon="116.88206945705932"><ele>12.0</ele><time>2026-04-23T01:48:58.001Z</time></trkpt><trkpt lat="-20.782741529409453" lon="116.88221813129759"><ele>12.0</ele><time>2026-04-23T01:48:59.001Z</time></trkpt><trkpt lat="-20.78271420667563" lon="116.88236174876342"><ele>12.0</ele><time>2026-04-23T01:49:00.001Z</time></trkpt><trkpt lat="-20.78268595399296" lon="116.88252448064107"><ele>12.0</ele><time>2026-04-23T01:49:01.001Z</time></trkpt><trkpt lat="-20.782657728961816" lon="116.88269380057925"><ele>12.0</ele><time>2026-04-23T01:49:02.001Z</time></trkpt><trkpt lat="-20.78262419482379" lon="116.88288232578651"><ele>12.0</ele><time>2026-04-23T01:49:03.001Z</time></trkpt><trkpt lat="-20.782592897993336" lon="116.88307584264321"><ele>12.0</ele><time>2026-04-23T01:49:04.001Z</time></trkpt><trkpt lat="-20.782557974936868" lon="116.88327582477508"><ele>12.0</ele><time>2026-04-23T01:49:05.001Z</time></trkpt><trkpt lat="-20.782525945617014" lon="116.88348467964305"><ele>12.0</ele><time>2026-04-23T01:49:06.001Z</time></trkpt><trkpt lat="-20.782492520263563" lon="116.88369392539931"><ele>12.0</ele><time>2026-04-23T01:49:07.001Z</time></trkpt><trkpt lat="-20.782460337087628" lon="116.88390572728325"><ele>12.0</ele><time>2026-04-23T01:49:08.001Z</time></trkpt><trkpt lat="-20.782428506842145" lon="116.8841129386908"><ele>12.0</ele><time>2026-04-23T01:49:09.001Z</time></trkpt><trkpt lat="-20.78240053009634" lon="116.88431614775654"><ele>12.0</ele><time>2026-04-23T01:49:10.001Z</time></trkpt><trkpt lat="-20.782374729521436" lon="116.88451976455279"><ele>12.0</ele><time>2026-04-23T01:49:11.001Z</time></trkpt><trkpt lat="-20.78234498943573" lon="116.88471126094628"><ele>12.0</ele><time>2026-04-23T01:49:12.001Z</time></trkpt><trkpt lat="-20.78230926103249" lon="116.88491318308931"><ele>12.0</ele><time>2026-04-23T01:49:13.001Z</time></trkpt><trkpt lat="-20.782268586264006" lon="116.88511693609425"><ele>12.0</ele><time>2026-04-23T01:49:14.001Z</time></trkpt><trkpt lat="-20.7822254657632" lon="116.8853299333387"><ele>12.0</ele><time>2026-04-23T01:49:15.001Z</time></trkpt><trkpt lat="-20.78218472483821" lon="116.88553953122263"><ele>12.0</ele><time>2026-04-23T01:49:16.001Z</time></trkpt><trkpt lat="-20.78214935561236" lon="116.88574396948869"><ele>12.0</ele><time>2026-04-23T01:49:17.001Z</time></trkpt><trkpt lat="-20.782118747634726" lon="116.88594386278797"><ele>12.0</ele><time>2026-04-23T01:49:18.001Z</time></trkpt><trkpt lat="-20.782089144425992" lon="116.88613366497468"><ele>12.0</ele><time>2026-04-23T01:49:19.001Z</time></trkpt><trkpt lat="-20.78206688007135" lon="116.88629701413458"><ele>12.0</ele><time>2026-04-23T01:49:20.001Z</time></trkpt><trkpt lat="-20.782045207637836" lon="116.88645567987965"><ele>12.0</ele><time>2026-04-23T01:49:21.001Z</time></trkpt><trkpt lat="-20.782020767707003" lon="116.88659959081596"><ele>12.0</ele><time>2026-04-23T01:49:22.001Z</time></trkpt><trkpt lat="-20.78199647112219" lon="116.88672605937046"><ele>12.0</ele><time>2026-04-23T01:49:23.001Z</time></trkpt><trkpt lat="-20.781977828521015" lon="116.88684071881373"><ele>11.75</ele><time>2026-04-23T01:49:24.001Z</time></trkpt><trkpt lat="-20.781955834995333" lon="116.88695741004587"><ele>11.5</ele><time>2026-04-23T01:49:25.001Z</time></trkpt><trkpt lat="-20.781930582257367" lon="116.88708097213583"><ele>11.25</ele><time>2026-04-23T01:49:26.001Z</time></trkpt><trkpt lat="-20.78190766772825" lon="116.887199579306"><ele>11.0</ele><time>2026-04-23T01:49:27.001Z</time></trkpt><trkpt lat="-20.781884908568074" lon="116.88731401902801"><ele>11.0</ele><time>2026-04-23T01:49:28.001Z</time></trkpt><trkpt lat="-20.781860703803954" lon="116.88741700814245"><ele>11.0</ele><time>2026-04-23T01:49:29.001Z</time></trkpt><trkpt lat="-20.781835919239526" lon="116.88752703565186"><ele>11.0</ele><time>2026-04-23T01:49:30.001Z</time></trkpt><trkpt lat="-20.781815536422545" lon="116.88762871217699"><ele>11.0</ele><time>2026-04-23T01:49:31.001Z</time></trkpt><trkpt lat="-20.781792307023302" lon="116.88773187669022"><ele>11.0</ele><time>2026-04-23T01:49:32.001Z</time></trkpt><trkpt lat="-20.781775738235893" lon="116.88781924721607"><ele>10.8</ele><time>2026-04-23T01:49:33.001Z</time></trkpt><trkpt lat="-20.78175697112938" lon="116.88791126817543"><ele>10.600000000000001</ele><time>2026-04-23T01:49:34.001Z</time></trkpt><trkpt lat="-20.78174475836319" lon="116.88799698029119"><ele>10.4</ele><time>2026-04-23T01:49:35.001Z</time></trkpt><trkpt lat="-20.781727386462812" lon="116.88809624300457"><ele>10.2</ele><time>2026-04-23T01:49:36.001Z</time></trkpt><trkpt lat="-20.78171993799086" lon="116.88819194460896"><ele>10.0</ele><time>2026-04-23T01:49:37.001Z</time></trkpt><trkpt lat="-20.78170750467503" lon="116.88830465486463"><ele>10.0</ele><time>2026-04-23T01:49:38.001Z</time></trkpt><trkpt lat="-20.781691848867577" lon="116.888439003762"><ele>10.0</ele><time>2026-04-23T01:49:39.001Z</time></trkpt><trkpt lat="-20.78167440424663" lon="116.88857354230258"><ele>10.0</ele><time>2026-04-23T01:49:40.001Z</time></trkpt><trkpt lat="-20.78165349373297" lon="116.88872625630488"><ele>10.0</ele><time>2026-04-23T01:49:41.001Z</time></trkpt><trkpt lat="-20.78162304449408" lon="116.88890053457008"><ele>10.0</ele><time>2026-04-23T01:49:42.001Z</time></trkpt><trkpt lat="-20.781593419535923" lon="116.88907941163895"><ele>10.0</ele><time>2026-04-23T01:49:43.001Z</time></trkpt><trkpt lat="-20.781564171494413" lon="116.88925397993638"><ele>10.0</ele><time>2026-04-23T01:49:44.001Z</time></trkpt><trkpt lat="-20.781537141814994" lon="116.88942195593106"><ele>10.333333333333334</ele><time>2026-04-23T01:49:45.001Z</time></trkpt><trkpt lat="-20.781508043304555" lon="116.88958396893561"><ele>10.666666666666666</ele><time>2026-04-23T01:49:46.001Z</time></trkpt><trkpt lat="-20.78147623438137" lon="116.88975571928351"><ele>11.0</ele><time>2026-04-23T01:49:47.001Z</time></trkpt><trkpt lat="-20.7814491611502" lon="116.88991852412342"><ele>11.0</ele><time>2026-04-23T01:49:48.001Z</time></trkpt><trkpt lat="-20.78143045919954" lon="116.89007904125963"><ele>11.0</ele><time>2026-04-23T01:49:49.001Z</time></trkpt><trkpt lat="-20.781403406307078" lon="116.890236187918"><ele>11.0</ele><time>2026-04-23T01:49:50.001Z</time></trkpt><trkpt lat="-20.781374665835685" lon="116.89037449052294"><ele>11.0</ele><time>2026-04-23T01:49:51.001Z</time></trkpt><trkpt lat="-20.78134133074944" lon="116.89050640699372"><ele>11.0</ele><time>2026-04-23T01:49:52.001Z</time></trkpt><trkpt lat="-20.781309354771896" lon="116.8906426094377"><ele>11.0</ele><time>2026-04-23T01:49:53.001Z</time></trkpt><trkpt lat="-20.78128765538182" lon="116.89077648293794"><ele>11.0</ele><time>2026-04-23T01:49:54.002Z</time></trkpt><trkpt lat="-20.781275470948444" lon="116.89090814149999"><ele>11.0</ele><time>2026-04-23T01:49:55.002Z</time></trkpt><trkpt lat="-20.781262952343166" lon="116.8910461625973"><ele>10.75</ele><time>2026-04-23T01:49:56.002Z</time></trkpt><trkpt lat="-20.781231363807812" lon="116.89118512570812"><ele>10.5</ele><time>2026-04-23T01:49:57.002Z</time></trkpt><trkpt lat="-20.781194784153897" lon="116.89133045945333"><ele>10.25</ele><time>2026-04-23T01:49:58.002Z</time></trkpt><trkpt lat="-20.78116337159746" lon="116.89148255761954"><ele>10.0</ele><time>2026-04-23T01:49:59.002Z</time></trkpt><trkpt lat="-20.78114001607412" lon="116.89164086505698"><ele>10.666666666666668</ele><time>2026-04-23T01:50:00.002Z</time></trkpt><trkpt lat="-20.781119992826625" lon="116.89179604161686"><ele>11.333333333333334</ele><time>2026-04-23T01:50:01Z</time></trkpt><trkpt lat="-20.781092992630875" lon="116.89196734497537"><ele>12.0</ele><time>2026-04-23T01:50:02Z</time></trkpt><trkpt lat="-20.781069242433414" lon="116.89214873600733"><ele>12.0</ele><time>2026-04-23T01:50:03Z</time></trkpt><trkpt lat="-20.781045053348283" lon="116.89232876564287"><ele>12.0</ele><time>2026-04-23T01:50:04Z</time></trkpt><trkpt lat="-20.78102044154529" lon="116.89249918480859"><ele>12.0</ele><time>2026-04-23T01:50:05Z</time></trkpt><trkpt lat="-20.78099725486007" lon="116.89266358403881"><ele>11.0</ele><time>2026-04-23T01:50:06Z</time></trkpt><trkpt lat="-20.78096838175163" lon="116.89283284839928"><ele>10.0</ele><time>2026-04-23T01:50:07Z</time></trkpt><trkpt lat="-20.780937100860164" lon="116.89301828272951"><ele>9.0</ele><time>2026-04-23T01:50:08Z</time></trkpt><trkpt lat="-20.780908300197865" lon="116.89321484352105"><ele>10.0</ele><time>2026-04-23T01:50:09Z</time></trkpt><trkpt lat="-20.780874353158627" lon="116.89342448867893"><ele>11.0</ele><time>2026-04-23T01:50:10Z</time></trkpt><trkpt lat="-20.780840176209335" lon="116.8936395753349"><ele>12.0</ele><time>2026-04-23T01:50:11Z</time></trkpt><trkpt lat="-20.78080572943617" lon="116.8938551975673"><ele>12.0</ele><time>2026-04-23T01:50:12Z</time></trkpt><trkpt lat="-20.780771647688624" lon="116.89407207487864"><ele>12.0</ele><time>2026-04-23T01:50:13Z</time></trkpt><trkpt lat="-20.78073773303237" lon="116.89429711495308"><ele>12.0</ele><time>2026-04-23T01:50:14Z</time></trkpt><trkpt lat="-20.780701927504982" lon="116.89452683763133"><ele>12.0</ele><time>2026-04-23T01:50:15Z</time></trkpt><trkpt lat="-20.78066818090086" lon="116.89474505179642"><ele>12.0</ele><time>2026-04-23T01:50:16Z</time></trkpt><trkpt lat="-20.78063177556135" lon="116.89496056604845"><ele>12.0</ele><time>2026-04-23T01:50:17Z</time></trkpt><trkpt lat="-20.780596212487087" lon="116.89516969537769"><ele>12.0</ele><time>2026-04-23T01:50:18Z</time></trkpt><trkpt lat="-20.780560091769964" lon="116.89538112544643"><ele>12.0</ele><time>2026-04-23T01:50:19Z</time></trkpt><trkpt lat="-20.78052674643725" lon="116.89557870073052"><ele>12.0</ele><time>2026-04-23T01:50:20Z</time></trkpt><trkpt lat="-20.7804925914063" lon="116.89576131864314"><ele>10.666666666666666</ele><time>2026-04-23T01:50:21Z</time></trkpt><trkpt lat="-20.780466408316144" lon="116.89592434490334"><ele>9.333333333333332</ele><time>2026-04-23T01:50:22Z</time></trkpt><trkpt lat="-20.780438314899957" lon="116.8960939098757"><ele>8.0</ele><time>2026-04-23T01:50:23Z</time></trkpt><trkpt lat="-20.7804080579337" lon="116.89624901051879"><ele>8.0</ele><time>2026-04-23T01:50:24Z</time></trkpt><trkpt lat="-20.780387285312926" lon="116.89639800646269"><ele>8.0</ele><time>2026-04-23T01:50:25Z</time></trkpt><trkpt lat="-20.78036336549525" lon="116.89655166085069"><ele>8.0</ele><time>2026-04-23T01:50:26Z</time></trkpt><trkpt lat="-20.780332149397285" lon="116.89671828610606"><ele>8.0</ele><time>2026-04-23T01:50:27Z</time></trkpt><trkpt lat="-20.780296473376545" lon="116.89689660506244"><ele>9.0</ele><time>2026-04-23T01:50:28Z</time></trkpt><trkpt lat="-20.78026596349402" lon="116.89708039772209"><ele>10.0</ele><time>2026-04-23T01:50:29Z</time></trkpt><trkpt lat="-20.78023488479875" lon="116.89727559499713"><ele>11.0</ele><time>2026-04-23T01:50:30Z</time></trkpt><trkpt lat="-20.780201686598836" lon="116.8974677518582"><ele>10.666666666666666</ele><time>2026-04-23T01:50:31Z</time></trkpt><trkpt lat="-20.780169195226165" lon="116.8976513046848"><ele>10.333333333333334</ele><time>2026-04-23T01:50:32Z</time></trkpt><trkpt lat="-20.78013653622268" lon="116.89783409887839"><ele>10.0</ele><time>2026-04-23T01:50:33Z</time></trkpt><trkpt lat="-20.780102769290615" lon="116.89802097520062"><ele>10.0</ele><time>2026-04-23T01:50:34Z</time></trkpt><trkpt lat="-20.78007263824757" lon="116.89820581242596"><ele>10.0</ele><time>2026-04-23T01:50:35Z</time></trkpt><trkpt lat="-20.780039326945396" lon="116.89838788711587"><ele>10.0</ele><time>2026-04-23T01:50:36Z</time></trkpt><trkpt lat="-20.780007483030058" lon="116.89855818168502"><ele>10.0</ele><time>2026-04-23T01:50:37Z</time></trkpt><trkpt lat="-20.77997945565421" lon="116.89871830898858"><ele>10.0</ele><time>2026-04-23T01:50:38Z</time></trkpt><trkpt lat="-20.779951017058107" lon="116.89887678294252"><ele>10.0</ele><time>2026-04-23T01:50:39Z</time></trkpt><trkpt lat="-20.779924266899943" lon="116.89902143092664"><ele>10.0</ele><time>2026-04-23T01:50:40.001Z</time></trkpt><trkpt lat="-20.779901250757597" lon="116.89915547747502"><ele>10.5</ele><time>2026-04-23T01:50:41.001Z</time></trkpt><trkpt lat="-20.779875303778223" lon="116.89929860684852"><ele>11.0</ele><time>2026-04-23T01:50:42.001Z</time></trkpt><trkpt lat="-20.779859178764287" lon="116.89946207360947"><ele>11.5</ele><time>2026-04-23T01:50:43.001Z</time></trkpt><trkpt lat="-20.779831117406125" lon="116.89962875832936"><ele>12.0</ele><time>2026-04-23T01:50:44.001Z</time></trkpt><trkpt lat="-20.779800265630836" lon="116.89980058373843"><ele>12.0</ele><time>2026-04-23T01:50:45.001Z</time></trkpt><trkpt lat="-20.77976886022523" lon="116.89997595871753"><ele>12.0</ele><time>2026-04-23T01:50:46.001Z</time></trkpt><trkpt lat="-20.779741172658444" lon="116.90013587269164"><ele>12.0</ele><time>2026-04-23T01:50:47.001Z</time></trkpt><trkpt lat="-20.779709691003095" lon="116.90031689861308"><ele>11.333333333333334</ele><time>2026-04-23T01:50:48.001Z</time></trkpt><trkpt lat="-20.779679104063028" lon="116.90048890619941"><ele>10.666666666666668</ele><time>2026-04-23T01:50:49.001Z</time></trkpt><trkpt lat="-20.779641943220913" lon="116.90067388171227"><ele>10.0</ele><time>2026-04-23T01:50:50.001Z</time></trkpt><trkpt lat="-20.779607361685287" lon="116.90084669491414"><ele>10.333333333333334</ele><time>2026-04-23T01:50:51.001Z</time></trkpt><trkpt lat="-20.779577786020745" lon="116.90101433078335"><ele>10.666666666666666</ele><time>2026-04-23T01:50:52.001Z</time></trkpt><trkpt lat="-20.77955363485306" lon="116.901177425107"><ele>11.0</ele><time>2026-04-23T01:50:53.001Z</time></trkpt><trkpt lat="-20.77953200899521" lon="116.90134583304578"><ele>11.0</ele><time>2026-04-23T01:50:54.001Z</time></trkpt><trkpt lat="-20.779508635849563" lon="116.90152365924557"><ele>11.0</ele><time>2026-04-23T01:50:55.001Z</time></trkpt><trkpt lat="-20.77948675144674" lon="116.90169355989597"><ele>11.0</ele><time>2026-04-23T01:50:56.001Z</time></trkpt><trkpt lat="-20.779458013827266" lon="116.90187533586135"><ele>10.333333333333332</ele><time>2026-04-23T01:50:57.001Z</time></trkpt><trkpt lat="-20.77942766656869" lon="116.90206050019253"><ele>9.666666666666666</ele><time>2026-04-23T01:50:58.001Z</time></trkpt><trkpt lat="-20.779391534473593" lon="116.90225057858238"><ele>9.0</ele><time>2026-04-23T01:50:59.001Z</time></trkpt><trkpt lat="-20.779354925446683" lon="116.90243986030674"><ele>9.0</ele><time>2026-04-23T01:51:00.001Z</time></trkpt><trkpt lat="-20.779318443890396" lon="116.90263445909385"><ele>9.0</ele><time>2026-04-23T01:51:01.001Z</time></trkpt><trkpt lat="-20.77928245319883" lon="116.9028323424555"><ele>9.0</ele><time>2026-04-23T01:51:02.001Z</time></trkpt><trkpt lat="-20.779249755206983" lon="116.90303406537042"><ele>9.0</ele><time>2026-04-23T01:51:03.001Z</time></trkpt><trkpt lat="-20.77921844489353" lon="116.90323412003869"><ele>9.0</ele><time>2026-04-23T01:51:04.001Z</time></trkpt><trkpt lat="-20.779187814954632" lon="116.90342429929115"><ele>9.0</ele><time>2026-04-23T01:51:05.001Z</time></trkpt><trkpt lat="-20.779156692066074" lon="116.90361221086063"><ele>9.333333333333334</ele><time>2026-04-23T01:51:06.001Z</time></trkpt><trkpt lat="-20.779125812865583" lon="116.90379329029926"><ele>9.666666666666668</ele><time>2026-04-23T01:51:07.001Z</time></trkpt><trkpt lat="-20.77909331134585" lon="116.90398120692016"><ele>10.0</ele><time>2026-04-23T01:51:08.001Z</time></trkpt><trkpt lat="-20.779065923340433" lon="116.90417725266482"><ele>9.666666666666668</ele><time>2026-04-23T01:51:09.001Z</time></trkpt><trkpt lat="-20.77903597242876" lon="116.9043659779179"><ele>9.333333333333334</ele><time>2026-04-23T01:51:10.001Z</time></trkpt><trkpt lat="-20.779009823710513" lon="116.90455001015722"><ele>9.0</ele><time>2026-04-23T01:51:11.001Z</time></trkpt><trkpt lat="-20.778978373323717" lon="116.9047398484642"><ele>9.0</ele><time>2026-04-23T01:51:12.001Z</time></trkpt><trkpt lat="-20.778947777723033" lon="116.90492736493765"><ele>9.0</ele><time>2026-04-23T01:51:13.001Z</time></trkpt><trkpt lat="-20.778920237494454" lon="116.90510654544873"><ele>9.0</ele><time>2026-04-23T01:51:14.001Z</time></trkpt><trkpt lat="-20.778892634995515" lon="116.90527764533562"><ele>9.333333333333334</ele><time>2026-04-23T01:51:15.001Z</time></trkpt><trkpt lat="-20.778860349004024" lon="116.90544654114814"><ele>9.666666666666668</ele><time>2026-04-23T01:51:16.001Z</time></trkpt><trkpt lat="-20.778822815690717" lon="116.90561617355198"><ele>10.0</ele><time>2026-04-23T01:51:17.001Z</time></trkpt><trkpt lat="-20.778785571254506" lon="116.90578605011359"><ele>10.0</ele><time>2026-04-23T01:51:18.001Z</time></trkpt><trkpt lat="-20.778751123371386" lon="116.90594268206638"><ele>10.0</ele><time>2026-04-23T01:51:19.001Z</time></trkpt><trkpt lat="-20.77872147689514" lon="116.90608475532224"><ele>10.0</ele><time>2026-04-23T01:51:20.001Z</time></trkpt><trkpt lat="-20.778705636555443" lon="116.90622061420126"><ele>10.0</ele><time>2026-04-23T01:51:21.001Z</time></trkpt><trkpt lat="-20.778700122456137" lon="116.90635211570772"><ele>10.0</ele><time>2026-04-23T01:51:22.001Z</time></trkpt><trkpt lat="-20.778702068062167" lon="116.90648449044703"><ele>10.0</ele><time>2026-04-23T01:51:23.001Z</time></trkpt><trkpt lat="-20.778695093069636" lon="116.90659794858902"><ele>10.0</ele><time>2026-04-23T01:51:24.001Z</time></trkpt><trkpt lat="-20.778661819372626" lon="116.90671944999582"><ele>10.0</ele><time>2026-04-23T01:51:25.001Z</time></trkpt><trkpt lat="-20.77861687622489" lon="116.90685063739274"><ele>10.0</ele><time>2026-04-23T01:51:26.001Z</time></trkpt><trkpt lat="-20.77857349075984" lon="116.90697647881868"><ele>10.0</ele><time>2026-04-23T01:51:27.001Z</time></trkpt><trkpt lat="-20.778543569522693" lon="116.90710674499877"><ele>10.0</ele><time>2026-04-23T01:51:28.001Z</time></trkpt><trkpt lat="-20.778521497327713" lon="116.90725635989263"><ele>10.0</ele><time>2026-04-23T01:51:29.001Z</time></trkpt><trkpt lat="-20.778504471772408" lon="116.90741550814558"><ele>10.0</ele><time>2026-04-23T01:51:30.001Z</time></trkpt><trkpt lat="-20.778479410323545" lon="116.90759871993176"><ele>10.0</ele><time>2026-04-23T01:51:31.001Z</time></trkpt><trkpt lat="-20.778451612010414" lon="116.90778097262778"><ele>10.0</ele><time>2026-04-23T01:51:32.001Z</time></trkpt><trkpt lat="-20.778418616353093" lon="116.90797622725756"><ele>10.0</ele><time>2026-04-23T01:51:33.001Z</time></trkpt><trkpt lat="-20.77838539001683" lon="116.90817577661763"><ele>10.0</ele><time>2026-04-23T01:51:34.001Z</time></trkpt><trkpt lat="-20.778352594094407" lon="116.90838356991588"><ele>10.0</ele><time>2026-04-23T01:51:35.001Z</time></trkpt><trkpt lat="-20.77832250116083" lon="116.90858666023138"><ele>10.333333333333334</ele><time>2026-04-23T01:51:36.001Z</time></trkpt><trkpt lat="-20.77828580553233" lon="116.90878722573473"><ele>10.666666666666666</ele><time>2026-04-23T01:51:37.001Z</time></trkpt><trkpt lat="-20.77824808604009" lon="116.90898782904642"><ele>11.0</ele><time>2026-04-23T01:51:38.001Z</time></trkpt><trkpt lat="-20.778212222349442" lon="116.90918110732163"><ele>10.666666666666666</ele><time>2026-04-23T01:51:39.001Z</time></trkpt><trkpt lat="-20.77817532536287" lon="116.90938264610959"><ele>10.333333333333334</ele><time>2026-04-23T01:51:40.001Z</time></trkpt><trkpt lat="-20.778141411912383" lon="116.90957693765948"><ele>10.0</ele><time>2026-04-23T01:51:41.001Z</time></trkpt><trkpt lat="-20.778107578840167" lon="116.90976823789133"><ele>10.0</ele><time>2026-04-23T01:51:42.001Z</time></trkpt><trkpt lat="-20.77807698100316" lon="116.90996070805865"><ele>10.0</ele><time>2026-04-23T01:51:43.001Z</time></trkpt><trkpt lat="-20.778047399774646" lon="116.91015041025821"><ele>10.0</ele><time>2026-04-23T01:51:44.001Z</time></trkpt><trkpt lat="-20.778019053531125" lon="116.9103472675602"><ele>10.0</ele><time>2026-04-23T01:51:45.001Z</time></trkpt><trkpt lat="-20.777980483004615" lon="116.91053828351914"><ele>10.0</ele><time>2026-04-23T01:51:46.001Z</time></trkpt><trkpt lat="-20.77793009550411" lon="116.91072595203225"><ele>10.0</ele><time>2026-04-23T01:51:47.001Z</time></trkpt><trkpt lat="-20.777876173592524" lon="116.91091122947768"><ele>10.0</ele><time>2026-04-23T01:51:48.001Z</time></trkpt><trkpt lat="-20.777815220805596" lon="116.91110526733789"><ele>10.0</ele><time>2026-04-23T01:51:49.001Z</time></trkpt><trkpt lat="-20.77776646319935" lon="116.9112923239495"><ele>10.0</ele><time>2026-04-23T01:51:50.001Z</time></trkpt><trkpt lat="-20.777717911381913" lon="116.91148900752223"><ele>9.666666666666668</ele><time>2026-04-23T01:51:51.002Z</time></trkpt><trkpt lat="-20.7776700634374" lon="116.91168583370266"><ele>9.333333333333334</ele><time>2026-04-23T01:51:52.002Z</time></trkpt><trkpt lat="-20.77762375827125" lon="116.91188418796506"><ele>9.0</ele><time>2026-04-23T01:51:53.002Z</time></trkpt><trkpt lat="-20.777576992568157" lon="116.91208072678607"><ele>9.333333333333334</ele><time>2026-04-23T01:51:54.002Z</time></trkpt><trkpt lat="-20.777537825445275" lon="116.91227830709902"><ele>9.666666666666668</ele><time>2026-04-23T01:51:55.002Z</time></trkpt><trkpt lat="-20.777493298540623" lon="116.91248031862766"><ele>10.0</ele><time>2026-04-23T01:51:56.002Z</time></trkpt><trkpt lat="-20.777449717081527" lon="116.91267808666781"><ele>10.0</ele><time>2026-04-23T01:51:57.002Z</time></trkpt><trkpt lat="-20.777398411813724" lon="116.91289253064656"><ele>10.0</ele><time>2026-04-23T01:51:58.002Z</time></trkpt><trkpt lat="-20.777343031946053" lon="116.91310841276285"><ele>10.0</ele><time>2026-04-23T01:51:59.002Z</time></trkpt><trkpt lat="-20.777288818296128" lon="116.9133241342109"><ele>10.0</ele><time>2026-04-23T01:52:00.002Z</time></trkpt><trkpt lat="-20.77723608159154" lon="116.9135347172033"><ele>10.0</ele><time>2026-04-23T01:52:01.002Z</time></trkpt><trkpt lat="-20.77718412703622" lon="116.91373878991203"><ele>10.0</ele><time>2026-04-23T01:52:02.002Z</time></trkpt><trkpt lat="-20.77712955879361" lon="116.91392347322122"><ele>10.0</ele><time>2026-04-23T01:52:03.002Z</time></trkpt><trkpt lat="-20.777082480751385" lon="116.91408618581923"><ele>10.0</ele><time>2026-04-23T01:52:04.002Z</time></trkpt><trkpt lat="-20.777037838433106" lon="116.91424221473514"><ele>10.0</ele><time>2026-04-23T01:52:05.002Z</time></trkpt><trkpt lat="-20.777001756240427" lon="116.91438728168015"><ele>10.0</ele><time>2026-04-23T01:52:06.002Z</time></trkpt><trkpt lat="-20.776970698887617" lon="116.91452360530427"><ele>10.0</ele><time>2026-04-23T01:52:07.001Z</time></trkpt><trkpt lat="-20.776940606792508" lon="116.91465742492431"><ele>10.0</ele><time>2026-04-23T01:52:08.001Z</time></trkpt><trkpt lat="-20.776899982266787" lon="116.91478448808499"><ele>10.0</ele><time>2026-04-23T01:52:09.001Z</time></trkpt><trkpt lat="-20.776863318764917" lon="116.91491536294689"><ele>10.0</ele><time>2026-04-23T01:52:10.001Z</time></trkpt><trkpt lat="-20.776830466297717" lon="116.91502823453816"><ele>10.0</ele><time>2026-04-23T01:52:11.001Z</time></trkpt><trkpt lat="-20.77680621294258" lon="116.91513120459588"><ele>10.0</ele><time>2026-04-23T01:52:12.001Z</time></trkpt><trkpt lat="-20.7767809731177" lon="116.9152454924358"><ele>10.0</ele><time>2026-04-23T01:52:13.001Z</time></trkpt><trkpt lat="-20.776751665128792" lon="116.91536929753416"><ele>10.0</ele><time>2026-04-23T01:52:14.001Z</time></trkpt><trkpt lat="-20.77673047130317" lon="116.91549012817443"><ele>10.0</ele><time>2026-04-23T01:52:15.001Z</time></trkpt><trkpt lat="-20.77670953326241" lon="116.91561232134191"><ele>10.0</ele><time>2026-04-23T01:52:16.001Z</time></trkpt><trkpt lat="-20.776676251049153" lon="116.91574059863068"><ele>10.0</ele><time>2026-04-23T01:52:17.001Z</time></trkpt><trkpt lat="-20.776639086643225" lon="116.91588699258618"><ele>10.0</ele><time>2026-04-23T01:52:18.001Z</time></trkpt><trkpt lat="-20.77660685740626" lon="116.9160198778"><ele>10.25</ele><time>2026-04-23T01:52:19.001Z</time></trkpt><trkpt lat="-20.7765782527831" lon="116.91614106841385"><ele>10.5</ele><time>2026-04-23T01:52:20Z</time></trkpt><trkpt lat="-20.776543494967793" lon="116.91627614981053"><ele>10.75</ele><time>2026-04-23T01:52:21Z</time></trkpt><trkpt lat="-20.77650760229721" lon="116.91641463660112"><ele>11.0</ele><time>2026-04-23T01:52:22Z</time></trkpt><trkpt lat="-20.77646704975104" lon="116.9165682109666"><ele>11.0</ele><time>2026-04-23T01:52:23Z</time></trkpt><trkpt lat="-20.776433512907325" lon="116.91672268952662"><ele>11.0</ele><time>2026-04-23T01:52:24Z</time></trkpt><trkpt lat="-20.77639470381667" lon="116.91689268161569"><ele>11.0</ele><time>2026-04-23T01:52:25Z</time></trkpt><trkpt lat="-20.776353990973742" lon="116.91706923507569"><ele>10.333333333333332</ele><time>2026-04-23T01:52:26Z</time></trkpt><trkpt lat="-20.77632031125817" lon="116.91724058552201"><ele>9.666666666666666</ele><time>2026-04-23T01:52:27Z</time></trkpt><trkpt lat="-20.776297470992557" lon="116.9173909994121"><ele>9.0</ele><time>2026-04-23T01:52:28Z</time></trkpt><trkpt lat="-20.77626705139655" lon="116.91755336292243"><ele>9.666666666666666</ele><time>2026-04-23T01:52:29Z</time></trkpt><trkpt lat="-20.776234892594516" lon="116.91770978922419"><ele>10.333333333333332</ele><time>2026-04-23T01:52:30Z</time></trkpt><trkpt lat="-20.77618452257175" lon="116.91787302211137"><ele>11.0</ele><time>2026-04-23T01:52:31Z</time></trkpt><trkpt lat="-20.776133696059794" lon="116.91804055120058"><ele>11.0</ele><time>2026-04-23T01:52:32Z</time></trkpt><trkpt lat="-20.776093095978926" lon="116.918199630433"><ele>11.0</ele><time>2026-04-23T01:52:33Z</time></trkpt><trkpt lat="-20.7760545847686" lon="116.91835805403367"><ele>11.0</ele><time>2026-04-23T01:52:34.001Z</time></trkpt><trkpt lat="-20.776014844798368" lon="116.91852519306343"><ele>10.666666666666666</ele><time>2026-04-23T01:52:35.001Z</time></trkpt><trkpt lat="-20.775973974817102" lon="116.91869597599528"><ele>10.333333333333334</ele><time>2026-04-23T01:52:36.001Z</time></trkpt><trkpt lat="-20.775928408433508" lon="116.91888172305309"><ele>10.0</ele><time>2026-04-23T01:52:37.001Z</time></trkpt><trkpt lat="-20.77588553368558" lon="116.91906537953956"><ele>9.666666666666668</ele><time>2026-04-23T01:52:38.001Z</time></trkpt><trkpt lat="-20.775845226109137" lon="116.91924388841137"><ele>9.333333333333334</ele><time>2026-04-23T01:52:39.001Z</time></trkpt><trkpt lat="-20.77581089126523" lon="116.919416617837"><ele>9.0</ele><time>2026-04-23T01:52:40.001Z</time></trkpt><trkpt lat="-20.775776436438857" lon="116.91958880763083"><ele>9.0</ele><time>2026-04-23T01:52:41.001Z</time></trkpt><trkpt lat="-20.775739426972734" lon="116.9197691464417"><ele>9.0</ele><time>2026-04-23T01:52:42.001Z</time></trkpt><trkpt lat="-20.775690200506304" lon="116.91996018641369"><ele>9.0</ele><time>2026-04-23T01:52:43.001Z</time></trkpt><trkpt lat="-20.77564611505576" lon="116.92014053703032"><ele>9.666666666666666</ele><time>2026-04-23T01:52:44.001Z</time></trkpt><trkpt lat="-20.7756005750775" lon="116.92033054926709"><ele>10.333333333333332</ele><time>2026-04-23T01:52:45.001Z</time></trkpt><trkpt lat="-20.775553131212174" lon="116.9205252672579"><ele>11.0</ele><time>2026-04-23T01:52:46.001Z</time></trkpt><trkpt lat="-20.77550238560492" lon="116.92071713545037"><ele>10.666666666666666</ele><time>2026-04-23T01:52:47.001Z</time></trkpt><trkpt lat="-20.775452355877107" lon="116.92091204063726"><ele>10.333333333333334</ele><time>2026-04-23T01:52:48.001Z</time></trkpt><trkpt lat="-20.775401616421114" lon="116.92110377755043"><ele>10.0</ele><time>2026-04-23T01:52:49.001Z</time></trkpt><trkpt lat="-20.77535098897328" lon="116.92129466506503"><ele>10.0</ele><time>2026-04-23T01:52:50.001Z</time></trkpt><trkpt lat="-20.77529973198092" lon="116.9214860162952"><ele>10.0</ele><time>2026-04-23T01:52:51.001Z</time></trkpt><trkpt lat="-20.7752462115947" lon="116.92167849084353"><ele>10.0</ele><time>2026-04-23T01:52:52.001Z</time></trkpt><trkpt lat="-20.77519440451211" lon="116.92187031821027"><ele>9.666666666666668</ele><time>2026-04-23T01:52:53.001Z</time></trkpt><trkpt lat="-20.775149344255272" lon="116.92205430492538"><ele>9.333333333333334</ele><time>2026-04-23T01:52:54.001Z</time></trkpt><trkpt lat="-20.775100406416435" lon="116.92223957704626"><ele>9.0</ele><time>2026-04-23T01:52:55.001Z</time></trkpt><trkpt lat="-20.775050718198404" lon="116.92243147315637"><ele>9.0</ele><time>2026-04-23T01:52:56.001Z</time></trkpt><trkpt lat="-20.775006023540183" lon="116.92261011886482"><ele>9.0</ele><time>2026-04-23T01:52:57.001Z</time></trkpt><trkpt lat="-20.774958172704313" lon="116.92277357908054"><ele>9.0</ele><time>2026-04-23T01:52:58.001Z</time></trkpt><trkpt lat="-20.77491768871207" lon="116.92293685657728"><ele>9.0</ele><time>2026-04-23T01:52:59.001Z</time></trkpt><trkpt lat="-20.774880064254777" lon="116.92309207974924"><ele>9.0</ele><time>2026-04-23T01:53:00.001Z</time></trkpt><trkpt lat="-20.77483772584507" lon="116.92325635300939"><ele>9.0</ele><time>2026-04-23T01:53:01.001Z</time></trkpt><trkpt lat="-20.77480028508707" lon="116.92342240191911"><ele>9.25</ele><time>2026-04-23T01:53:02.001Z</time></trkpt><trkpt lat="-20.774767553910127" lon="116.92356843623784"><ele>9.5</ele><time>2026-04-23T01:53:03.001Z</time></trkpt><trkpt lat="-20.774741814299354" lon="116.92371750929202"><ele>9.75</ele><time>2026-04-23T01:53:04.001Z</time></trkpt><trkpt lat="-20.774709937727717" lon="116.92388423037538"><ele>10.0</ele><time>2026-04-23T01:53:05.001Z</time></trkpt><trkpt lat="-20.774676212435907" lon="116.924055680245"><ele>10.333333333333334</ele><time>2026-04-23T01:53:06.001Z</time></trkpt><trkpt lat="-20.77463442025646" lon="116.92424506420546"><ele>10.666666666666666</ele><time>2026-04-23T01:53:07.001Z</time></trkpt><trkpt lat="-20.77459180968185" lon="116.92443302391906"><ele>11.0</ele><time>2026-04-23T01:53:08.001Z</time></trkpt><trkpt lat="-20.774543493271757" lon="116.9246219447096"><ele>11.0</ele><time>2026-04-23T01:53:09.001Z</time></trkpt><trkpt lat="-20.774493239306334" lon="116.92480887246771"><ele>11.0</ele><time>2026-04-23T01:53:10.001Z</time></trkpt><trkpt lat="-20.77444258713294" lon="116.92499101772853"><ele>11.0</ele><time>2026-04-23T01:53:11.001Z</time></trkpt><trkpt lat="-20.774394886772253" lon="116.9251721754903"><ele>10.666666666666666</ele><time>2026-04-23T01:53:12.001Z</time></trkpt><trkpt lat="-20.774346312015165" lon="116.92535800870701"><ele>10.333333333333334</ele><time>2026-04-23T01:53:13.001Z</time></trkpt><trkpt lat="-20.774299755193702" lon="116.92554666836752"><ele>10.0</ele><time>2026-04-23T01:53:14.001Z</time></trkpt><trkpt lat="-20.774252615329196" lon="116.92573563149276"><ele>10.0</ele><time>2026-04-23T01:53:15.001Z</time></trkpt><trkpt lat="-20.774205242767177" lon="116.9259198470404"><ele>10.0</ele><time>2026-04-23T01:53:16.001Z</time></trkpt><trkpt lat="-20.774159622851723" lon="116.9260974098355"><ele>10.0</ele><time>2026-04-23T01:53:17.001Z</time></trkpt><trkpt lat="-20.77411755146317" lon="116.92627946275674"><ele>10.0</ele><time>2026-04-23T01:53:18.001Z</time></trkpt><trkpt lat="-20.774073574203754" lon="116.92645960752566"><ele>10.0</ele><time>2026-04-23T01:53:19.001Z</time></trkpt><trkpt lat="-20.77403196067395" lon="116.92663630379613"><ele>10.0</ele><time>2026-04-23T01:53:20.001Z</time></trkpt><trkpt lat="-20.77399546343977" lon="116.92681213202302"><ele>10.0</ele><time>2026-04-23T01:53:21.001Z</time></trkpt><trkpt lat="-20.773953815881963" lon="116.9269897484247"><ele>10.0</ele><time>2026-04-23T01:53:22.001Z</time></trkpt><trkpt lat="-20.773911595188796" lon="116.92717291970725"><ele>10.0</ele><time>2026-04-23T01:53:23.001Z</time></trkpt><trkpt lat="-20.773868550075562" lon="116.92735063705058"><ele>10.0</ele><time>2026-04-23T01:53:24.001Z</time></trkpt><trkpt lat="-20.773828587801248" lon="116.92752197279857"><ele>10.0</ele><time>2026-04-23T01:53:25.001Z</time></trkpt><trkpt lat="-20.773786929833516" lon="116.92769912075343"><ele>10.0</ele><time>2026-04-23T01:53:26.001Z</time></trkpt><trkpt lat="-20.773742733474275" lon="116.92788061951718"><ele>10.333333333333334</ele><time>2026-04-23T01:53:27.001Z</time></trkpt><trkpt lat="-20.773700500613025" lon="116.92806394005821"><ele>10.666666666666666</ele><time>2026-04-23T01:53:28.001Z</time></trkpt><trkpt lat="-20.773658413550248" lon="116.92824583079165"><ele>11.0</ele><time>2026-04-23T01:53:29.001Z</time></trkpt><trkpt lat="-20.77361793976167" lon="116.92842718387007"><ele>11.0</ele><time>2026-04-23T01:53:30.001Z</time></trkpt><trkpt lat="-20.773574880412188" lon="116.92860187821188"><ele>11.0</ele><time>2026-04-23T01:53:31.001Z</time></trkpt><trkpt lat="-20.77352991839502" lon="116.9287705158994"><ele>11.0</ele><time>2026-04-23T01:53:32.001Z</time></trkpt><trkpt lat="-20.773484660761035" lon="116.92893366089393"><ele>11.0</ele><time>2026-04-23T01:53:33.001Z</time></trkpt><trkpt lat="-20.77344234182892" lon="116.92908882452925"><ele>11.0</ele><time>2026-04-23T01:53:34.001Z</time></trkpt><trkpt lat="-20.77340605512676" lon="116.9292333673991"><ele>11.0</ele><time>2026-04-23T01:53:35.001Z</time></trkpt><trkpt lat="-20.77337478338412" lon="116.92935890824089"><ele>11.0</ele><time>2026-04-23T01:53:36.001Z</time></trkpt><trkpt lat="-20.773347741176362" lon="116.92946885687783"><ele>10.5</ele><time>2026-04-23T01:53:37.001Z</time></trkpt><trkpt lat="-20.773323840613575" lon="116.92958135092694"><ele>10.0</ele><time>2026-04-23T01:53:38.001Z</time></trkpt><trkpt lat="-20.77329127872932" lon="116.92970967488758"><ele>9.5</ele><time>2026-04-23T01:53:39.001Z</time></trkpt><trkpt lat="-20.773259802163725" lon="116.92983349261704"><ele>9.0</ele><time>2026-04-23T01:53:40.001Z</time></trkpt><trkpt lat="-20.77322178568979" lon="116.92996004953355"><ele>9.0</ele><time>2026-04-23T01:53:41.001Z</time></trkpt><trkpt lat="-20.773173859856705" lon="116.93010065508594"><ele>9.0</ele><time>2026-04-23T01:53:42.001Z</time></trkpt><trkpt lat="-20.773129743072126" lon="116.93024127452895"><ele>9.0</ele><time>2026-04-23T01:53:43.001Z</time></trkpt><trkpt lat="-20.773091815577516" lon="116.93039295186911"><ele>9.0</ele><time>2026-04-23T01:53:44.001Z</time></trkpt><trkpt lat="-20.773048115251225" lon="116.93055691539256"><ele>9.0</ele><time>2026-04-23T01:53:45.001Z</time></trkpt><trkpt lat="-20.773004241729684" lon="116.93072190032595"><ele>9.0</ele><time>2026-04-23T01:53:46.001Z</time></trkpt><trkpt lat="-20.772960328752788" lon="116.93089850455797"><ele>9.0</ele><time>2026-04-23T01:53:47.001Z</time></trkpt><trkpt lat="-20.772919475981976" lon="116.93107758862769"><ele>9.5</ele><time>2026-04-23T01:53:48.001Z</time></trkpt><trkpt lat="-20.7728797730819" lon="116.93124347966035"><ele>10.0</ele><time>2026-04-23T01:53:49.001Z</time></trkpt><trkpt lat="-20.77284530154781" lon="116.93138961474675"><ele>10.5</ele><time>2026-04-23T01:53:50.001Z</time></trkpt><trkpt lat="-20.7728148631474" lon="116.93152603516191"><ele>11.0</ele><time>2026-04-23T01:53:51.001Z</time></trkpt><trkpt lat="-20.772789202700448" lon="116.93165507711996"><ele>10.8</ele><time>2026-04-23T01:53:52.001Z</time></trkpt><trkpt lat="-20.77276595615201" lon="116.93176714480859"><ele>10.600000000000001</ele><time>2026-04-23T01:53:53.001Z</time></trkpt><trkpt lat="-20.77274531823421" lon="116.93186386018868"><ele>10.4</ele><time>2026-04-23T01:53:54.001Z</time></trkpt><trkpt lat="-20.772721761324522" lon="116.93194956059615"><ele>10.2</ele><time>2026-04-23T01:53:55.001Z</time></trkpt><trkpt lat="-20.77269693814267" lon="116.93202135358742"><ele>10.0</ele><time>2026-04-23T01:53:56.001Z</time></trkpt><trkpt lat="-20.772662687771636" lon="116.93214672211778"><ele>10.0</ele><time>2026-04-23T01:53:58.001Z</time></trkpt><trkpt lat="-20.7726388364076" lon="116.9322311979394"><ele>10.0</ele><time>2026-04-23T01:53:59.002Z</time></trkpt><trkpt lat="-20.772616527978528" lon="116.93233485126348"><ele>10.0</ele><time>2026-04-23T01:54:00.002Z</time></trkpt><trkpt lat="-20.772589094180056" lon="116.9324659041757"><ele>10.0</ele><time>2026-04-23T01:54:01.002Z</time></trkpt><trkpt lat="-20.772558666327882" lon="116.93260676094043"><ele>10.0</ele><time>2026-04-23T01:54:02.002Z</time></trkpt><trkpt lat="-20.772524642640416" lon="116.93274780241957"><ele>9.75</ele><time>2026-04-23T01:54:03.002Z</time></trkpt><trkpt lat="-20.772493711729087" lon="116.9328674963515"><ele>9.5</ele><time>2026-04-23T01:54:04.002Z</time></trkpt><trkpt lat="-20.77246345642425" lon="116.93299404136361"><ele>9.25</ele><time>2026-04-23T01:54:05.002Z</time></trkpt><trkpt lat="-20.772432129788147" lon="116.93312412568814"><ele>9.0</ele><time>2026-04-23T01:54:06.002Z</time></trkpt><trkpt lat="-20.772403049854663" lon="116.93325341656757"><ele>9.0</ele><time>2026-04-23T01:54:07.002Z</time></trkpt><trkpt lat="-20.772371009639652" lon="116.93338881292419"><ele>9.0</ele><time>2026-04-23T01:54:08.002Z</time></trkpt><trkpt lat="-20.77233525581549" lon="116.93352484100521"><ele>9.0</ele><time>2026-04-23T01:54:09.002Z</time></trkpt><trkpt lat="-20.772296319476656" lon="116.93366747437574"><ele>9.0</ele><time>2026-04-23T01:54:10.002Z</time></trkpt><trkpt lat="-20.77224960988334" lon="116.93382884503794"><ele>9.0</ele><time>2026-04-23T01:54:11.002Z</time></trkpt><trkpt lat="-20.7722062840124" lon="116.93399413042434"><ele>9.0</ele><time>2026-04-23T01:54:12.002Z</time></trkpt><trkpt lat="-20.772168007057232" lon="116.93415335292316"><ele>9.0</ele><time>2026-04-23T01:54:13.001Z</time></trkpt><trkpt lat="-20.772133885485086" lon="116.9342970516149"><ele>9.25</ele><time>2026-04-23T01:54:14.001Z</time></trkpt><trkpt lat="-20.77209993784253" lon="116.93443977316505"><ele>9.5</ele><time>2026-04-23T01:54:15.001Z</time></trkpt><trkpt lat="-20.772064387625154" lon="116.93458787916846"><ele>9.75</ele><time>2026-04-23T01:54:16.001Z</time></trkpt><trkpt lat="-20.77203015259087" lon="116.93473877062836"><ele>10.0</ele><time>2026-04-23T01:54:17.001Z</time></trkpt><trkpt lat="-20.771994107117113" lon="116.93488219089444"><ele>10.0</ele><time>2026-04-23T01:54:18.001Z</time></trkpt><trkpt lat="-20.771959940341386" lon="116.9350316064414"><ele>10.0</ele><time>2026-04-23T01:54:19.001Z</time></trkpt><trkpt lat="-20.771923500419618" lon="116.93519754549597"><ele>10.0</ele><time>2026-04-23T01:54:20.001Z</time></trkpt><trkpt lat="-20.771887609775238" lon="116.93536518392641"><ele>10.333333333333334</ele><time>2026-04-23T01:54:21.001Z</time></trkpt><trkpt lat="-20.771843261396675" lon="116.93553698621926"><ele>10.666666666666666</ele><time>2026-04-23T01:54:22.001Z</time></trkpt><trkpt lat="-20.771800716231898" lon="116.93572039815349"><ele>11.0</ele><time>2026-04-23T01:54:23.001Z</time></trkpt><trkpt lat="-20.771756297331123" lon="116.93589680098157"><ele>11.0</ele><time>2026-04-23T01:54:24.001Z</time></trkpt><trkpt lat="-20.77171387789078" lon="116.9360799435767"><ele>11.0</ele><time>2026-04-23T01:54:25.001Z</time></trkpt><trkpt lat="-20.77167101466954" lon="116.93625769342134"><ele>11.0</ele><time>2026-04-23T01:54:26.001Z</time></trkpt><trkpt lat="-20.771626272178572" lon="116.93644547872044"><ele>11.0</ele><time>2026-04-23T01:54:27.001Z</time></trkpt><trkpt lat="-20.771580520930133" lon="116.93663077916352"><ele>11.0</ele><time>2026-04-23T01:54:28.001Z</time></trkpt><trkpt lat="-20.771535208143998" lon="116.93681337075802"><ele>11.0</ele><time>2026-04-23T01:54:29.001Z</time></trkpt><trkpt lat="-20.771492794956888" lon="116.93698655192384"><ele>10.666666666666666</ele><time>2026-04-23T01:54:30.001Z</time></trkpt><trkpt lat="-20.7714463355152" lon="116.93716459041086"><ele>10.333333333333334</ele><time>2026-04-23T01:54:31.001Z</time></trkpt><trkpt lat="-20.771401566570713" lon="116.93734763664254"><ele>10.0</ele><time>2026-04-23T01:54:32.001Z</time></trkpt><trkpt lat="-20.77135514472781" lon="116.93753820014913"><ele>9.666666666666668</ele><time>2026-04-23T01:54:33.001Z</time></trkpt><trkpt lat="-20.771309938818618" lon="116.9377263495098"><ele>9.333333333333334</ele><time>2026-04-23T01:54:34.001Z</time></trkpt><trkpt lat="-20.771266364800933" lon="116.93790863222631"><ele>9.0</ele><time>2026-04-23T01:54:35.001Z</time></trkpt><trkpt lat="-20.771223883656763" lon="116.93808177294157"><ele>9.0</ele><time>2026-04-23T01:54:36.001Z</time></trkpt><trkpt lat="-20.77118213739471" lon="116.9382541713597"><ele>9.0</ele><time>2026-04-23T01:54:37.001Z</time></trkpt><trkpt lat="-20.77113836849399" lon="116.93842251964284"><ele>9.0</ele><time>2026-04-23T01:54:38.001Z</time></trkpt><trkpt lat="-20.771089027453463" lon="116.93859311616092"><ele>9.333333333333334</ele><time>2026-04-23T01:54:39.001Z</time></trkpt><trkpt lat="-20.77104988292042" lon="116.93877050862967"><ele>9.666666666666668</ele><time>2026-04-23T01:54:40.001Z</time></trkpt><trkpt lat="-20.771012550889044" lon="116.93893858223379"><ele>10.0</ele><time>2026-04-23T01:54:41.001Z</time></trkpt><trkpt lat="-20.770972790991948" lon="116.93912046697152"><ele>10.0</ele><time>2026-04-23T01:54:42.001Z</time></trkpt><trkpt lat="-20.770928257805387" lon="116.93930640399368"><ele>10.0</ele><time>2026-04-23T01:54:43.001Z</time></trkpt><trkpt lat="-20.77088234006508" lon="116.9394989716041"><ele>10.0</ele><time>2026-04-23T01:54:44.001Z</time></trkpt><trkpt lat="-20.770834480107247" lon="116.93969917160419"><ele>10.0</ele><time>2026-04-23T01:54:45.001Z</time></trkpt><trkpt lat="-20.770780522335727" lon="116.93990015153958"><ele>10.0</ele><time>2026-04-23T01:54:46.001Z</time></trkpt><trkpt lat="-20.770727071037882" lon="116.94010778016641"><ele>10.0</ele><time>2026-04-23T01:54:47.001Z</time></trkpt><trkpt lat="-20.77067597670267" lon="116.94031026640238"><ele>10.0</ele><time>2026-04-23T01:54:48.001Z</time></trkpt><trkpt lat="-20.770625274099892" lon="116.94050514894226"><ele>10.0</ele><time>2026-04-23T01:54:49.001Z</time></trkpt><trkpt lat="-20.770576903418107" lon="116.94070101239514"><ele>10.0</ele><time>2026-04-23T01:54:50.001Z</time></trkpt><trkpt lat="-20.770526884763516" lon="116.94089139417147"><ele>10.333333333333334</ele><time>2026-04-23T01:54:51.001Z</time></trkpt><trkpt lat="-20.770481611837997" lon="116.9410749813755"><ele>10.666666666666666</ele><time>2026-04-23T01:54:52.001Z</time></trkpt><trkpt lat="-20.77043841162765" lon="116.94125155410195"><ele>11.0</ele><time>2026-04-23T01:54:53.001Z</time></trkpt><trkpt lat="-20.770398554795992" lon="116.94143071309075"><ele>11.0</ele><time>2026-04-23T01:54:54.001Z</time></trkpt><trkpt lat="-20.770357435096912" lon="116.94162304150724"><ele>11.0</ele><time>2026-04-23T01:54:55.001Z</time></trkpt><trkpt lat="-20.770314684485996" lon="116.94180985368567"><ele>11.0</ele><time>2026-04-23T01:54:56.001Z</time></trkpt><trkpt lat="-20.770265869536928" lon="116.9419959498878"><ele>11.0</ele><time>2026-04-23T01:54:57.001Z</time></trkpt><trkpt lat="-20.770214318131455" lon="116.94217378185232"><ele>11.0</ele><time>2026-04-23T01:54:58.001Z</time></trkpt><trkpt lat="-20.77016398847287" lon="116.94234326674582"><ele>11.0</ele><time>2026-04-23T01:54:59.001Z</time></trkpt><trkpt lat="-20.77011791782972" lon="116.94251255906433"><ele>11.0</ele><time>2026-04-23T01:55:00.001Z</time></trkpt><trkpt lat="-20.770073355817107" lon="116.94268057705683"><ele>11.0</ele><time>2026-04-23T01:55:01.001Z</time></trkpt><trkpt lat="-20.770033089793497" lon="116.94285642773085"><ele>11.0</ele><time>2026-04-23T01:55:02.001Z</time></trkpt><trkpt lat="-20.76998964046163" lon="116.94302243981205"><ele>11.0</ele><time>2026-04-23T01:55:03.001Z</time></trkpt><trkpt lat="-20.769947281092055" lon="116.94319907884542"><ele>11.0</ele><time>2026-04-23T01:55:04.001Z</time></trkpt><trkpt lat="-20.769904798502584" lon="116.94337386971004"><ele>11.0</ele><time>2026-04-23T01:55:05.001Z</time></trkpt><trkpt lat="-20.769860681243628" lon="116.94355475376213"><ele>10.0</ele><time>2026-04-23T01:55:06.001Z</time></trkpt><trkpt lat="-20.769813684519878" lon="116.94373632475836"><ele>9.0</ele><time>2026-04-23T01:55:07.001Z</time></trkpt><trkpt lat="-20.769764639182256" lon="116.94391825636497"><ele>8.0</ele><time>2026-04-23T01:55:08.001Z</time></trkpt><trkpt lat="-20.76971379515517" lon="116.9441053717216"><ele>8.0</ele><time>2026-04-23T01:55:09.001Z</time></trkpt><trkpt lat="-20.769662809399804" lon="116.9442910496652"><ele>8.0</ele><time>2026-04-23T01:55:10.001Z</time></trkpt><trkpt lat="-20.769620270039017" lon="116.94446266907941"><ele>8.0</ele><time>2026-04-23T01:55:11.001Z</time></trkpt><trkpt lat="-20.769579953291473" lon="116.94461623246245"><ele>8.0</ele><time>2026-04-23T01:55:12.001Z</time></trkpt><trkpt lat="-20.769540864785377" lon="116.94475632635667"><ele>8.0</ele><time>2026-04-23T01:55:13.001Z</time></trkpt><trkpt lat="-20.769506752568976" lon="116.9448811865912"><ele>8.0</ele><time>2026-04-23T01:55:14.001Z</time></trkpt><trkpt lat="-20.769483678443667" lon="116.94499206192896"><ele>8.0</ele><time>2026-04-23T01:55:15.001Z</time></trkpt><trkpt lat="-20.769469623373112" lon="116.94510403619665"><ele>7.999999999999999</ele><time>2026-04-23T01:55:16.001Z</time></trkpt><trkpt lat="-20.76945957878314" lon="116.94519419436519"><ele>8.0</ele><time>2026-04-23T01:55:17.001Z</time></trkpt><trkpt lat="-20.769412348888974" lon="116.94526519882979"><ele>8.0</ele><time>2026-04-23T01:55:19.001Z</time></trkpt><trkpt lat="-20.769353076514257" lon="116.94533996497252"><ele>8.0</ele><time>2026-04-23T01:55:22.001Z</time></trkpt><trkpt lat="-20.769330133804317" lon="116.94540382976186"><ele>7.999999999999999</ele><time>2026-04-23T01:55:24.001Z</time></trkpt><trkpt lat="-20.76933064248867" lon="116.94549531844635"><ele>8.0</ele><time>2026-04-23T01:55:26.001Z</time></trkpt><trkpt lat="-20.76933984368535" lon="116.94560014535446"><ele>7.999999999999999</ele><time>2026-04-23T01:55:28.001Z</time></trkpt><trkpt lat="-20.769319944497024" lon="116.94571872587689"><ele>8.0</ele><time>2026-04-23T01:55:30.001Z</time></trkpt><trkpt lat="-20.76926309522242" lon="116.94581348688703"><ele>8.0</ele><time>2026-04-23T01:55:32.001Z</time></trkpt><trkpt lat="-20.769230251708265" lon="116.94587497637444"><ele>8.0</ele><time>2026-04-23T01:55:33.001Z</time></trkpt><trkpt lat="-20.76919513954573" lon="116.94594167747562"><ele>7.999999999999999</ele><time>2026-04-23T01:55:34.001Z</time></trkpt><trkpt lat="-20.76916256224765" lon="116.94601365405595"><ele>8.0</ele><time>2026-04-23T01:55:35.001Z</time></trkpt><trkpt lat="-20.769129419452085" lon="116.94608824715603"><ele>8.0</ele><time>2026-04-23T01:55:36.001Z</time></trkpt><trkpt lat="-20.769095007274615" lon="116.94616534233342"><ele>8.0</ele><time>2026-04-23T01:55:37.001Z</time></trkpt><trkpt lat="-20.769058354812724" lon="116.94624349600993"><ele>8.0</ele><time>2026-04-23T01:55:38.001Z</time></trkpt><trkpt lat="-20.769024103210494" lon="116.94631902848263"><ele>8.0</ele><time>2026-04-23T01:55:39.001Z</time></trkpt><trkpt lat="-20.768941776239433" lon="116.94644088231622"><ele>8.0</ele><time>2026-04-23T01:55:41.001Z</time></trkpt><trkpt lat="-20.768892342140603" lon="116.94649602431245"><ele>7.999999999999999</ele><time>2026-04-23T01:55:42.001Z</time></trkpt><trkpt lat="-20.7688377268965" lon="116.94653368552781"><ele>8.0</ele><time>2026-04-23T01:55:44.001Z</time></trkpt><trkpt lat="-20.76878960397416" lon="116.94660924418885"><ele>8.0</ele><time>2026-04-23T01:56:00.001Z</time></trkpt><trkpt lat="-20.768770241977016" lon="116.94667919654022"><ele>8.0</ele><time>2026-04-23T01:56:02.001Z</time></trkpt><trkpt lat="-20.76875315434231" lon="116.9467608260453"><ele>7.999999999999999</ele><time>2026-04-23T01:56:04.001Z</time></trkpt><trkpt lat="-20.768728337449584" lon="116.94683419031416"><ele>8.0</ele><time>2026-04-23T01:56:06.001Z</time></trkpt><trkpt lat="-20.768686250268026" lon="116.94691919083311"><ele>7.999999999999999</ele><time>2026-04-23T01:56:09.001Z</time></trkpt><trkpt lat="-20.76866082313152" lon="116.94700169618525"><ele>8.0</ele><time>2026-04-23T01:56:11.001Z</time></trkpt><trkpt lat="-20.768634597561928" lon="116.94707814161272"><ele>8.0</ele><time>2026-04-23T01:56:13.001Z</time></trkpt><trkpt lat="-20.76859712205249" lon="116.94713647505726"><ele>8.0</ele><time>2026-04-23T01:56:16.002Z</time></trkpt><trkpt lat="-20.768555069944213" lon="116.94720808974337"><ele>7.999999999999999</ele><time>2026-04-23T01:56:29.001Z</time></trkpt><trkpt lat="-20.768506551212987" lon="116.94728895356415"><ele>8.0</ele><time>2026-04-23T01:56:40Z</time></trkpt><trkpt lat="-20.768469614876697" lon="116.94736691566915"><ele>7.800000000000001</ele><time>2026-04-23T01:56:42Z</time></trkpt><trkpt lat="-20.768442283470563" lon="116.9474644607224"><ele>7.6000000000000005</ele><time>2026-04-23T01:56:44Z</time></trkpt><trkpt lat="-20.768432257593958" lon="116.94756909357974"><ele>7.3999999999999995</ele><time>2026-04-23T01:56:46Z</time></trkpt><trkpt lat="-20.76842440003732" lon="116.94769320882087"><ele>7.199999999999999</ele><time>2026-04-23T01:56:48Z</time></trkpt><trkpt lat="-20.768335683049987" lon="116.94777096195145"><ele>7.0</ele><time>2026-04-23T01:56:50Z</time></trkpt><trkpt lat="-20.76826594450601" lon="116.94780008891873"><ele>7.333333333333334</ele><time>2026-04-23T01:56:51Z</time></trkpt><trkpt lat="-20.768214401396182" lon="116.94787750562607"><ele>7.666666666666667</ele><time>2026-04-23T01:56:53Z</time></trkpt><trkpt lat="-20.76821021880758" lon="116.94797942568633"><ele>8.0</ele><time>2026-04-23T01:56:55Z</time></trkpt><trkpt lat="-20.76820953206495" lon="116.94804769998545"><ele>8.333333333333334</ele><time>2026-04-23T01:56:56Z</time></trkpt><trkpt lat="-20.76819306151209" lon="116.94812989673801"><ele>8.666666666666666</ele><time>2026-04-23T01:56:57Z</time></trkpt><trkpt lat="-20.76815850606888" lon="116.94820780676473"><ele>9.0</ele><time>2026-04-23T01:56:58Z</time></trkpt><trkpt lat="-20.768120111020732" lon="116.94828000289212"><ele>9.0</ele><time>2026-04-23T01:56:59.001Z</time></trkpt><trkpt lat="-20.768076797597878" lon="116.94836169920481"><ele>9.0</ele><time>2026-04-23T01:57:00.001Z</time></trkpt><trkpt lat="-20.76802774636502" lon="116.9484554561188"><ele>9.0</ele><time>2026-04-23T01:57:01.001Z</time></trkpt><trkpt lat="-20.767974492608605" lon="116.94855654383065"><ele>9.0</ele><time>2026-04-23T01:57:02.001Z</time></trkpt><trkpt lat="-20.76791283893013" lon="116.94866709251633"><ele>9.0</ele><time>2026-04-23T01:57:03.001Z</time></trkpt><trkpt lat="-20.767838806444576" lon="116.94879528882299"><ele>9.0</ele><time>2026-04-23T01:57:04.001Z</time></trkpt><trkpt lat="-20.767758561911148" lon="116.94894016334625"><ele>9.0</ele><time>2026-04-23T01:57:05.001Z</time></trkpt><trkpt lat="-20.76767419179705" lon="116.9490966359512"><ele>9.0</ele><time>2026-04-23T01:57:06.001Z</time></trkpt><trkpt lat="-20.76758585809038" lon="116.9492651298882"><ele>9.666666666666666</ele><time>2026-04-23T01:57:07.001Z</time></trkpt><trkpt lat="-20.76749915210888" lon="116.9494270370786"><ele>10.333333333333332</ele><time>2026-04-23T01:57:08.001Z</time></trkpt><trkpt lat="-20.76741873159014" lon="116.94956849728163"><ele>11.0</ele><time>2026-04-23T01:57:09.001Z</time></trkpt><trkpt lat="-20.767340919952" lon="116.94971373542693"><ele>11.0</ele><time>2026-04-23T01:57:10.001Z</time></trkpt><trkpt lat="-20.767263004516494" lon="116.94985824583122"><ele>11.0</ele><time>2026-04-23T01:57:11.001Z</time></trkpt><trkpt lat="-20.767185893063495" lon="116.94999923624107"><ele>11.0</ele><time>2026-04-23T01:57:12.001Z</time></trkpt><trkpt lat="-20.76710445730121" lon="116.95014951177822"><ele>10.0</ele><time>2026-04-23T01:57:13.001Z</time></trkpt><trkpt lat="-20.767030228357378" lon="116.9502909612123"><ele>9.0</ele><time>2026-04-23T01:57:14.001Z</time></trkpt><trkpt lat="-20.76694891182163" lon="116.95043911556755"><ele>8.0</ele><time>2026-04-23T01:57:15.001Z</time></trkpt><trkpt lat="-20.766865890736845" lon="116.95059643451404"><ele>8.333333333333332</ele><time>2026-04-23T01:57:16.001Z</time></trkpt><trkpt lat="-20.766778158319074" lon="116.95075959624536"><ele>8.666666666666666</ele><time>2026-04-23T01:57:17.001Z</time></trkpt><trkpt lat="-20.766689922866234" lon="116.95092216239198"><ele>9.0</ele><time>2026-04-23T01:57:18.001Z</time></trkpt><trkpt lat="-20.766600194469802" lon="116.95108844324022"><ele>9.333333333333334</ele><time>2026-04-23T01:57:19.001Z</time></trkpt><trkpt lat="-20.766504064786513" lon="116.9512661955833"><ele>9.666666666666668</ele><time>2026-04-23T01:57:20.001Z</time></trkpt><trkpt lat="-20.766402894171943" lon="116.95145719611635"><ele>10.0</ele><time>2026-04-23T01:57:21.001Z</time></trkpt><trkpt lat="-20.766303075314696" lon="116.95164636216937"><ele>9.666666666666668</ele><time>2026-04-23T01:57:22.001Z</time></trkpt><trkpt lat="-20.766210983755546" lon="116.95183808251679"><ele>9.333333333333334</ele><time>2026-04-23T01:57:23.001Z</time></trkpt><trkpt lat="-20.76613250485604" lon="116.9520171656459"><ele>9.0</ele><time>2026-04-23T01:57:24.001Z</time></trkpt><trkpt lat="-20.766058956850753" lon="116.95218194780878"><ele>9.333333333333334</ele><time>2026-04-23T01:57:25.001Z</time></trkpt><trkpt lat="-20.765982562309546" lon="116.95234022126466"><ele>9.666666666666668</ele><time>2026-04-23T01:57:26.001Z</time></trkpt><trkpt lat="-20.765903195886782" lon="116.95249731923894"><ele>10.0</ele><time>2026-04-23T01:57:27.001Z</time></trkpt><trkpt lat="-20.7658136728907" lon="116.9526591190639"><ele>10.666666666666668</ele><time>2026-04-23T01:57:28.001Z</time></trkpt><trkpt lat="-20.76572628003665" lon="116.95281689763068"><ele>11.333333333333334</ele><time>2026-04-23T01:57:29.001Z</time></trkpt><trkpt lat="-20.765636138878698" lon="116.95297731659319"><ele>12.0</ele><time>2026-04-23T01:57:30.001Z</time></trkpt><trkpt lat="-20.76554881468964" lon="116.95313556464583"><ele>12.0</ele><time>2026-04-23T01:57:31.001Z</time></trkpt><trkpt lat="-20.765465109904742" lon="116.95330071020392"><ele>12.0</ele><time>2026-04-23T01:57:32.001Z</time></trkpt><trkpt lat="-20.765382758700564" lon="116.95346358000153"><ele>12.0</ele><time>2026-04-23T01:57:33.001Z</time></trkpt><trkpt lat="-20.765300891581497" lon="116.95362761496294"><ele>11.0</ele><time>2026-04-23T01:57:34.001Z</time></trkpt><trkpt lat="-20.765217968733594" lon="116.95379172149354"><ele>10.0</ele><time>2026-04-23T01:57:35.001Z</time></trkpt><trkpt lat="-20.765133377278655" lon="116.95395315123635"><ele>9.0</ele><time>2026-04-23T01:57:36.001Z</time></trkpt><trkpt lat="-20.76504857387353" lon="116.95411098270905"><ele>9.333333333333334</ele><time>2026-04-23T01:57:37.001Z</time></trkpt><trkpt lat="-20.76496099731717" lon="116.95426686042869"><ele>9.666666666666668</ele><time>2026-04-23T01:57:38.001Z</time></trkpt><trkpt lat="-20.764874629596008" lon="116.95442022243517"><ele>10.0</ele><time>2026-04-23T01:57:39.001Z</time></trkpt><trkpt lat="-20.764784620575785" lon="116.95457584163212"><ele>10.0</ele><time>2026-04-23T01:57:40.001Z</time></trkpt><trkpt lat="-20.76469012504885" lon="116.9547356931881"><ele>10.0</ele><time>2026-04-23T01:57:41.001Z</time></trkpt><trkpt lat="-20.76459028906864" lon="116.95489484027826"><ele>10.0</ele><time>2026-04-23T01:57:42.001Z</time></trkpt><trkpt lat="-20.76448539933408" lon="116.95505805789445"><ele>10.0</ele><time>2026-04-23T01:57:43.001Z</time></trkpt><trkpt lat="-20.76437546916146" lon="116.95522627926421"><ele>10.0</ele><time>2026-04-23T01:57:44.001Z</time></trkpt><trkpt lat="-20.76426719974209" lon="116.95539297380908"><ele>10.0</ele><time>2026-04-23T01:57:45.001Z</time></trkpt><trkpt lat="-20.76415882281326" lon="116.95556029592017"><ele>10.333333333333334</ele><time>2026-04-23T01:57:46.001Z</time></trkpt><trkpt lat="-20.764052175255745" lon="116.95572589648572"><ele>10.666666666666666</ele><time>2026-04-23T01:57:47.001Z</time></trkpt><trkpt lat="-20.76394711986175" lon="116.95588951058724"><ele>11.0</ele><time>2026-04-23T01:57:48.001Z</time></trkpt><trkpt lat="-20.763844052911516" lon="116.95604812406407"><ele>11.0</ele><time>2026-04-23T01:57:49.001Z</time></trkpt><trkpt lat="-20.763749518130144" lon="116.9561980284955"><ele>11.0</ele><time>2026-04-23T01:57:50.001Z</time></trkpt><trkpt lat="-20.763652424529653" lon="116.95635014110404"><ele>11.0</ele><time>2026-04-23T01:57:51.001Z</time></trkpt><trkpt lat="-20.763548572690908" lon="116.95651494314012"><ele>10.333333333333332</ele><time>2026-04-23T01:57:52.001Z</time></trkpt><trkpt lat="-20.763440584696816" lon="116.95667810016378"><ele>9.666666666666666</ele><time>2026-04-23T01:57:53.001Z</time></trkpt><trkpt lat="-20.763331893350657" lon="116.9568444820241"><ele>9.0</ele><time>2026-04-23T01:57:54.001Z</time></trkpt><trkpt lat="-20.76322500489161" lon="116.95700118668391"><ele>9.0</ele><time>2026-04-23T01:57:55.001Z</time></trkpt><trkpt lat="-20.763123565126342" lon="116.95715004458776"><ele>9.0</ele><time>2026-04-23T01:57:56.001Z</time></trkpt><trkpt lat="-20.763024710909736" lon="116.95729554286531"><ele>9.0</ele><time>2026-04-23T01:57:57.001Z</time></trkpt><trkpt lat="-20.762928804585957" lon="116.95744139648743"><ele>9.0</ele><time>2026-04-23T01:57:58.001Z</time></trkpt><trkpt lat="-20.762838542344202" lon="116.95757952580225"><ele>9.0</ele><time>2026-04-23T01:57:59.001Z</time></trkpt><trkpt lat="-20.76274546173414" lon="116.95772273729739"><ele>9.0</ele><time>2026-04-23T01:58:00.001Z</time></trkpt><trkpt lat="-20.76265199068957" lon="116.95787538498833"><ele>8.333333333333334</ele><time>2026-04-23T01:58:01.001Z</time></trkpt><trkpt lat="-20.7625557423154" lon="116.95803377641343"><ele>7.666666666666667</ele><time>2026-04-23T01:58:02.001Z</time></trkpt><trkpt lat="-20.76245667997178" lon="116.95818352511583"><ele>7.0</ele><time>2026-04-23T01:58:03.001Z</time></trkpt><trkpt lat="-20.76236163686855" lon="116.95832160852731"><ele>7.333333333333334</ele><time>2026-04-23T01:58:04.001Z</time></trkpt><trkpt lat="-20.76225670403907" lon="116.95847590000683"><ele>7.666666666666666</ele><time>2026-04-23T01:58:05.001Z</time></trkpt><trkpt lat="-20.762158085233374" lon="116.95862618910954"><ele>8.0</ele><time>2026-04-23T01:58:06.001Z</time></trkpt><trkpt lat="-20.762070631625257" lon="116.95876835212948"><ele>8.0</ele><time>2026-04-23T01:58:07.001Z</time></trkpt><trkpt lat="-20.761986828152953" lon="116.95891267616058"><ele>8.0</ele><time>2026-04-23T01:58:08.001Z</time></trkpt><trkpt lat="-20.76190315739451" lon="116.95905270611344"><ele>8.0</ele><time>2026-04-23T01:58:09.001Z</time></trkpt><trkpt lat="-20.761819735839182" lon="116.95919978730994"><ele>8.333333333333332</ele><time>2026-04-23T01:58:10.001Z</time></trkpt><trkpt lat="-20.76173803530108" lon="116.95934920957075"><ele>8.666666666666666</ele><time>2026-04-23T01:58:11.001Z</time></trkpt><trkpt lat="-20.76166206431239" lon="116.95949872843838"><ele>9.0</ele><time>2026-04-23T01:58:12.001Z</time></trkpt><trkpt lat="-20.76158989947235" lon="116.95965331364575"><ele>9.0</ele><time>2026-04-23T01:58:13.001Z</time></trkpt><trkpt lat="-20.76151894456183" lon="116.95981297031365"><ele>9.0</ele><time>2026-04-23T01:58:14.001Z</time></trkpt><trkpt lat="-20.761444842324334" lon="116.95997501832909"><ele>9.0</ele><time>2026-04-23T01:58:15.001Z</time></trkpt><trkpt lat="-20.761373282443394" lon="116.96012748206901"><ele>9.666666666666666</ele><time>2026-04-23T01:58:16.001Z</time></trkpt><trkpt lat="-20.761297689995914" lon="116.96028006900492"><ele>10.333333333333332</ele><time>2026-04-23T01:58:17.001Z</time></trkpt><trkpt lat="-20.761225281915813" lon="116.9604266114521"><ele>11.0</ele><time>2026-04-23T01:58:18.001Z</time></trkpt><trkpt lat="-20.761152134228787" lon="116.96057760663342"><ele>11.0</ele><time>2026-04-23T01:58:19.001Z</time></trkpt><trkpt lat="-20.761077021520883" lon="116.9607302912972"><ele>11.0</ele><time>2026-04-23T01:58:20.001Z</time></trkpt><trkpt lat="-20.760999712299768" lon="116.96088402382682"><ele>11.0</ele><time>2026-04-23T01:58:21.001Z</time></trkpt><trkpt lat="-20.76092096084123" lon="116.9610400342705"><ele>10.666666666666666</ele><time>2026-04-23T01:58:22.001Z</time></trkpt><trkpt lat="-20.760844384017748" lon="116.96119887575004"><ele>10.333333333333334</ele><time>2026-04-23T01:58:23.001Z</time></trkpt><trkpt lat="-20.76076104161963" lon="116.961367978238"><ele>10.0</ele><time>2026-04-23T01:58:24.001Z</time></trkpt><trkpt lat="-20.760678145987427" lon="116.96152976909218"><ele>10.0</ele><time>2026-04-23T01:58:25Z</time></trkpt><trkpt lat="-20.760597249775984" lon="116.96169445778847"><ele>10.0</ele><time>2026-04-23T01:58:26Z</time></trkpt><trkpt lat="-20.760520263904823" lon="116.96185405826843"><ele>10.0</ele><time>2026-04-23T01:58:27Z</time></trkpt><trkpt lat="-20.760439275685716" lon="116.9620165387406"><ele>10.0</ele><time>2026-04-23T01:58:28Z</time></trkpt><trkpt lat="-20.76036537002821" lon="116.96216821993612"><ele>10.0</ele><time>2026-04-23T01:58:29Z</time></trkpt><trkpt lat="-20.760285612964026" lon="116.96232857265255"><ele>10.0</ele><time>2026-04-23T01:58:30Z</time></trkpt><trkpt lat="-20.760215189719183" lon="116.9624753731406"><ele>9.75</ele><time>2026-04-23T01:58:31Z</time></trkpt><trkpt lat="-20.760142300208145" lon="116.9626090302648"><ele>9.5</ele><time>2026-04-23T01:58:32Z</time></trkpt><trkpt lat="-20.760080678928922" lon="116.962728264473"><ele>9.25</ele><time>2026-04-23T01:58:33Z</time></trkpt><trkpt lat="-20.760034391719454" lon="116.96282549531053"><ele>9.0</ele><time>2026-04-23T01:58:34Z</time></trkpt><trkpt lat="-20.760001126614174" lon="116.96291587061161"><ele>9.0</ele><time>2026-04-23T01:58:35Z</time></trkpt><trkpt lat="-20.759975606817232" lon="116.96302204976199"><ele>9.0</ele><time>2026-04-23T01:58:36Z</time></trkpt><trkpt lat="-20.759957907636487" lon="116.96314239127774"><ele>9.0</ele><time>2026-04-23T01:58:37Z</time></trkpt><trkpt lat="-20.759953530619867" lon="116.96327616282743"><ele>9.0</ele><time>2026-04-23T01:58:38Z</time></trkpt><trkpt lat="-20.7599582576265" lon="116.96342161209898"><ele>9.333333333333334</ele><time>2026-04-23T01:58:39Z</time></trkpt><trkpt lat="-20.75996017238951" lon="116.9635870968206"><ele>9.666666666666668</ele><time>2026-04-23T01:58:40Z</time></trkpt><trkpt lat="-20.75995791696395" lon="116.96376943668038"><ele>10.0</ele><time>2026-04-23T01:58:41Z</time></trkpt><trkpt lat="-20.759957657487725" lon="116.96395789268139"><ele>10.0</ele><time>2026-04-23T01:58:42Z</time></trkpt><trkpt lat="-20.759946777214687" lon="116.964151913715"><ele>10.0</ele><time>2026-04-23T01:58:43Z</time></trkpt><trkpt lat="-20.75993543545215" lon="116.964337501041"><ele>10.0</ele><time>2026-04-23T01:58:44Z</time></trkpt><trkpt lat="-20.75992369729838" lon="116.9645302617781"><ele>10.0</ele><time>2026-04-23T01:58:45Z</time></trkpt><trkpt lat="-20.759911656732267" lon="116.96472793977125"><ele>10.0</ele><time>2026-04-23T01:58:46Z</time></trkpt><trkpt lat="-20.75990380930585" lon="116.96493655659481"><ele>10.0</ele><time>2026-04-23T01:58:47Z</time></trkpt><trkpt lat="-20.759895265917873" lon="116.96514828174415"><ele>10.0</ele><time>2026-04-23T01:58:48Z</time></trkpt><trkpt lat="-20.759887331242687" lon="116.9653666660086"><ele>10.0</ele><time>2026-04-23T01:58:49Z</time></trkpt><trkpt lat="-20.759880075177144" lon="116.96558997187184"><ele>10.0</ele><time>2026-04-23T01:58:50Z</time></trkpt><trkpt lat="-20.75986914994731" lon="116.96580791968854"><ele>10.0</ele><time>2026-04-23T01:58:51Z</time></trkpt><trkpt lat="-20.759859322984596" lon="116.96602574056662"><ele>10.0</ele><time>2026-04-23T01:58:52Z</time></trkpt><trkpt lat="-20.759850132165727" lon="116.96623925419432"><ele>10.0</ele><time>2026-04-23T01:58:53Z</time></trkpt><trkpt lat="-20.75983864376946" lon="116.9664525734109"><ele>10.0</ele><time>2026-04-23T01:58:54Z</time></trkpt><trkpt lat="-20.759828290461595" lon="116.96666315538782"><ele>10.0</ele><time>2026-04-23T01:58:55Z</time></trkpt><trkpt lat="-20.75981770748952" lon="116.96687751910797"><ele>10.0</ele><time>2026-04-23T01:58:56Z</time></trkpt><trkpt lat="-20.759808795825442" lon="116.96708940578361"><ele>10.666666666666668</ele><time>2026-04-23T01:58:57Z</time></trkpt><trkpt lat="-20.759805496349585" lon="116.96731171100275"><ele>11.333333333333334</ele><time>2026-04-23T01:58:58Z</time></trkpt><trkpt lat="-20.75980027529375" lon="116.96753629035918"><ele>12.0</ele><time>2026-04-23T01:58:59Z</time></trkpt><trkpt lat="-20.759795690740916" lon="116.96775900020032"><ele>12.0</ele><time>2026-04-23T01:59:00Z</time></trkpt><trkpt lat="-20.75978711217015" lon="116.96797897344592"><ele>12.0</ele><time>2026-04-23T01:59:01Z</time></trkpt><trkpt lat="-20.759777869074995" lon="116.96819757059863"><ele>12.0</ele><time>2026-04-23T01:59:02Z</time></trkpt><trkpt lat="-20.75976495114565" lon="116.96841737924649"><ele>11.333333333333334</ele><time>2026-04-23T01:59:03Z</time></trkpt><trkpt lat="-20.7597531366695" lon="116.96863643879948"><ele>10.666666666666668</ele><time>2026-04-23T01:59:04Z</time></trkpt><trkpt lat="-20.759740632045666" lon="116.96885514550756"><ele>10.0</ele><time>2026-04-23T01:59:05Z</time></trkpt><trkpt lat="-20.759727955398112" lon="116.96907809729194"><ele>9.666666666666668</ele><time>2026-04-23T01:59:06Z</time></trkpt><trkpt lat="-20.759720724508927" lon="116.96929519014438"><ele>9.333333333333334</ele><time>2026-04-23T01:59:07Z</time></trkpt><trkpt lat="-20.759712750877075" lon="116.9695140970333"><ele>9.0</ele><time>2026-04-23T01:59:08Z</time></trkpt><trkpt lat="-20.759703868208494" lon="116.96973052593434"><ele>9.0</ele><time>2026-04-23T01:59:09Z</time></trkpt><trkpt lat="-20.75969783298699" lon="116.96995241546162"><ele>9.0</ele><time>2026-04-23T01:59:10Z</time></trkpt><trkpt lat="-20.75968740001571" lon="116.97017442553644"><ele>9.0</ele><time>2026-04-23T01:59:11Z</time></trkpt><trkpt lat="-20.759676429509437" lon="116.97039260533425"><ele>9.333333333333334</ele><time>2026-04-23T01:59:12Z</time></trkpt><trkpt lat="-20.759665428866136" lon="116.97061171534479"><ele>9.666666666666668</ele><time>2026-04-23T01:59:13Z</time></trkpt><trkpt lat="-20.759654439051307" lon="116.97083452535657"><ele>10.0</ele><time>2026-04-23T01:59:14Z</time></trkpt><trkpt lat="-20.759644120015565" lon="116.97105529975842"><ele>10.666666666666668</ele><time>2026-04-23T01:59:15Z</time></trkpt><trkpt lat="-20.759631256286866" lon="116.97127653642443"><ele>11.333333333333334</ele><time>2026-04-23T01:59:16Z</time></trkpt><trkpt lat="-20.759618736182386" lon="116.97149969825121"><ele>12.0</ele><time>2026-04-23T01:59:17Z</time></trkpt><trkpt lat="-20.759609328272532" lon="116.97172387607664"><ele>12.0</ele><time>2026-04-23T01:59:18Z</time></trkpt><trkpt lat="-20.75960043292006" lon="116.97193381767045"><ele>12.0</ele><time>2026-04-23T01:59:19Z</time></trkpt><trkpt lat="-20.759591975931894" lon="116.97213980977934"><ele>12.0</ele><time>2026-04-23T01:59:20Z</time></trkpt><trkpt lat="-20.75958457773184" lon="116.9723435118826"><ele>11.333333333333334</ele><time>2026-04-23T01:59:21Z</time></trkpt><trkpt lat="-20.75957554358325" lon="116.9725421310251"><ele>10.666666666666668</ele><time>2026-04-23T01:59:22Z</time></trkpt><trkpt lat="-20.759567499559697" lon="116.97273790727806"><ele>10.0</ele><time>2026-04-23T01:59:23Z</time></trkpt><trkpt lat="-20.759559669868167" lon="116.97293467215876"><ele>10.0</ele><time>2026-04-23T01:59:24Z</time></trkpt><trkpt lat="-20.759552150261264" lon="116.97313765607878"><ele>10.0</ele><time>2026-04-23T01:59:25Z</time></trkpt><trkpt lat="-20.759542035686724" lon="116.97335091214748"><ele>10.0</ele><time>2026-04-23T01:59:26Z</time></trkpt><trkpt lat="-20.7595331923407" lon="116.97356677665093"><ele>10.333333333333334</ele><time>2026-04-23T01:59:27Z</time></trkpt><trkpt lat="-20.75952642692531" lon="116.97377850324462"><ele>10.666666666666666</ele><time>2026-04-23T01:59:28Z</time></trkpt><trkpt lat="-20.75952066188502" lon="116.97398832937455"><ele>11.0</ele><time>2026-04-23T01:59:29Z</time></trkpt><trkpt lat="-20.759513122433624" lon="116.97418882176319"><ele>10.333333333333332</ele><time>2026-04-23T01:59:30Z</time></trkpt><trkpt lat="-20.7595056224228" lon="116.97439282531222"><ele>9.666666666666666</ele><time>2026-04-23T01:59:31.001Z</time></trkpt><trkpt lat="-20.759500629651864" lon="116.97459631284633"><ele>9.0</ele><time>2026-04-23T01:59:32.001Z</time></trkpt><trkpt lat="-20.759492463380266" lon="116.97479598712029"><ele>9.0</ele><time>2026-04-23T01:59:33.001Z</time></trkpt><trkpt lat="-20.75948359293165" lon="116.97498106310799"><ele>9.0</ele><time>2026-04-23T01:59:34.001Z</time></trkpt><trkpt lat="-20.75947376690058" lon="116.975149795963"><ele>9.0</ele><time>2026-04-23T01:59:35.001Z</time></trkpt><trkpt lat="-20.75946274214565" lon="116.97531487172256"><ele>9.25</ele><time>2026-04-23T01:59:36.001Z</time></trkpt><trkpt lat="-20.7594619992645" lon="116.9754625845495"><ele>9.5</ele><time>2026-04-23T01:59:37.001Z</time></trkpt><trkpt lat="-20.759473414142775" lon="116.97560974359317"><ele>9.75</ele><time>2026-04-23T01:59:38.001Z</time></trkpt><trkpt lat="-20.759481186212586" lon="116.9757623112728"><ele>10.0</ele><time>2026-04-23T01:59:39.001Z</time></trkpt><trkpt lat="-20.75947898008616" lon="116.97591447941325"><ele>10.0</ele><time>2026-04-23T01:59:40.001Z</time></trkpt><trkpt lat="-20.75946546561171" lon="116.97606706378228"><ele>10.0</ele><time>2026-04-23T01:59:41.001Z</time></trkpt><trkpt lat="-20.75945184537305" lon="116.97620995822263"><ele>10.0</ele><time>2026-04-23T01:59:42.001Z</time></trkpt><trkpt lat="-20.759432785349723" lon="116.97634799929075"><ele>10.0</ele><time>2026-04-23T01:59:43.001Z</time></trkpt><trkpt lat="-20.75941279669887" lon="116.97647448170613"><ele>10.0</ele><time>2026-04-23T01:59:44.001Z</time></trkpt><trkpt lat="-20.759386371202684" lon="116.97659910478377"><ele>10.0</ele><time>2026-04-23T01:59:45.001Z</time></trkpt><trkpt lat="-20.75935100336395" lon="116.97673025639637"><ele>10.0</ele><time>2026-04-23T01:59:46.001Z</time></trkpt><trkpt lat="-20.759308194837317" lon="116.97687410860206"><ele>10.0</ele><time>2026-04-23T01:59:47.001Z</time></trkpt><trkpt lat="-20.75927186676675" lon="116.97701268183178"><ele>9.6</ele><time>2026-04-23T01:59:48.001Z</time></trkpt><trkpt lat="-20.759245604445816" lon="116.97712974256916"><ele>9.2</ele><time>2026-04-23T01:59:49.001Z</time></trkpt><trkpt lat="-20.759226332725632" lon="116.97722190427129"><ele>8.8</ele><time>2026-04-23T01:59:50.001Z</time></trkpt><trkpt lat="-20.759203970411626" lon="116.9773112728992"><ele>8.4</ele><time>2026-04-23T01:59:51.001Z</time></trkpt><trkpt lat="-20.759178563486476" lon="116.97739906270081"><ele>8.0</ele><time>2026-04-23T01:59:52.001Z</time></trkpt><trkpt lat="-20.759146770037887" lon="116.97749558910076"><ele>7.6000000000000005</ele><time>2026-04-23T01:59:53.001Z</time></trkpt><trkpt lat="-20.75910970268177" lon="116.97758890858555"><ele>7.200000000000001</ele><time>2026-04-23T01:59:54.001Z</time></trkpt><trkpt lat="-20.75907290703115" lon="116.97768601357248"><ele>6.8</ele><time>2026-04-23T01:59:55.001Z</time></trkpt><trkpt lat="-20.759043209789738" lon="116.9777785818229"><ele>6.4</ele><time>2026-04-23T01:59:56.001Z</time></trkpt><trkpt lat="-20.759011854816517" lon="116.97787015117528"><ele>6.0</ele><time>2026-04-23T01:59:57.001Z</time></trkpt><trkpt lat="-20.758981036327423" lon="116.97795961810218"><ele>6.0</ele><time>2026-04-23T01:59:58.001Z</time></trkpt><trkpt lat="-20.758952019483377" lon="116.97805597338478"><ele>6.0</ele><time>2026-04-23T01:59:59.001Z</time></trkpt><trkpt lat="-20.75892814734481" lon="116.97816004445976"><ele>6.0</ele><time>2026-04-23T02:00:00.001Z</time></trkpt><trkpt lat="-20.758904869122524" lon="116.9782720433584"><ele>6.0</ele><time>2026-04-23T02:00:01.001Z</time></trkpt><trkpt lat="-20.758890541975628" lon="116.97838362249144"><ele>6.0</ele><time>2026-04-23T02:00:02.001Z</time></trkpt><trkpt lat="-20.758872987552884" lon="116.97848050973813"><ele>6.4</ele><time>2026-04-23T02:00:03.001Z</time></trkpt><trkpt lat="-20.758852751631846" lon="116.97857984999304"><ele>6.8</ele><time>2026-04-23T02:00:04.001Z</time></trkpt><trkpt lat="-20.758825780144083" lon="116.97868186832575"><ele>7.200000000000001</ele><time>2026-04-23T02:00:05.001Z</time></trkpt><trkpt lat="-20.758792720360567" lon="116.97877509157885"><ele>7.6000000000000005</ele><time>2026-04-23T02:00:06.001Z</time></trkpt><trkpt lat="-20.75876755608847" lon="116.97886386794913"><ele>8.0</ele><time>2026-04-23T02:00:07.001Z</time></trkpt><trkpt lat="-20.758747970301542" lon="116.97894300049761"><ele>7.999999999999999</ele><time>2026-04-23T02:00:08.001Z</time></trkpt><trkpt lat="-20.758735394904722" lon="116.97902814479411"><ele>8.0</ele><time>2026-04-23T02:00:09.001Z</time></trkpt><trkpt lat="-20.758721860627453" lon="116.97910147292791"><ele>8.0</ele><time>2026-04-23T02:00:10.001Z</time></trkpt><trkpt lat="-20.758706883706235" lon="116.97918440044737"><ele>8.0</ele><time>2026-04-23T02:00:11.001Z</time></trkpt><trkpt lat="-20.758700688860074" lon="116.97926646007384"><ele>7.999999999999999</ele><time>2026-04-23T02:00:12.001Z</time></trkpt><trkpt lat="-20.758682480268487" lon="116.97934868045056"><ele>8.0</ele><time>2026-04-23T02:00:13.001Z</time></trkpt><trkpt lat="-20.758652045247292" lon="116.97943362492607"><ele>8.0</ele><time>2026-04-23T02:00:14.001Z</time></trkpt><trkpt lat="-20.75861292901788" lon="116.97952493036891"><ele>8.0</ele><time>2026-04-23T02:00:15.001Z</time></trkpt><trkpt lat="-20.758580965386578" lon="116.97961123618131"><ele>8.0</ele><time>2026-04-23T02:00:16.001Z</time></trkpt><trkpt lat="-20.758554370390463" lon="116.97971641357864"><ele>8.0</ele><time>2026-04-23T02:00:17.001Z</time></trkpt><trkpt lat="-20.758526617021793" lon="116.9798287539397"><ele>8.0</ele><time>2026-04-23T02:00:18.001Z</time></trkpt><trkpt lat="-20.758499644883695" lon="116.97992806510203"><ele>8.25</ele><time>2026-04-23T02:00:19.001Z</time></trkpt><trkpt lat="-20.75848494410308" lon="116.98003887669539"><ele>8.5</ele><time>2026-04-23T02:00:20.001Z</time></trkpt><trkpt lat="-20.75847272197157" lon="116.9801628467815"><ele>8.75</ele><time>2026-04-23T02:00:21.001Z</time></trkpt><trkpt lat="-20.758452316184318" lon="116.98028746989921"><ele>9.0</ele><time>2026-04-23T02:00:22.001Z</time></trkpt><trkpt lat="-20.758421079036236" lon="116.98041846927731"><ele>9.0</ele><time>2026-04-23T02:00:23.001Z</time></trkpt><trkpt lat="-20.758384329451648" lon="116.98054973604538"><ele>9.0</ele><time>2026-04-23T02:00:24.001Z</time></trkpt><trkpt lat="-20.7583497422111" lon="116.98067919968412"><ele>9.0</ele><time>2026-04-23T02:00:25.001Z</time></trkpt><trkpt lat="-20.758306974024823" lon="116.98083635623352"><ele>9.0</ele><time>2026-04-23T02:00:26.001Z</time></trkpt><trkpt lat="-20.758265858082364" lon="116.98099542240182"><ele>9.0</ele><time>2026-04-23T02:00:27.001Z</time></trkpt><trkpt lat="-20.758229820301374" lon="116.98116746217569"><ele>9.0</ele><time>2026-04-23T02:00:28.001Z</time></trkpt><trkpt lat="-20.7581960362546" lon="116.98132899337205"><ele>9.0</ele><time>2026-04-23T02:00:29.001Z</time></trkpt><trkpt lat="-20.758156305583917" lon="116.98149843566273"><ele>9.0</ele><time>2026-04-23T02:00:30.001Z</time></trkpt><trkpt lat="-20.75811880821319" lon="116.98166369545804"><ele>9.0</ele><time>2026-04-23T02:00:31Z</time></trkpt><trkpt lat="-20.758083472198084" lon="116.98182012726238"><ele>9.0</ele><time>2026-04-23T02:00:32Z</time></trkpt><trkpt lat="-20.758049953452726" lon="116.98197457241656"><ele>9.666666666666666</ele><time>2026-04-23T02:00:33Z</time></trkpt><trkpt lat="-20.758013403042636" lon="116.98213035397792"><ele>10.333333333333332</ele><time>2026-04-23T02:00:34Z</time></trkpt><trkpt lat="-20.757973990013774" lon="116.9822917696752"><ele>11.0</ele><time>2026-04-23T02:00:35Z</time></trkpt><trkpt lat="-20.757933559559408" lon="116.98246345877402"><ele>10.333333333333332</ele><time>2026-04-23T02:00:36Z</time></trkpt><trkpt lat="-20.757887309383317" lon="116.9826559446683"><ele>9.666666666666666</ele><time>2026-04-23T02:00:37Z</time></trkpt><trkpt lat="-20.757841511184868" lon="116.98283593090446"><ele>9.0</ele><time>2026-04-23T02:00:38Z</time></trkpt><trkpt lat="-20.75780123328549" lon="116.98300512938329"><ele>9.0</ele><time>2026-04-23T02:00:39Z</time></trkpt><trkpt lat="-20.75775902991721" lon="116.98316898631148"><ele>9.0</ele><time>2026-04-23T02:00:40Z</time></trkpt><trkpt lat="-20.75771798725196" lon="116.98333417644558"><ele>9.0</ele><time>2026-04-23T02:00:41Z</time></trkpt><trkpt lat="-20.757672135878497" lon="116.98351304346424"><ele>8.666666666666666</ele><time>2026-04-23T02:00:42Z</time></trkpt><trkpt lat="-20.757624091058773" lon="116.98368530016957"><ele>8.333333333333332</ele><time>2026-04-23T02:00:43Z</time></trkpt><trkpt lat="-20.757575340318226" lon="116.9838553750867"><ele>8.0</ele><time>2026-04-23T02:00:44Z</time></trkpt><trkpt lat="-20.75752703138663" lon="116.98402901140267"><ele>8.333333333333332</ele><time>2026-04-23T02:00:45Z</time></trkpt><trkpt lat="-20.757478668897924" lon="116.98420953628758"><ele>8.666666666666666</ele><time>2026-04-23T02:00:46Z</time></trkpt><trkpt lat="-20.757431869831365" lon="116.98439192644445"><ele>9.0</ele><time>2026-04-23T02:00:47Z</time></trkpt><trkpt lat="-20.757386559091746" lon="116.98458267746835"><ele>9.0</ele><time>2026-04-23T02:00:48Z</time></trkpt><trkpt lat="-20.757343530668937" lon="116.98477263322609"><ele>9.0</ele><time>2026-04-23T02:00:49Z</time></trkpt><trkpt lat="-20.75729800324234" lon="116.98497108601008"><ele>9.0</ele><time>2026-04-23T02:00:50Z</time></trkpt><trkpt lat="-20.75724615001574" lon="116.98517319435463"><ele>9.0</ele><time>2026-04-23T02:00:51Z</time></trkpt><trkpt lat="-20.757200888567944" lon="116.98537097407939"><ele>9.0</ele><time>2026-04-23T02:00:52Z</time></trkpt><trkpt lat="-20.75715674306633" lon="116.98554823306482"><ele>9.0</ele><time>2026-04-23T02:00:53Z</time></trkpt><trkpt lat="-20.757113524189087" lon="116.98572831897745"><ele>9.0</ele><time>2026-04-23T02:00:54Z</time></trkpt><trkpt lat="-20.757068492991255" lon="116.98590956836829"><ele>9.0</ele><time>2026-04-23T02:00:55Z</time></trkpt><trkpt lat="-20.75702539729742" lon="116.98609453439336"><ele>9.0</ele><time>2026-04-23T02:00:56Z</time></trkpt><trkpt lat="-20.756981921233788" lon="116.98628160520468"><ele>9.0</ele><time>2026-04-23T02:00:57Z</time></trkpt><trkpt lat="-20.75693477888695" lon="116.98647396694366"><ele>9.0</ele><time>2026-04-23T02:00:58Z</time></trkpt><trkpt lat="-20.756884990617614" lon="116.98667324082798"><ele>9.0</ele><time>2026-04-23T02:00:59Z</time></trkpt><trkpt lat="-20.756833147269276" lon="116.98686596727194"><ele>9.0</ele><time>2026-04-23T02:01:00Z</time></trkpt><trkpt lat="-20.756782952664082" lon="116.98705747005617"><ele>9.0</ele><time>2026-04-23T02:01:01Z</time></trkpt><trkpt lat="-20.756732472025988" lon="116.98724573502385"><ele>9.0</ele><time>2026-04-23T02:01:02Z</time></trkpt><trkpt lat="-20.756685930028414" lon="116.98742937676099"><ele>8.666666666666666</ele><time>2026-04-23T02:01:03Z</time></trkpt><trkpt lat="-20.7566392102746" lon="116.98762058747003"><ele>8.333333333333332</ele><time>2026-04-23T02:01:04Z</time></trkpt><trkpt lat="-20.756594351518867" lon="116.98781205022841"><ele>8.0</ele><time>2026-04-23T02:01:05Z</time></trkpt><trkpt lat="-20.756547670696555" lon="116.98800024967326"><ele>8.0</ele><time>2026-04-23T02:01:06Z</time></trkpt><trkpt lat="-20.756503599461666" lon="116.98818663417495"><ele>8.0</ele><time>2026-04-23T02:01:07Z</time></trkpt><trkpt lat="-20.756462209610394" lon="116.9883709687989"><ele>8.0</ele><time>2026-04-23T02:01:08Z</time></trkpt><trkpt lat="-20.756424980338828" lon="116.98854322407394"><ele>9.0</ele><time>2026-04-23T02:01:09Z</time></trkpt><trkpt lat="-20.756386364601028" lon="116.98872159834237"><ele>10.0</ele><time>2026-04-23T02:01:10Z</time></trkpt><trkpt lat="-20.756343057441573" lon="116.98889013287517"><ele>11.0</ele><time>2026-04-23T02:01:11Z</time></trkpt><trkpt lat="-20.75629648566359" lon="116.98906290513246"><ele>11.0</ele><time>2026-04-23T02:01:12Z</time></trkpt><trkpt lat="-20.756241487083297" lon="116.98924607410534"><ele>11.0</ele><time>2026-04-23T02:01:13Z</time></trkpt><trkpt lat="-20.756192387297734" lon="116.98941722277641"><ele>11.0</ele><time>2026-04-23T02:01:14Z</time></trkpt><trkpt lat="-20.756145172735103" lon="116.9895998562201"><ele>11.0</ele><time>2026-04-23T02:01:15Z</time></trkpt><trkpt lat="-20.75610692201547" lon="116.98975340213327"><ele>11.0</ele><time>2026-04-23T02:01:16Z</time></trkpt><trkpt lat="-20.75607795531488" lon="116.98988551050735"><ele>11.0</ele><time>2026-04-23T02:01:17Z</time></trkpt><trkpt lat="-20.756049676398725" lon="116.99000704046226"><ele>11.0</ele><time>2026-04-23T02:01:18Z</time></trkpt><trkpt lat="-20.756024065058476" lon="116.99011973809162"><ele>11.200000000000001</ele><time>2026-04-23T02:01:19Z</time></trkpt><trkpt lat="-20.7559938878832" lon="116.99022438742219"><ele>11.4</ele><time>2026-04-23T02:01:20Z</time></trkpt><trkpt lat="-20.755970581158927" lon="116.99031808719197"><ele>11.6</ele><time>2026-04-23T02:01:21Z</time></trkpt><trkpt lat="-20.755953665211095" lon="116.9904081157569"><ele>11.8</ele><time>2026-04-23T02:01:22Z</time></trkpt><trkpt lat="-20.755936582992092" lon="116.9904925025894"><ele>12.0</ele><time>2026-04-23T02:01:23Z</time></trkpt><trkpt lat="-20.75590986482697" lon="116.99059768146665"><ele>12.0</ele><time>2026-04-23T02:01:25Z</time></trkpt><trkpt lat="-20.75586712821905" lon="116.99068315352214"><ele>12.0</ele><time>2026-04-23T02:01:28Z</time></trkpt><trkpt lat="-20.755824634025416" lon="116.99075365101189"><ele>12.0</ele><time>2026-04-23T02:01:30Z</time></trkpt><trkpt lat="-20.755774427725108" lon="116.99083241702144"><ele>12.0</ele><time>2026-04-23T02:01:32Z</time></trkpt><trkpt lat="-20.755752195659102" lon="116.99096278775326"><ele>12.0</ele><time>2026-04-23T02:01:34Z</time></trkpt><trkpt lat="-20.755743858799264" lon="116.99104591959916"><ele>11.833333333333334</ele><time>2026-04-23T02:01:35Z</time></trkpt><trkpt lat="-20.755713687966463" lon="116.99113977657359"><ele>11.666666666666666</ele><time>2026-04-23T02:01:36Z</time></trkpt><trkpt lat="-20.75569058759152" lon="116.99122682409497"><ele>11.5</ele><time>2026-04-23T02:01:37Z</time></trkpt><trkpt lat="-20.755669409324238" lon="116.99132000152305"><ele>11.333333333333332</ele><time>2026-04-23T02:01:38Z</time></trkpt><trkpt lat="-20.755669302524776" lon="116.99139513963974"><ele>11.166666666666666</ele><time>2026-04-23T02:01:39Z</time></trkpt><trkpt lat="-20.75567553674153" lon="116.9914872820752"><ele>11.0</ele><time>2026-04-23T02:01:40Z</time></trkpt><trkpt lat="-20.755667236727902" lon="116.99158815806372"><ele>11.5</ele><time>2026-04-23T02:01:41Z</time></trkpt><trkpt lat="-20.755643841176067" lon="116.99171007923937"><ele>12.0</ele><time>2026-04-23T02:01:42Z</time></trkpt><trkpt lat="-20.75560674355356" lon="116.99182630287383"><ele>12.5</ele><time>2026-04-23T02:01:43Z</time></trkpt><trkpt lat="-20.755556831694967" lon="116.99197045592422"><ele>13.0</ele><time>2026-04-23T02:01:44Z</time></trkpt><trkpt lat="-20.755512538314186" lon="116.99212589596445"><ele>13.0</ele><time>2026-04-23T02:01:45Z</time></trkpt><trkpt lat="-20.755472553730876" lon="116.99228677482596"><ele>13.0</ele><time>2026-04-23T02:01:46Z</time></trkpt><trkpt lat="-20.755437847344883" lon="116.99244235568374"><ele>13.0</ele><time>2026-04-23T02:01:47Z</time></trkpt><trkpt lat="-20.755408735807798" lon="116.9925874117681"><ele>13.0</ele><time>2026-04-23T02:01:48Z</time></trkpt><trkpt lat="-20.75537673635737" lon="116.99274083627743"><ele>12.333333333333332</ele><time>2026-04-23T02:01:49Z</time></trkpt><trkpt lat="-20.755342841483152" lon="116.99289980580092"><ele>11.666666666666666</ele><time>2026-04-23T02:01:50Z</time></trkpt><trkpt lat="-20.75530199463978" lon="116.99306659122983"><ele>11.0</ele><time>2026-04-23T02:01:51Z</time></trkpt><trkpt lat="-20.755260434196774" lon="116.9932380983269"><ele>11.666666666666666</ele><time>2026-04-23T02:01:52Z</time></trkpt><trkpt lat="-20.755213194499163" lon="116.99341360169524"><ele>12.333333333333332</ele><time>2026-04-23T02:01:53Z</time></trkpt><trkpt lat="-20.755166586472026" lon="116.99358123144938"><ele>13.0</ele><time>2026-04-23T02:01:54Z</time></trkpt><trkpt lat="-20.755122880438762" lon="116.99376561150021"><ele>13.0</ele><time>2026-04-23T02:01:55Z</time></trkpt><trkpt lat="-20.755077961936202" lon="116.99395724806935"><ele>13.0</ele><time>2026-04-23T02:01:56Z</time></trkpt><trkpt lat="-20.755031032374717" lon="116.99414859507262"><ele>13.0</ele><time>2026-04-23T02:01:57Z</time></trkpt><trkpt lat="-20.754988660728145" lon="116.99433951831956"><ele>12.666666666666666</ele><time>2026-04-23T02:01:58Z</time></trkpt><trkpt lat="-20.754944749932076" lon="116.99453159077618"><ele>12.333333333333332</ele><time>2026-04-23T02:01:59Z</time></trkpt><trkpt lat="-20.75490376410126" lon="116.99472393101823"><ele>12.0</ele><time>2026-04-23T02:02:00Z</time></trkpt><trkpt lat="-20.75487219672642" lon="116.99489769232869"><ele>12.0</ele><time>2026-04-23T02:02:01.001Z</time></trkpt><trkpt lat="-20.754826335441997" lon="116.99508830539853"><ele>12.0</ele><time>2026-04-23T02:02:02.001Z</time></trkpt><trkpt lat="-20.754778397362404" lon="116.99528299710722"><ele>12.0</ele><time>2026-04-23T02:02:03.001Z</time></trkpt><trkpt lat="-20.75472910269487" lon="116.9954749077076"><ele>12.0</ele><time>2026-04-23T02:02:04.001Z</time></trkpt><trkpt lat="-20.75468038975885" lon="116.99566941671213"><ele>12.0</ele><time>2026-04-23T02:02:05.001Z</time></trkpt><trkpt lat="-20.754630476406167" lon="116.99586508095719"><ele>12.0</ele><time>2026-04-23T02:02:06.001Z</time></trkpt><trkpt lat="-20.75458222353777" lon="116.99604725671983"><ele>12.333333333333332</ele><time>2026-04-23T02:02:07.001Z</time></trkpt><trkpt lat="-20.754539366523797" lon="116.99621409598753"><ele>12.666666666666666</ele><time>2026-04-23T02:02:08.001Z</time></trkpt><trkpt lat="-20.75449941669747" lon="116.9963688866893"><ele>13.0</ele><time>2026-04-23T02:02:09.001Z</time></trkpt><trkpt lat="-20.754461258801705" lon="116.99651182727115"><ele>13.0</ele><time>2026-04-23T02:02:10.001Z</time></trkpt><trkpt lat="-20.754427699343196" lon="116.99664578526932"><ele>13.0</ele><time>2026-04-23T02:02:11.001Z</time></trkpt><trkpt lat="-20.754390936303945" lon="116.9967787973012"><ele>13.0</ele><time>2026-04-23T02:02:12.001Z</time></trkpt><trkpt lat="-20.75436154112781" lon="116.99690432329686"><ele>13.0</ele><time>2026-04-23T02:02:13.001Z</time></trkpt><trkpt lat="-20.754326975401263" lon="116.99703047811303"><ele>12.5</ele><time>2026-04-23T02:02:14.001Z</time></trkpt><trkpt lat="-20.75428663900499" lon="116.99715689120804"><ele>12.0</ele><time>2026-04-23T02:02:15.001Z</time></trkpt><trkpt lat="-20.75424161663414" lon="116.99728400980003"><ele>11.5</ele><time>2026-04-23T02:02:16.001Z</time></trkpt><trkpt lat="-20.754195172113203" lon="116.9974144258865"><ele>11.0</ele><time>2026-04-23T02:02:17.001Z</time></trkpt><trkpt lat="-20.754150470568486" lon="116.99753751106023"><ele>12.0</ele><time>2026-04-23T02:02:18.001Z</time></trkpt><trkpt lat="-20.754091779116553" lon="116.99766904334889"><ele>13.0</ele><time>2026-04-23T02:02:19.001Z</time></trkpt><trkpt lat="-20.754051719648444" lon="116.99779581069022"><ele>14.0</ele><time>2026-04-23T02:02:20.001Z</time></trkpt><trkpt lat="-20.754012373207175" lon="116.99792991211943"><ele>15.0</ele><time>2026-04-23T02:02:21.001Z</time></trkpt><trkpt lat="-20.753984586402552" lon="116.9980529551485"><ele>15.0</ele><time>2026-04-23T02:02:22.001Z</time></trkpt><trkpt lat="-20.75396318349878" lon="116.99816759995366"><ele>15.0</ele><time>2026-04-23T02:02:23.001Z</time></trkpt><trkpt lat="-20.753961948417654" lon="116.99827024048986"><ele>15.0</ele><time>2026-04-23T02:02:24.001Z</time></trkpt><trkpt lat="-20.753979755564437" lon="116.99834442002198"><ele>15.0</ele><time>2026-04-23T02:02:25.001Z</time></trkpt><trkpt lat="-20.754006841531886" lon="116.99842588032021"><ele>15.0</ele><time>2026-04-23T02:02:26.001Z</time></trkpt><trkpt lat="-20.754013291519545" lon="116.99850664074607"><ele>15.0</ele><time>2026-04-23T02:02:27.001Z</time></trkpt><trkpt lat="-20.753999510417557" lon="116.9985904298516"><ele>14.6</ele><time>2026-04-23T02:02:28.001Z</time></trkpt><trkpt lat="-20.75397593145914" lon="116.99866943694308"><ele>14.2</ele><time>2026-04-23T02:02:29.001Z</time></trkpt><trkpt lat="-20.75393507822948" lon="116.99876615418006"><ele>13.8</ele><time>2026-04-23T02:02:30.001Z</time></trkpt><trkpt lat="-20.753895112836883" lon="116.9988692219296"><ele>13.4</ele><time>2026-04-23T02:02:31.001Z</time></trkpt><trkpt lat="-20.753852975681166" lon="116.99898100696805"><ele>13.0</ele><time>2026-04-23T02:02:32.001Z</time></trkpt><trkpt lat="-20.753809129311918" lon="116.999091127575"><ele>13.25</ele><time>2026-04-23T02:02:33.001Z</time></trkpt><trkpt lat="-20.753765925217056" lon="116.99920588869378"><ele>13.5</ele><time>2026-04-23T02:02:34.001Z</time></trkpt><trkpt lat="-20.753735396244878" lon="116.9993276774756"><ele>13.75</ele><time>2026-04-23T02:02:35.001Z</time></trkpt><trkpt lat="-20.753703845513343" lon="116.99945964009825"><ele>14.0</ele><time>2026-04-23T02:02:36.001Z</time></trkpt><trkpt lat="-20.753675133687324" lon="116.99960621730673"><ele>14.0</ele><time>2026-04-23T02:02:37Z</time></trkpt><trkpt lat="-20.753641582173497" lon="116.99975545234263"><ele>14.0</ele><time>2026-04-23T02:02:38Z</time></trkpt><trkpt lat="-20.753602772881237" lon="116.99990934485217"><ele>14.0</ele><time>2026-04-23T02:02:39Z</time></trkpt><trkpt lat="-20.75356748363232" lon="117.00006002093852"><ele>14.0</ele><time>2026-04-23T02:02:40Z</time></trkpt><trkpt lat="-20.753533838017535" lon="117.00021463988725"><ele>14.0</ele><time>2026-04-23T02:02:41Z</time></trkpt><trkpt lat="-20.753496287837407" lon="117.00037720071818"><ele>14.0</ele><time>2026-04-23T02:02:42Z</time></trkpt><trkpt lat="-20.753457562167984" lon="117.00054449009436"><ele>14.0</ele><time>2026-04-23T02:02:43Z</time></trkpt><trkpt lat="-20.753413090178807" lon="117.00071972155983"><ele>14.0</ele><time>2026-04-23T02:02:44Z</time></trkpt><trkpt lat="-20.753362514329325" lon="117.00088544151123"><ele>14.0</ele><time>2026-04-23T02:02:45Z</time></trkpt><trkpt lat="-20.753315419169503" lon="117.00105593996771"><ele>14.0</ele><time>2026-04-23T02:02:46Z</time></trkpt><trkpt lat="-20.75327278755749" lon="117.00121924808958"><ele>14.0</ele><time>2026-04-23T02:02:47Z</time></trkpt><trkpt lat="-20.753234695633466" lon="117.00137120290636"><ele>14.0</ele><time>2026-04-23T02:02:48Z</time></trkpt><trkpt lat="-20.753202313552162" lon="117.00150801657645"><ele>14.0</ele><time>2026-04-23T02:02:49Z</time></trkpt><trkpt lat="-20.7531699925827" lon="117.00163506759974"><ele>14.0</ele><time>2026-04-23T02:02:50Z</time></trkpt><trkpt lat="-20.753136583047336" lon="117.00174728106754"><ele>14.0</ele><time>2026-04-23T02:02:51Z</time></trkpt><trkpt lat="-20.753105602108153" lon="117.00183733920261"><ele>13.999999999999998</ele><time>2026-04-23T02:02:52Z</time></trkpt><trkpt lat="-20.75306294253458" lon="117.00191451046003"><ele>13.999999999999998</ele><time>2026-04-23T02:02:54Z</time></trkpt><trkpt lat="-20.75298974958351" lon="117.00196986462588"><ele>14.0</ele><time>2026-04-23T02:02:57Z</time></trkpt><trkpt lat="-20.752905767031436" lon="117.00205533946743"><ele>14.0</ele><time>2026-04-23T02:02:59Z</time></trkpt><trkpt lat="-20.75285063502463" lon="117.00212040034431"><ele>14.0</ele><time>2026-04-23T02:03:00Z</time></trkpt><trkpt lat="-20.752789552535297" lon="117.00219874448076"><ele>13.999999999999998</ele><time>2026-04-23T02:03:01Z</time></trkpt><trkpt lat="-20.75273764371281" lon="117.00228264739874"><ele>13.999999999999998</ele><time>2026-04-23T02:03:02Z</time></trkpt><trkpt lat="-20.75267969380006" lon="117.00237840337414"><ele>14.0</ele><time>2026-04-23T02:03:03Z</time></trkpt><trkpt lat="-20.752621286775955" lon="117.00246943159497"><ele>14.0</ele><time>2026-04-23T02:03:04Z</time></trkpt><trkpt lat="-20.752569453499145" lon="117.0025523191927"><ele>13.75</ele><time>2026-04-23T02:03:05Z</time></trkpt><trkpt lat="-20.752521392553877" lon="117.00263271631546"><ele>13.5</ele><time>2026-04-23T02:03:06Z</time></trkpt><trkpt lat="-20.752458715053308" lon="117.00271845960194"><ele>13.25</ele><time>2026-04-23T02:03:07Z</time></trkpt><trkpt lat="-20.752377542692575" lon="117.00283662814779"><ele>13.0</ele><time>2026-04-23T02:03:08Z</time></trkpt><trkpt lat="-20.752294237904454" lon="117.00295793711805"><ele>13.0</ele><time>2026-04-23T02:03:09Z</time></trkpt><trkpt lat="-20.7522053959879" lon="117.00308961358317"><ele>13.0</ele><time>2026-04-23T02:03:10Z</time></trkpt><trkpt lat="-20.752114194293085" lon="117.00322652714954"><ele>13.0</ele><time>2026-04-23T02:03:11Z</time></trkpt><trkpt lat="-20.7520251350314" lon="117.00336152349104"><ele>13.0</ele><time>2026-04-23T02:03:12Z</time></trkpt><trkpt lat="-20.751928174431356" lon="117.00350176528151"><ele>13.0</ele><time>2026-04-23T02:03:13Z</time></trkpt><trkpt lat="-20.75182708744351" lon="117.00365390525694"><ele>13.0</ele><time>2026-04-23T02:03:14Z</time></trkpt><trkpt lat="-20.75173135156523" lon="117.00380013896842"><ele>13.333333333333332</ele><time>2026-04-23T02:03:15Z</time></trkpt><trkpt lat="-20.75163870988216" lon="117.00395043204713"><ele>13.666666666666668</ele><time>2026-04-23T02:03:16Z</time></trkpt><trkpt lat="-20.751540885822948" lon="117.0041070849554"><ele>14.0</ele><time>2026-04-23T02:03:17Z</time></trkpt><trkpt lat="-20.751440245508462" lon="117.00426195218856"><ele>14.333333333333334</ele><time>2026-04-23T02:03:18Z</time></trkpt><trkpt lat="-20.751340544061566" lon="117.00441036591171"><ele>14.666666666666668</ele><time>2026-04-23T02:03:19Z</time></trkpt><trkpt lat="-20.751246557896785" lon="117.00455510955311"><ele>15.0</ele><time>2026-04-23T02:03:20Z</time></trkpt><trkpt lat="-20.75113573149684" lon="117.00471391803858"><ele>15.0</ele><time>2026-04-23T02:03:21Z</time></trkpt><trkpt lat="-20.75102865166333" lon="117.00486910577374"><ele>15.0</ele><time>2026-04-23T02:03:22Z</time></trkpt><trkpt lat="-20.75091541810396" lon="117.00503088585917"><ele>15.0</ele><time>2026-04-23T02:03:23Z</time></trkpt><trkpt lat="-20.750800990224842" lon="117.00519887690554"><ele>15.0</ele><time>2026-04-23T02:03:24Z</time></trkpt><trkpt lat="-20.750687093443627" lon="117.00536207118975"><ele>15.0</ele><time>2026-04-23T02:03:25Z</time></trkpt><trkpt lat="-20.750575007277526" lon="117.00552029764806"><ele>15.0</ele><time>2026-04-23T02:03:26Z</time></trkpt><trkpt lat="-20.750469700963308" lon="117.0056640712131"><ele>15.0</ele><time>2026-04-23T02:03:27Z</time></trkpt><trkpt lat="-20.75036863343885" lon="117.00580277748355"><ele>15.0</ele><time>2026-04-23T02:03:28Z</time></trkpt><trkpt lat="-20.750270181170354" lon="117.00593967102317"><ele>15.0</ele><time>2026-04-23T02:03:29Z</time></trkpt><trkpt lat="-20.750174309419595" lon="117.00608148730892"><ele>14.666666666666668</ele><time>2026-04-23T02:03:30Z</time></trkpt><trkpt lat="-20.750073725794532" lon="117.00623717409724"><ele>14.333333333333334</ele><time>2026-04-23T02:03:31Z</time></trkpt><trkpt lat="-20.74998086060372" lon="117.00639420028794"><ele>14.0</ele><time>2026-04-23T02:03:32Z</time></trkpt><trkpt lat="-20.749885111506003" lon="117.00655629119751"><ele>13.666666666666668</ele><time>2026-04-23T02:03:33Z</time></trkpt><trkpt lat="-20.749787553329345" lon="117.00671605792287"><ele>13.333333333333332</ele><time>2026-04-23T02:03:34Z</time></trkpt><trkpt lat="-20.749690852852673" lon="117.00686853438914"><ele>13.0</ele><time>2026-04-23T02:03:35Z</time></trkpt><trkpt lat="-20.74959113911032" lon="117.00701893154736"><ele>13.0</ele><time>2026-04-23T02:03:36Z</time></trkpt><trkpt lat="-20.749490333259093" lon="117.0071718726564"><ele>13.0</ele><time>2026-04-23T02:03:37Z</time></trkpt><trkpt lat="-20.74939198372543" lon="117.00732237713162"><ele>13.0</ele><time>2026-04-23T02:03:38Z</time></trkpt><trkpt lat="-20.749301384148634" lon="117.00746595454015"><ele>12.666666666666666</ele><time>2026-04-23T02:03:39Z</time></trkpt><trkpt lat="-20.749211994602348" lon="117.00760633178075"><ele>12.333333333333332</ele><time>2026-04-23T02:03:40Z</time></trkpt><trkpt lat="-20.749116018523143" lon="117.0077510329791"><ele>12.0</ele><time>2026-04-23T02:03:41Z</time></trkpt><trkpt lat="-20.749011002117413" lon="117.00789596937032"><ele>12.0</ele><time>2026-04-23T02:03:42Z</time></trkpt><trkpt lat="-20.748899201551378" lon="117.0080503946886"><ele>12.0</ele><time>2026-04-23T02:03:43Z</time></trkpt><trkpt lat="-20.748791613164432" lon="117.00820458634482"><ele>12.0</ele><time>2026-04-23T02:03:44Z</time></trkpt><trkpt lat="-20.748675777919754" lon="117.00837287113696"><ele>12.333333333333332</ele><time>2026-04-23T02:03:45Z</time></trkpt><trkpt lat="-20.748560511264486" lon="117.00854323037294"><ele>12.666666666666666</ele><time>2026-04-23T02:03:46Z</time></trkpt><trkpt lat="-20.748447880912426" lon="117.00871367055593"><ele>13.0</ele><time>2026-04-23T02:03:47Z</time></trkpt><trkpt lat="-20.748336019862602" lon="117.00888221423932"><ele>13.333333333333332</ele><time>2026-04-23T02:03:48Z</time></trkpt><trkpt lat="-20.74822567053478" lon="117.00905331902491"><ele>13.666666666666668</ele><time>2026-04-23T02:03:49Z</time></trkpt><trkpt lat="-20.748111461948213" lon="117.00922388578982"><ele>14.0</ele><time>2026-04-23T02:03:50Z</time></trkpt><trkpt lat="-20.748000103290927" lon="117.0093840567231"><ele>14.0</ele><time>2026-04-23T02:03:51Z</time></trkpt><trkpt lat="-20.747894917928384" lon="117.00953762398044"><ele>14.0</ele><time>2026-04-23T02:03:52Z</time></trkpt><trkpt lat="-20.747793272726515" lon="117.00969241526536"><ele>14.0</ele><time>2026-04-23T02:03:53Z</time></trkpt><trkpt lat="-20.74767260857219" lon="117.00986721915552"><ele>14.666666666666668</ele><time>2026-04-23T02:03:54Z</time></trkpt><trkpt lat="-20.747553041323176" lon="117.01003611324577"><ele>15.333333333333332</ele><time>2026-04-23T02:03:55Z</time></trkpt><trkpt lat="-20.747438124028246" lon="117.01019834138941"><ele>16.0</ele><time>2026-04-23T02:03:56Z</time></trkpt><trkpt lat="-20.74732193082289" lon="117.01035902220747"><ele>16.0</ele><time>2026-04-23T02:03:57Z</time></trkpt><trkpt lat="-20.74720214791248" lon="117.01052764230973"><ele>16.0</ele><time>2026-04-23T02:03:58Z</time></trkpt><trkpt lat="-20.747090962751845" lon="117.01068403716062"><ele>16.0</ele><time>2026-04-23T02:03:59Z</time></trkpt><trkpt lat="-20.74698637209556" lon="117.01083144022813"><ele>15.333333333333332</ele><time>2026-04-23T02:04:00Z</time></trkpt><trkpt lat="-20.74689134208363" lon="117.01096629177874"><ele>14.666666666666668</ele><time>2026-04-23T02:04:01Z</time></trkpt><trkpt lat="-20.74679951577824" lon="117.01109769038935"><ele>14.0</ele><time>2026-04-23T02:04:02Z</time></trkpt><trkpt lat="-20.74671520296881" lon="117.01122377425041"><ele>14.0</ele><time>2026-04-23T02:04:03Z</time></trkpt><trkpt lat="-20.746639172007388" lon="117.0113571140025"><ele>14.0</ele><time>2026-04-23T02:04:04Z</time></trkpt><trkpt lat="-20.746579042937878" lon="117.01149150837364"><ele>14.0</ele><time>2026-04-23T02:04:05Z</time></trkpt><trkpt lat="-20.74653007621563" lon="117.0116392350008"><ele>14.0</ele><time>2026-04-23T02:04:06Z</time></trkpt><trkpt lat="-20.746487599745738" lon="117.01179448748935"><ele>14.25</ele><time>2026-04-23T02:04:07Z</time></trkpt><trkpt lat="-20.746447351905346" lon="117.01195317163658"><ele>14.5</ele><time>2026-04-23T02:04:08Z</time></trkpt><trkpt lat="-20.746423829522403" lon="117.01210224167667"><ele>14.75</ele><time>2026-04-23T02:04:09Z</time></trkpt><trkpt lat="-20.746413336088875" lon="117.01225453527107"><ele>15.0</ele><time>2026-04-23T02:04:10Z</time></trkpt><trkpt lat="-20.746403690211714" lon="117.01241594599152"><ele>15.0</ele><time>2026-04-23T02:04:11Z</time></trkpt><trkpt lat="-20.74638427454712" lon="117.01258779859934"><ele>15.0</ele><time>2026-04-23T02:04:12Z</time></trkpt><trkpt lat="-20.746347395947776" lon="117.01277274572291"><ele>15.0</ele><time>2026-04-23T02:04:13Z</time></trkpt><trkpt lat="-20.74630121219725" lon="117.01297287237693"><ele>15.0</ele><time>2026-04-23T02:04:14Z</time></trkpt><trkpt lat="-20.746248726866526" lon="117.01318068853448"><ele>15.0</ele><time>2026-04-23T02:04:15Z</time></trkpt><trkpt lat="-20.746197883170126" lon="117.01337460729812"><ele>15.0</ele><time>2026-04-23T02:04:16Z</time></trkpt><trkpt lat="-20.746150828893356" lon="117.01355960286226"><ele>14.666666666666668</ele><time>2026-04-23T02:04:17Z</time></trkpt><trkpt lat="-20.74610839725043" lon="117.01373073976299"><ele>14.333333333333334</ele><time>2026-04-23T02:04:18Z</time></trkpt><trkpt lat="-20.746067943646395" lon="117.01388764433041"><ele>14.0</ele><time>2026-04-23T02:04:19Z</time></trkpt><trkpt lat="-20.746031572857927" lon="117.01403721161432"><ele>14.0</ele><time>2026-04-23T02:04:20Z</time></trkpt><trkpt lat="-20.74599649404877" lon="117.01418488693284"><ele>14.0</ele><time>2026-04-23T02:04:21Z</time></trkpt><trkpt lat="-20.74595658046104" lon="117.01433900276714"><ele>14.0</ele><time>2026-04-23T02:04:22Z</time></trkpt><trkpt lat="-20.745916896468596" lon="117.01449025148861"><ele>14.0</ele><time>2026-04-23T02:04:23.001Z</time></trkpt><trkpt lat="-20.745882721671382" lon="117.01462744125946"><ele>14.0</ele><time>2026-04-23T02:04:24.001Z</time></trkpt><trkpt lat="-20.745852804613893" lon="117.01475318085541"><ele>13.999999999999998</ele><time>2026-04-23T02:04:25.001Z</time></trkpt><trkpt lat="-20.745820736104275" lon="117.01487123698664"><ele>13.999999999999998</ele><time>2026-04-23T02:04:26.001Z</time></trkpt><trkpt lat="-20.745794539121412" lon="117.0149763141768"><ele>14.0</ele><time>2026-04-23T02:04:27.001Z</time></trkpt><trkpt lat="-20.745771961986254" lon="117.01507032184264"><ele>14.0</ele><time>2026-04-23T02:04:28.001Z</time></trkpt><trkpt lat="-20.745750199630812" lon="117.01515316852299"><ele>14.0</ele><time>2026-04-23T02:04:29.001Z</time></trkpt><trkpt lat="-20.745714944438376" lon="117.0152479471799"><ele>13.999999999999998</ele><time>2026-04-23T02:04:30.001Z</time></trkpt><trkpt lat="-20.74566974168082" lon="117.0153173744164"><ele>13.999999999999998</ele><time>2026-04-23T02:04:31.001Z</time></trkpt><trkpt lat="-20.745603977847768" lon="117.015389706836"><ele>14.0</ele><time>2026-04-23T02:04:32.001Z</time></trkpt><trkpt lat="-20.745520561847307" lon="117.01545787295186"><ele>14.0</ele><time>2026-04-23T02:04:33.001Z</time></trkpt><trkpt lat="-20.745432971728437" lon="117.01552417953421"><ele>14.0</ele><time>2026-04-23T02:04:34.001Z</time></trkpt><trkpt lat="-20.745310467806227" lon="117.01561243904008"><ele>14.0</ele><time>2026-04-23T02:04:35.001Z</time></trkpt><trkpt lat="-20.745185202093477" lon="117.01570815670158"><ele>14.0</ele><time>2026-04-23T02:04:36.001Z</time></trkpt><trkpt lat="-20.745063845868067" lon="117.01580185297425"><ele>14.0</ele><time>2026-04-23T02:04:37.001Z</time></trkpt><trkpt lat="-20.74495374281792" lon="117.01588548568051"><ele>14.0</ele><time>2026-04-23T02:04:38.001Z</time></trkpt><trkpt lat="-20.744843691044423" lon="117.01596186876638"><ele>14.0</ele><time>2026-04-23T02:04:39.001Z</time></trkpt><trkpt lat="-20.744733549644767" lon="117.01605175343477"><ele>14.0</ele><time>2026-04-23T02:04:40.001Z</time></trkpt><trkpt lat="-20.744616491005445" lon="117.01614514901445"><ele>14.0</ele><time>2026-04-23T02:04:41.001Z</time></trkpt><trkpt lat="-20.744500647160365" lon="117.01623949121118"><ele>14.0</ele><time>2026-04-23T02:04:42.001Z</time></trkpt><trkpt lat="-20.744385693894262" lon="117.01632911674677"><ele>14.0</ele><time>2026-04-23T02:04:42.999Z</time></trkpt><trkpt lat="-20.74426029075624" lon="117.01642229619134"><ele>14.0</ele><time>2026-04-23T02:04:43.999Z</time></trkpt><trkpt lat="-20.744121391760093" lon="117.01652711948064"><ele>14.0</ele><time>2026-04-23T02:04:44.999Z</time></trkpt><trkpt lat="-20.74397747173625" lon="117.01663788911004"><ele>14.0</ele><time>2026-04-23T02:04:45.999Z</time></trkpt><trkpt lat="-20.74383081170303" lon="117.01675111012828"><ele>14.0</ele><time>2026-04-23T02:04:46.999Z</time></trkpt><trkpt lat="-20.74369001884488" lon="117.01686132241822"><ele>14.0</ele><time>2026-04-23T02:04:47.999Z</time></trkpt><trkpt lat="-20.74356380819401" lon="117.0169607973091"><ele>14.0</ele><time>2026-04-23T02:04:48.999Z</time></trkpt><trkpt lat="-20.74344194409835" lon="117.01705951998619"><ele>14.0</ele><time>2026-04-23T02:04:49.999Z</time></trkpt><trkpt lat="-20.743335518420107" lon="117.01714049363811"><ele>14.0</ele><time>2026-04-23T02:04:50.999Z</time></trkpt><trkpt lat="-20.743228124221815" lon="117.01721431277193"><ele>14.0</ele><time>2026-04-23T02:04:51.999Z</time></trkpt><trkpt lat="-20.74311954789802" lon="117.01727791260966"><ele>14.0</ele><time>2026-04-23T02:04:52.999Z</time></trkpt><trkpt lat="-20.743009111917637" lon="117.01734096873595"><ele>14.0</ele><time>2026-04-23T02:04:53.999Z</time></trkpt><trkpt lat="-20.742912167612875" lon="117.01741582012147"><ele>14.0</ele><time>2026-04-23T02:04:54.999Z</time></trkpt><trkpt lat="-20.742815755929733" lon="117.01750257840934"><ele>13.25</ele><time>2026-04-23T02:04:55.999Z</time></trkpt><trkpt lat="-20.742710458161657" lon="117.01759575660812"><ele>12.5</ele><time>2026-04-23T02:04:56.999Z</time></trkpt><trkpt lat="-20.74261292443642" lon="117.01767045868397"><ele>11.75</ele><time>2026-04-23T02:04:57.999Z</time></trkpt><trkpt lat="-20.742512481337794" lon="117.0177427331335"><ele>11.0</ele><time>2026-04-23T02:04:59Z</time></trkpt><trkpt lat="-20.742414709065212" lon="117.01781937781631"><ele>11.0</ele><time>2026-04-23T02:05:00Z</time></trkpt><trkpt lat="-20.742318907101797" lon="117.01789988353762"><ele>11.0</ele><time>2026-04-23T02:05:01Z</time></trkpt><trkpt lat="-20.74222528354467" lon="117.01797348643602"><ele>11.0</ele><time>2026-04-23T02:05:02Z</time></trkpt><trkpt lat="-20.742134845363942" lon="117.0180497122186"><ele>11.0</ele><time>2026-04-23T02:05:03Z</time></trkpt><trkpt lat="-20.74204057968681" lon="117.01812584819683"><ele>11.0</ele><time>2026-04-23T02:05:04Z</time></trkpt><trkpt lat="-20.74195036956788" lon="117.01819480645642"><ele>11.0</ele><time>2026-04-23T02:05:05Z</time></trkpt><trkpt lat="-20.741872011597167" lon="117.01825209002907"><ele>11.0</ele><time>2026-04-23T02:05:06Z</time></trkpt><trkpt lat="-20.741807107360188" lon="117.01830543920573"><ele>11.0</ele><time>2026-04-23T02:05:07Z</time></trkpt><trkpt lat="-20.741750647851607" lon="117.01835604885653"><ele>11.0</ele><time>2026-04-23T02:05:08Z</time></trkpt><trkpt lat="-20.741672141505568" lon="117.01841976460672"><ele>11.0</ele><time>2026-04-23T02:05:09Z</time></trkpt><trkpt lat="-20.74158842871228" lon="117.01849490056222"><ele>11.0</ele><time>2026-04-23T02:05:10Z</time></trkpt><trkpt lat="-20.74150976922278" lon="117.01857473707206"><ele>11.0</ele><time>2026-04-23T02:05:11Z</time></trkpt><trkpt lat="-20.741433954318403" lon="117.01865084086946"><ele>11.0</ele><time>2026-04-23T02:05:12Z</time></trkpt><trkpt lat="-20.74135745515662" lon="117.01872532377479"><ele>11.0</ele><time>2026-04-23T02:05:13Z</time></trkpt><trkpt lat="-20.741271970828542" lon="117.01880224327668"><ele>11.0</ele><time>2026-04-23T02:05:14Z</time></trkpt><trkpt lat="-20.741180985145846" lon="117.0188760920917"><ele>11.0</ele><time>2026-04-23T02:05:15Z</time></trkpt><trkpt lat="-20.741095337191314" lon="117.01893895334727"><ele>11.0</ele><time>2026-04-23T02:05:16Z</time></trkpt><trkpt lat="-20.74100935098266" lon="117.01898002211827"><ele>11.0</ele><time>2026-04-23T02:05:17Z</time></trkpt><trkpt lat="-20.74091634624369" lon="117.01901130033525"><ele>11.0</ele><time>2026-04-23T02:05:18Z</time></trkpt><trkpt lat="-20.740823251123448" lon="117.01903100801755"><ele>10.75</ele><time>2026-04-23T02:05:19Z</time></trkpt><trkpt lat="-20.74069838453457" lon="117.01903942385185"><ele>10.5</ele><time>2026-04-23T02:05:20Z</time></trkpt><trkpt lat="-20.740567625777377" lon="117.01903230311044"><ele>10.25</ele><time>2026-04-23T02:05:21Z</time></trkpt><trkpt lat="-20.740449111236757" lon="117.01902737571584"><ele>10.0</ele><time>2026-04-23T02:05:22Z</time></trkpt><trkpt lat="-20.740347346034856" lon="117.01902330267251"><ele>10.0</ele><time>2026-04-23T02:05:23Z</time></trkpt><trkpt lat="-20.740248344734994" lon="117.01901187305552"><ele>10.0</ele><time>2026-04-23T02:05:24Z</time></trkpt><trkpt lat="-20.74014658880445" lon="117.01899709590737"><ele>10.0</ele><time>2026-04-23T02:05:25Z</time></trkpt><trkpt lat="-20.74004400706385" lon="117.0189793044842"><ele>10.0</ele><time>2026-04-23T02:05:26Z</time></trkpt><trkpt lat="-20.739934756914746" lon="117.01897296778913"><ele>10.0</ele><time>2026-04-23T02:05:27Z</time></trkpt><trkpt lat="-20.739828104600264" lon="117.01897002755673"><ele>10.2</ele><time>2026-04-23T02:05:28Z</time></trkpt><trkpt lat="-20.739730245795702" lon="117.01897308861555"><ele>10.4</ele><time>2026-04-23T02:05:29Z</time></trkpt><trkpt lat="-20.739622965049" lon="117.01897396698982"><ele>10.600000000000001</ele><time>2026-04-23T02:05:30Z</time></trkpt><trkpt lat="-20.739514530509805" lon="117.01897119725925"><ele>10.8</ele><time>2026-04-23T02:05:31Z</time></trkpt><trkpt lat="-20.73940311551648" lon="117.01896852629741"><ele>11.0</ele><time>2026-04-23T02:05:32Z</time></trkpt><trkpt lat="-20.7393090163586" lon="117.01896401062102"><ele>11.200000000000001</ele><time>2026-04-23T02:05:33Z</time></trkpt><trkpt lat="-20.739214059003416" lon="117.01895710114204"><ele>11.4</ele><time>2026-04-23T02:05:34Z</time></trkpt><trkpt lat="-20.73911350398943" lon="117.0189599892539"><ele>11.6</ele><time>2026-04-23T02:05:35Z</time></trkpt><trkpt lat="-20.739009167873267" lon="117.01895942579954"><ele>11.8</ele><time>2026-04-23T02:05:36Z</time></trkpt><trkpt lat="-20.73891760179984" lon="117.01896671611782"><ele>12.0</ele><time>2026-04-23T02:05:37Z</time></trkpt><trkpt lat="-20.73881103085578" lon="117.01897093482476"><ele>12.0</ele><time>2026-04-23T02:05:38Z</time></trkpt><trkpt lat="-20.738714213767828" lon="117.01898299746392"><ele>12.0</ele><time>2026-04-23T02:05:39Z</time></trkpt><trkpt lat="-20.73861859483055" lon="117.0189912506466"><ele>12.0</ele><time>2026-04-23T02:05:40Z</time></trkpt><trkpt lat="-20.738511979406592" lon="117.01899790451134"><ele>12.0</ele><time>2026-04-23T02:05:41Z</time></trkpt><trkpt lat="-20.738400818738594" lon="117.01899589839081"><ele>12.0</ele><time>2026-04-23T02:05:42Z</time></trkpt><trkpt lat="-20.738276231674938" lon="117.0189941864449"><ele>12.75</ele><time>2026-04-23T02:05:43Z</time></trkpt><trkpt lat="-20.738146974660033" lon="117.0189856961126"><ele>13.5</ele><time>2026-04-23T02:05:44Z</time></trkpt><trkpt lat="-20.738018513130296" lon="117.0189796242124"><ele>14.25</ele><time>2026-04-23T02:05:45Z</time></trkpt><trkpt lat="-20.73789526823136" lon="117.01897633290514"><ele>15.0</ele><time>2026-04-23T02:05:46Z</time></trkpt><trkpt lat="-20.737764504229123" lon="117.01898399010636"><ele>15.25</ele><time>2026-04-23T02:05:47Z</time></trkpt><trkpt lat="-20.737619258226278" lon="117.01899655066704"><ele>15.5</ele><time>2026-04-23T02:05:48Z</time></trkpt><trkpt lat="-20.7374679377242" lon="117.01900762455368"><ele>15.75</ele><time>2026-04-23T02:05:49Z</time></trkpt><trkpt lat="-20.737328231636894" lon="117.01900762346901"><ele>16.0</ele><time>2026-04-23T02:05:50Z</time></trkpt><trkpt lat="-20.73718428528286" lon="117.01900803693165"><ele>16.0</ele><time>2026-04-23T02:05:51Z</time></trkpt><trkpt lat="-20.73703051847372" lon="117.0190091363088"><ele>16.0</ele><time>2026-04-23T02:05:52Z</time></trkpt><trkpt lat="-20.736888524118406" lon="117.01901105481834"><ele>16.0</ele><time>2026-04-23T02:05:53Z</time></trkpt><trkpt lat="-20.73674104875333" lon="117.019012190434"><ele>16.0</ele><time>2026-04-23T02:05:54Z</time></trkpt><trkpt lat="-20.736595553979434" lon="117.01900941845385"><ele>16.333333333333332</ele><time>2026-04-23T02:05:55Z</time></trkpt><trkpt lat="-20.736440211792427" lon="117.01900297282359"><ele>16.666666666666668</ele><time>2026-04-23T02:05:56Z</time></trkpt><trkpt lat="-20.73628371629313" lon="117.01900413813574"><ele>17.0</ele><time>2026-04-23T02:05:57Z</time></trkpt><trkpt lat="-20.736117909028486" lon="117.01901185477865"><ele>17.0</ele><time>2026-04-23T02:05:58Z</time></trkpt><trkpt lat="-20.73595989904425" lon="117.01901990509191"><ele>17.0</ele><time>2026-04-23T02:05:59Z</time></trkpt><trkpt lat="-20.73579832204734" lon="117.01901781185593"><ele>17.0</ele><time>2026-04-23T02:06:00Z</time></trkpt><trkpt lat="-20.735637041437812" lon="117.0190152499953"><ele>17.0</ele><time>2026-04-23T02:06:01Z</time></trkpt><trkpt lat="-20.7354742614217" lon="117.01901469004441"><ele>17.0</ele><time>2026-04-23T02:06:02Z</time></trkpt><trkpt lat="-20.7353224878006" lon="117.01901618441653"><ele>17.0</ele><time>2026-04-23T02:06:03Z</time></trkpt><trkpt lat="-20.735168441600138" lon="117.01901518384965"><ele>18.0</ele><time>2026-04-23T02:06:04Z</time></trkpt><trkpt lat="-20.735004359796438" lon="117.01901591159923"><ele>19.0</ele><time>2026-04-23T02:06:05Z</time></trkpt><trkpt lat="-20.734848408198516" lon="117.01901604113152"><ele>20.0</ele><time>2026-04-23T02:06:06Z</time></trkpt><trkpt lat="-20.734694891151953" lon="117.01901422789174"><ele>20.0</ele><time>2026-04-23T02:06:07Z</time></trkpt><trkpt lat="-20.734532530506293" lon="117.01901271790365"><ele>20.0</ele><time>2026-04-23T02:06:08Z</time></trkpt><trkpt lat="-20.73438115120301" lon="117.01901085501953"><ele>20.0</ele><time>2026-04-23T02:06:09Z</time></trkpt><trkpt lat="-20.734228291747804" lon="117.01901444513209"><ele>20.75</ele><time>2026-04-23T02:06:10Z</time></trkpt><trkpt lat="-20.73408137258807" lon="117.01901384698783"><ele>21.5</ele><time>2026-04-23T02:06:11Z</time></trkpt><trkpt lat="-20.73393479707528" lon="117.019014023814"><ele>22.25</ele><time>2026-04-23T02:06:12Z</time></trkpt><trkpt lat="-20.733801168030524" lon="117.01902662361832"><ele>23.0</ele><time>2026-04-23T02:06:13Z</time></trkpt><trkpt lat="-20.733677260021196" lon="117.01903353169163"><ele>23.0</ele><time>2026-04-23T02:06:14Z</time></trkpt><trkpt lat="-20.733567162544023" lon="117.01905084809599"><ele>23.0</ele><time>2026-04-23T02:06:15Z</time></trkpt><trkpt lat="-20.733467257630434" lon="117.01907507901183"><ele>23.0</ele><time>2026-04-23T02:06:16Z</time></trkpt><trkpt lat="-20.733354803662902" lon="117.01910891822838"><ele>23.0</ele><time>2026-04-23T02:06:17Z</time></trkpt><trkpt lat="-20.733228298787058" lon="117.01914912804355"><ele>22.0</ele><time>2026-04-23T02:06:18Z</time></trkpt><trkpt lat="-20.733086396513404" lon="117.01920588443278"><ele>21.0</ele><time>2026-04-23T02:06:19Z</time></trkpt><trkpt lat="-20.732949901916122" lon="117.01926315950584"><ele>20.0</ele><time>2026-04-23T02:06:20Z</time></trkpt><trkpt lat="-20.73279107415778" lon="117.01932341940302"><ele>20.333333333333336</ele><time>2026-04-23T02:06:21Z</time></trkpt><trkpt lat="-20.732630121053898" lon="117.01938580007824"><ele>20.666666666666668</ele><time>2026-04-23T02:06:22Z</time></trkpt><trkpt lat="-20.732468346551272" lon="117.01945010286266"><ele>21.0</ele><time>2026-04-23T02:06:23Z</time></trkpt><trkpt lat="-20.732302122195403" lon="117.01951496064709"><ele>21.0</ele><time>2026-04-23T02:06:24Z</time></trkpt><trkpt lat="-20.73211862691586" lon="117.01958407779004"><ele>21.0</ele><time>2026-04-23T02:06:25Z</time></trkpt><trkpt lat="-20.731930868250615" lon="117.01965427864657"><ele>21.0</ele><time>2026-04-23T02:06:26Z</time></trkpt><trkpt lat="-20.731741945913733" lon="117.01972647249387"><ele>21.0</ele><time>2026-04-23T02:06:27Z</time></trkpt><trkpt lat="-20.731539130455623" lon="117.01980610787429"><ele>21.0</ele><time>2026-04-23T02:06:28Z</time></trkpt><trkpt lat="-20.731349507136205" lon="117.01987890899561"><ele>21.0</ele><time>2026-04-23T02:06:29Z</time></trkpt><trkpt lat="-20.731165626269682" lon="117.01994923563898"><ele>21.0</ele><time>2026-04-23T02:06:30Z</time></trkpt><trkpt lat="-20.73099436767794" lon="117.02001851486831"><ele>21.0</ele><time>2026-04-23T02:06:31Z</time></trkpt><trkpt lat="-20.730826742088187" lon="117.02008281365693"><ele>21.0</ele><time>2026-04-23T02:06:32Z</time></trkpt><trkpt lat="-20.73065473594201" lon="117.02014443933346"><ele>21.0</ele><time>2026-04-23T02:06:33Z</time></trkpt><trkpt lat="-20.73049324377993" lon="117.02020781482501"><ele>21.0</ele><time>2026-04-23T02:06:34Z</time></trkpt><trkpt lat="-20.73033195714809" lon="117.02027462924943"><ele>21.0</ele><time>2026-04-23T02:06:35Z</time></trkpt><trkpt lat="-20.73017341968579" lon="117.020341183379"><ele>20.333333333333332</ele><time>2026-04-23T02:06:36Z</time></trkpt><trkpt lat="-20.729999134796515" lon="117.02040992256036"><ele>19.666666666666664</ele><time>2026-04-23T02:06:37Z</time></trkpt><trkpt lat="-20.729825737123907" lon="117.02047921218768"><ele>19.0</ele><time>2026-04-23T02:06:38Z</time></trkpt><trkpt lat="-20.72966670172005" lon="117.02053885454434"><ele>19.0</ele><time>2026-04-23T02:06:39Z</time></trkpt><trkpt lat="-20.729519092548966" lon="117.02059387436782"><ele>19.0</ele><time>2026-04-23T02:06:40Z</time></trkpt><trkpt lat="-20.729376272016008" lon="117.02064424807018"><ele>19.0</ele><time>2026-04-23T02:06:41Z</time></trkpt><trkpt lat="-20.72924866420038" lon="117.02068862633332"><ele>19.0</ele><time>2026-04-23T02:06:42.001Z</time></trkpt><trkpt lat="-20.729129270534372" lon="117.02073315200636"><ele>19.2</ele><time>2026-04-23T02:06:43.001Z</time></trkpt><trkpt lat="-20.729018152397096" lon="117.02077596010075"><ele>19.4</ele><time>2026-04-23T02:06:44.001Z</time></trkpt><trkpt lat="-20.7289157291924" lon="117.02082126907328"><ele>19.6</ele><time>2026-04-23T02:06:45.001Z</time></trkpt><trkpt lat="-20.728818761312038" lon="117.02086184282668"><ele>19.8</ele><time>2026-04-23T02:06:46.001Z</time></trkpt><trkpt lat="-20.72873073109313" lon="117.02090208574926"><ele>20.0</ele><time>2026-04-23T02:06:47.001Z</time></trkpt><trkpt lat="-20.7286708929153" lon="117.02093280043269"><ele>19.5</ele><time>2026-04-23T02:06:48.001Z</time></trkpt><trkpt lat="-20.72857789807289" lon="117.02098838584043"><ele>19.0</ele><time>2026-04-23T02:06:48.999Z</time></trkpt><trkpt lat="-20.728501669447006" lon="117.02102554187276"><ele>18.5</ele><time>2026-04-23T02:06:49.999Z</time></trkpt><trkpt lat="-20.728418397814924" lon="117.02106338351976"><ele>18.0</ele><time>2026-04-23T02:06:50.999Z</time></trkpt><trkpt lat="-20.72833963144397" lon="117.02109764512652"><ele>17.5</ele><time>2026-04-23T02:06:51.999Z</time></trkpt><trkpt lat="-20.728269584848114" lon="117.02110059626334"><ele>17.0</ele><time>2026-04-23T02:06:52.999Z</time></trkpt><trkpt lat="-20.72820858717594" lon="117.021124442007"><ele>16.75</ele><time>2026-04-23T02:06:54.999Z</time></trkpt><trkpt lat="-20.7281244051289" lon="117.02112333082263"><ele>16.5</ele><time>2026-04-23T02:07:22Z</time></trkpt><trkpt lat="-20.727995290402642" lon="117.02093521154482"><ele>16.25</ele><time>2026-04-23T02:07:25Z</time></trkpt><trkpt lat="-20.727930278320397" lon="117.02084646073583"><ele>16.0</ele><time>2026-04-23T02:07:26Z</time></trkpt><trkpt lat="-20.727859182791708" lon="117.02075152190586"><ele>15.5</ele><time>2026-04-23T02:07:27Z</time></trkpt><trkpt lat="-20.72777681072702" lon="117.02063602137167"><ele>15.0</ele><time>2026-04-23T02:07:28Z</time></trkpt><trkpt lat="-20.72769433347799" lon="117.02051528872711"><ele>14.5</ele><time>2026-04-23T02:07:29Z</time></trkpt><trkpt lat="-20.727606271741983" lon="117.02038530962206"><ele>14.0</ele><time>2026-04-23T02:07:30Z</time></trkpt><trkpt lat="-20.727508095477134" lon="117.02024996147956"><ele>14.0</ele><time>2026-04-23T02:07:31Z</time></trkpt><trkpt lat="-20.72740295392493" lon="117.02010737129365"><ele>14.0</ele><time>2026-04-23T02:07:32Z</time></trkpt><trkpt lat="-20.727285473946566" lon="117.01994567535243"><ele>14.0</ele><time>2026-04-23T02:07:33Z</time></trkpt><trkpt lat="-20.727171780533567" lon="117.01977953937725"><ele>14.333333333333334</ele><time>2026-04-23T02:07:34Z</time></trkpt><trkpt lat="-20.727050561735133" lon="117.01959902590077"><ele>14.666666666666668</ele><time>2026-04-23T02:07:35Z</time></trkpt><trkpt lat="-20.726950205922968" lon="117.01939953416564"><ele>15.0</ele><time>2026-04-23T02:07:36Z</time></trkpt><trkpt lat="-20.726844353855782" lon="117.01921565185913"><ele>15.0</ele><time>2026-04-23T02:07:37Z</time></trkpt><trkpt lat="-20.726743709337466" lon="117.01901913018861"><ele>15.0</ele><time>2026-04-23T02:07:38Z</time></trkpt><trkpt lat="-20.726651288627995" lon="117.0188236712296"><ele>15.0</ele><time>2026-04-23T02:07:39Z</time></trkpt><trkpt lat="-20.726558157226318" lon="117.01861900907016"><ele>15.0</ele><time>2026-04-23T02:07:40Z</time></trkpt><trkpt lat="-20.726469179432712" lon="117.01841721323919"><ele>15.0</ele><time>2026-04-23T02:07:41Z</time></trkpt><trkpt lat="-20.726384353364356" lon="117.01820979145636"><ele>15.0</ele><time>2026-04-23T02:07:42Z</time></trkpt><trkpt lat="-20.72629432581039" lon="117.01799024389263"><ele>15.666666666666668</ele><time>2026-04-23T02:07:43Z</time></trkpt><trkpt lat="-20.726203081259097" lon="117.017768793929"><ele>16.333333333333336</ele><time>2026-04-23T02:07:44Z</time></trkpt><trkpt lat="-20.726112051270263" lon="117.01755419432459"><ele>17.0</ele><time>2026-04-23T02:07:45Z</time></trkpt><trkpt lat="-20.726024968083387" lon="117.01735485128742"><ele>15.666666666666668</ele><time>2026-04-23T02:07:46Z</time></trkpt><trkpt lat="-20.72590584629282" lon="117.01719154101748"><ele>14.333333333333332</ele><time>2026-04-23T02:07:47Z</time></trkpt><trkpt lat="-20.725799481530586" lon="117.01703033112283"><ele>13.0</ele><time>2026-04-23T02:07:48Z</time></trkpt><trkpt lat="-20.725686535654447" lon="117.01686373953899"><ele>13.0</ele><time>2026-04-23T02:07:49Z</time></trkpt><trkpt lat="-20.725545905146383" lon="117.01671232531329"><ele>13.0</ele><time>2026-04-23T02:07:50Z</time></trkpt><trkpt lat="-20.725381612685194" lon="117.01657282173109"><ele>13.0</ele><time>2026-04-23T02:07:51Z</time></trkpt><trkpt lat="-20.72519920327318" lon="117.01644137793764"><ele>13.0</ele><time>2026-04-23T02:07:52Z</time></trkpt><trkpt lat="-20.724998344610626" lon="117.01631402946136"><ele>13.0</ele><time>2026-04-23T02:07:53Z</time></trkpt><trkpt lat="-20.724780611432124" lon="117.01618435207641"><ele>13.0</ele><time>2026-04-23T02:07:54Z</time></trkpt><trkpt lat="-20.724560724303462" lon="117.01605640671505"><ele>13.0</ele><time>2026-04-23T02:07:55Z</time></trkpt><trkpt lat="-20.724333162595677" lon="117.0159472684703"><ele>13.5</ele><time>2026-04-23T02:07:56Z</time></trkpt><trkpt lat="-20.724103268889806" lon="117.01581685155972"><ele>14.0</ele><time>2026-04-23T02:07:57Z</time></trkpt><trkpt lat="-20.723874195621597" lon="117.0156872995143"><ele>14.0</ele><time>2026-04-23T02:07:58Z</time></trkpt><trkpt lat="-20.72364374455629" lon="117.01555878366918"><ele>14.0</ele><time>2026-04-23T02:07:59Z</time></trkpt><trkpt lat="-20.72341496083237" lon="117.01543247164766"><ele>13.5</ele><time>2026-04-23T02:08:00Z</time></trkpt><trkpt lat="-20.723179764670228" lon="117.01530669739743"><ele>13.0</ele><time>2026-04-23T02:08:01Z</time></trkpt><trkpt lat="-20.722942482186728" lon="117.0151791039519"><ele>13.5</ele><time>2026-04-23T02:08:02Z</time></trkpt><trkpt lat="-20.72270048809262" lon="117.01505180433301"><ele>14.0</ele><time>2026-04-23T02:08:03Z</time></trkpt><trkpt lat="-20.722460087684233" lon="117.01492813913381"><ele>14.5</ele><time>2026-04-23T02:08:04Z</time></trkpt><trkpt lat="-20.722227642113722" lon="117.01478848796225"><ele>15.0</ele><time>2026-04-23T02:08:05Z</time></trkpt><trkpt lat="-20.721992838119085" lon="117.01466539321471"><ele>14.5</ele><time>2026-04-23T02:08:06Z</time></trkpt><trkpt lat="-20.721753799074516" lon="117.01454742915179"><ele>14.0</ele><time>2026-04-23T02:08:07Z</time></trkpt><trkpt lat="-20.721507010535458" lon="117.01445643679398"><ele>14.0</ele><time>2026-04-23T02:08:08Z</time></trkpt><trkpt lat="-20.721267145691368" lon="117.01435670294688"><ele>14.0</ele><time>2026-04-23T02:08:09Z</time></trkpt><trkpt lat="-20.721024717801395" lon="117.01426105694854"><ele>14.0</ele><time>2026-04-23T02:08:10Z</time></trkpt><trkpt lat="-20.720777607892504" lon="117.01416916906149"><ele>14.0</ele><time>2026-04-23T02:08:11Z</time></trkpt><trkpt lat="-20.720534729813064" lon="117.01407971523402"><ele>14.0</ele><time>2026-04-23T02:08:12Z</time></trkpt><trkpt lat="-20.720286318651233" lon="117.01398859483227"><ele>14.0</ele><time>2026-04-23T02:08:13Z</time></trkpt><trkpt lat="-20.72004231335844" lon="117.01390306192384"><ele>14.0</ele><time>2026-04-23T02:08:14Z</time></trkpt><trkpt lat="-20.719796896226853" lon="117.0138169015283"><ele>14.0</ele><time>2026-04-23T02:08:15Z</time></trkpt><trkpt lat="-20.719552946406242" lon="117.01373399943552"><ele>14.5</ele><time>2026-04-23T02:08:16Z</time></trkpt><trkpt lat="-20.719309230929852" lon="117.0136537363915"><ele>15.0</ele><time>2026-04-23T02:08:17Z</time></trkpt><trkpt lat="-20.719062558146636" lon="117.01357746015245"><ele>15.0</ele><time>2026-04-23T02:08:18Z</time></trkpt><trkpt lat="-20.71881376034461" lon="117.01350441082923"><ele>15.0</ele><time>2026-04-23T02:08:19Z</time></trkpt><trkpt lat="-20.718563424870883" lon="117.01343283381297"><ele>15.0</ele><time>2026-04-23T02:08:20Z</time></trkpt><trkpt lat="-20.718311639897216" lon="117.01336215331042"><ele>15.0</ele><time>2026-04-23T02:08:21Z</time></trkpt><trkpt lat="-20.71805242505892" lon="117.01328584941561"><ele>15.5</ele><time>2026-04-23T02:08:22Z</time></trkpt><trkpt lat="-20.717796637860783" lon="117.01320997133809"><ele>16.0</ele><time>2026-04-23T02:08:23Z</time></trkpt><trkpt lat="-20.717535793976406" lon="117.0131344170439"><ele>17.5</ele><time>2026-04-23T02:08:24Z</time></trkpt><trkpt lat="-20.717278275464146" lon="117.01306534310946"><ele>19.0</ele><time>2026-04-23T02:08:25Z</time></trkpt><trkpt lat="-20.71702228669239" lon="117.01299878144124"><ele>19.0</ele><time>2026-04-23T02:08:26Z</time></trkpt><trkpt lat="-20.716764091069408" lon="117.01292923161792"><ele>19.0</ele><time>2026-04-23T02:08:27Z</time></trkpt><trkpt lat="-20.716502043458675" lon="117.01285437825419"><ele>19.0</ele><time>2026-04-23T02:08:28Z</time></trkpt><trkpt lat="-20.716239265524653" lon="117.01277182503844"><ele>19.0</ele><time>2026-04-23T02:08:29Z</time></trkpt><trkpt lat="-20.71598371425279" lon="117.01267061274858"><ele>18.5</ele><time>2026-04-23T02:08:30Z</time></trkpt><trkpt lat="-20.71571558154325" lon="117.01257739701627"><ele>18.0</ele><time>2026-04-23T02:08:31Z</time></trkpt><trkpt lat="-20.715435426779372" lon="117.01249548712657"><ele>17.0</ele><time>2026-04-23T02:08:32Z</time></trkpt><trkpt lat="-20.71515977804634" lon="117.01239724391306"><ele>16.0</ele><time>2026-04-23T02:08:33Z</time></trkpt><trkpt lat="-20.714886716850202" lon="117.01230024045923"><ele>16.0</ele><time>2026-04-23T02:08:34Z</time></trkpt><trkpt lat="-20.71461378934339" lon="117.01220321956735"><ele>16.0</ele><time>2026-04-23T02:08:35Z</time></trkpt><trkpt lat="-20.714337203794422" lon="117.0121079891072"><ele>16.0</ele><time>2026-04-23T02:08:36Z</time></trkpt><trkpt lat="-20.71406098534044" lon="117.0120142059344"><ele>16.0</ele><time>2026-04-23T02:08:37Z</time></trkpt><trkpt lat="-20.713783325659623" lon="117.01192237014345"><ele>16.0</ele><time>2026-04-23T02:08:38Z</time></trkpt><trkpt lat="-20.71350540541493" lon="117.01182859060681"><ele>16.0</ele><time>2026-04-23T02:08:39Z</time></trkpt><trkpt lat="-20.71322905398423" lon="117.01173437461439"><ele>15.5</ele><time>2026-04-23T02:08:40Z</time></trkpt><trkpt lat="-20.712951673079175" lon="117.01164216491128"><ele>15.0</ele><time>2026-04-23T02:08:41Z</time></trkpt><trkpt lat="-20.712676725996364" lon="117.01155214966617"><ele>16.0</ele><time>2026-04-23T02:08:42Z</time></trkpt><trkpt lat="-20.712399398581795" lon="117.01145836527516"><ele>17.0</ele><time>2026-04-23T02:08:43Z</time></trkpt><trkpt lat="-20.71212199934959" lon="117.0113633862831"><ele>17.0</ele><time>2026-04-23T02:08:44Z</time></trkpt><trkpt lat="-20.711850607605562" lon="117.01126717320533"><ele>17.0</ele><time>2026-04-23T02:08:45Z</time></trkpt><trkpt lat="-20.711577757463314" lon="117.01117191582678"><ele>17.0</ele><time>2026-04-23T02:08:46.001Z</time></trkpt><trkpt lat="-20.71131407525927" lon="117.0110794965322"><ele>17.0</ele><time>2026-04-23T02:08:47.001Z</time></trkpt><trkpt lat="-20.711051859083284" lon="117.01098956502965"><ele>17.5</ele><time>2026-04-23T02:08:48.001Z</time></trkpt><trkpt lat="-20.710796990667948" lon="117.01090168948593"><ele>18.0</ele><time>2026-04-23T02:08:49.001Z</time></trkpt><trkpt lat="-20.710537858249893" lon="117.01081401182854"><ele>18.0</ele><time>2026-04-23T02:08:50.001Z</time></trkpt><trkpt lat="-20.710287804859167" lon="117.01072555743843"><ele>18.0</ele><time>2026-04-23T02:08:51.001Z</time></trkpt><trkpt lat="-20.71003346476137" lon="117.0106358021928"><ele>18.0</ele><time>2026-04-23T02:08:52.001Z</time></trkpt><trkpt lat="-20.709783163334954" lon="117.01054851153502"><ele>18.0</ele><time>2026-04-23T02:08:53.001Z</time></trkpt><trkpt lat="-20.709535225799534" lon="117.01046011961849"><ele>19.0</ele><time>2026-04-23T02:08:54.001Z</time></trkpt><trkpt lat="-20.709279918198607" lon="117.0103682110897"><ele>20.0</ele><time>2026-04-23T02:08:54.999Z</time></trkpt><trkpt lat="-20.709023247949307" lon="117.01027769962278"><ele>20.0</ele><time>2026-04-23T02:08:55.999Z</time></trkpt><trkpt lat="-20.708763533837384" lon="117.01018999346113"><ele>20.0</ele><time>2026-04-23T02:08:56.999Z</time></trkpt><trkpt lat="-20.708505011010196" lon="117.01010552731302"><ele>19.5</ele><time>2026-04-23T02:08:57.999Z</time></trkpt><trkpt lat="-20.70824384461433" lon="117.01002338528505"><ele>19.0</ele><time>2026-04-23T02:08:58.999Z</time></trkpt><trkpt lat="-20.707988734663047" lon="117.00994277462686"><ele>20.0</ele><time>2026-04-23T02:08:59.999Z</time></trkpt><trkpt lat="-20.707737921971546" lon="117.00985738408912"><ele>21.0</ele><time>2026-04-23T02:09:00.999Z</time></trkpt><trkpt lat="-20.70748916564077" lon="117.0097677041029"><ele>21.0</ele><time>2026-04-23T02:09:01.999Z</time></trkpt><trkpt lat="-20.707240797686975" lon="117.0096786952403"><ele>21.0</ele><time>2026-04-23T02:09:02.999Z</time></trkpt></trkseg></trk></gpx>